<?xml version="1.0" encoding="UTF-8" standalone="no" ?>
<gpx xmlns="http://www.topografix.com/GPX/1/1" xmlns:xsi="http://www.w3.org/2001/XMLSchema-instance" xsi:schemaLocation="http://www.topografix.com/GPX/1/1 http://www.topografix.com/GPX/1/1/gpx.xsd" version="1.1" creator="VisuGPX - https://www.visugpx.com">
  <metadata>
    <name>Magné c3 (marais pin) 7km</name>
  </metadata>
  <wpt lat="46.32512" lon="-0.5428">
    <ele>6.6</ele>
  </wpt>
  <wpt lat="46.32292" lon="-0.5516">
    <ele>5</ele>
  </wpt>
  <wpt lat="46.32394" lon="-0.5571">
    <ele>4.3</ele>
  </wpt>
  <wpt lat="46.32395" lon="-0.55735">
    <ele>3.4</ele>
  </wpt>
  <trk>
    <name><![CDATA[Magné c3 (marais pin) 7km_1]]></name>
    <trkseg>
      <trkpt lat="46.31362" lon="-0.54216">
        <ele>-8</ele>
        <time>2013-02-19T13:47:04Z</time>
      </trkpt>
      <trkpt lat="46.31365" lon="-0.54219">
        <ele>-8</ele>
        <time>2013-02-19T13:47:14Z</time>
      </trkpt>
      <trkpt lat="46.31368" lon="-0.5422">
        <ele>-8</ele>
        <time>2013-02-19T13:47:19Z</time>
      </trkpt>
      <trkpt lat="46.3137" lon="-0.54219">
        <ele>-8</ele>
        <time>2013-02-19T13:47:24Z</time>
      </trkpt>
      <trkpt lat="46.31371" lon="-0.5422">
        <ele>-0.4711901</ele>
        <time>2013-02-19T13:47:29Z</time>
      </trkpt>
      <trkpt lat="46.31379" lon="-0.54228">
        <ele>1.0599484</ele>
        <time>2013-02-19T13:47:34Z</time>
      </trkpt>
      <trkpt lat="46.3138" lon="-0.54231">
        <ele>1.0599484</ele>
        <time>2013-02-19T13:47:39Z</time>
      </trkpt>
      <trkpt lat="46.31385" lon="-0.5423">
        <ele>1.0599484</ele>
        <time>2013-02-19T13:47:44Z</time>
      </trkpt>
      <trkpt lat="46.31391" lon="-0.54233">
        <ele>2.5000634</ele>
        <time>2013-02-19T13:47:49Z</time>
      </trkpt>
      <trkpt lat="46.31396" lon="-0.54238">
        <ele>2.5000634</ele>
        <time>2013-02-19T13:47:54Z</time>
      </trkpt>
      <trkpt lat="46.314" lon="-0.54242">
        <ele>2.7700155</ele>
        <time>2013-02-19T13:47:59Z</time>
      </trkpt>
      <trkpt lat="46.31404" lon="-0.54244">
        <ele>2.7700155</ele>
        <time>2013-02-19T13:48:04Z</time>
      </trkpt>
      <trkpt lat="46.31409" lon="-0.54246">
        <ele>2.4368198</ele>
        <time>2013-02-19T13:48:09Z</time>
      </trkpt>
      <trkpt lat="46.31411" lon="-0.54247">
        <ele>2.4368198</ele>
        <time>2013-02-19T13:48:14Z</time>
      </trkpt>
      <trkpt lat="46.31414" lon="-0.54249">
        <ele>2.4368198</ele>
        <time>2013-02-19T13:48:19Z</time>
      </trkpt>
      <trkpt lat="46.31416" lon="-0.54257">
        <ele>1.7095331</ele>
        <time>2013-02-19T13:48:24Z</time>
      </trkpt>
      <trkpt lat="46.3142" lon="-0.5426">
        <ele>1.7095331</ele>
        <time>2013-02-19T13:48:29Z</time>
      </trkpt>
      <trkpt lat="46.31419" lon="-0.5427">
        <ele>1.7359482</ele>
        <time>2013-02-19T13:48:34Z</time>
      </trkpt>
      <trkpt lat="46.3142" lon="-0.54275">
        <ele>1.7359482</ele>
        <time>2013-02-19T13:48:39Z</time>
      </trkpt>
      <trkpt lat="46.31424" lon="-0.54281">
        <ele>1.5194572</ele>
        <time>2013-02-19T13:48:44Z</time>
      </trkpt>
      <trkpt lat="46.31428" lon="-0.54287">
        <ele>1.5194572</ele>
        <time>2013-02-19T13:48:49Z</time>
      </trkpt>
      <trkpt lat="46.31429" lon="-0.5429">
        <ele>1.5194572</ele>
        <time>2013-02-19T13:48:54Z</time>
      </trkpt>
      <trkpt lat="46.31431" lon="-0.54298">
        <ele>1.1819764</ele>
        <time>2013-02-19T13:48:59Z</time>
      </trkpt>
      <trkpt lat="46.31434" lon="-0.54296">
        <ele>1.1819764</ele>
        <time>2013-02-19T13:49:04Z</time>
      </trkpt>
      <trkpt lat="46.31437" lon="-0.54301">
        <ele>1.1819764</ele>
        <time>2013-02-19T13:49:09Z</time>
      </trkpt>
      <trkpt lat="46.31441" lon="-0.54303">
        <ele>0.78487056</ele>
        <time>2013-02-19T13:49:14Z</time>
      </trkpt>
      <trkpt lat="46.31443" lon="-0.543">
        <ele>0.78487056</ele>
        <time>2013-02-19T13:49:19Z</time>
      </trkpt>
      <trkpt lat="46.31443" lon="-0.54295">
        <ele>0.78487056</ele>
        <time>2013-02-19T13:49:24Z</time>
      </trkpt>
      <trkpt lat="46.31443" lon="-0.5429">
        <ele>0.29941818</ele>
        <time>2013-02-19T13:49:29Z</time>
      </trkpt>
      <trkpt lat="46.31446" lon="-0.54284">
        <ele>0.29941818</ele>
        <time>2013-02-19T13:49:34Z</time>
      </trkpt>
      <trkpt lat="46.31449" lon="-0.54276">
        <ele>0.18438387</ele>
        <time>2013-02-19T13:49:39Z</time>
      </trkpt>
      <trkpt lat="46.31451" lon="-0.5427">
        <ele>0.18438387</ele>
        <time>2013-02-19T13:49:44Z</time>
      </trkpt>
      <trkpt lat="46.31455" lon="-0.54266">
        <ele>0.18438387</ele>
        <time>2013-02-19T13:49:49Z</time>
      </trkpt>
      <trkpt lat="46.31458" lon="-0.54263">
        <ele>0.10930715</ele>
        <time>2013-02-19T13:49:54Z</time>
      </trkpt>
      <trkpt lat="46.31462" lon="-0.54264">
        <ele>0.10930715</ele>
        <time>2013-02-19T13:49:59Z</time>
      </trkpt>
      <trkpt lat="46.31464" lon="-0.54262">
        <ele>0.10930715</ele>
        <time>2013-02-19T13:50:04Z</time>
      </trkpt>
      <trkpt lat="46.31471" lon="-0.54261">
        <ele>-0.44684327</ele>
        <time>2013-02-19T13:50:09Z</time>
      </trkpt>
      <trkpt lat="46.31478" lon="-0.54259">
        <ele>-0.44684327</ele>
        <time>2013-02-19T13:50:14Z</time>
      </trkpt>
      <trkpt lat="46.31485" lon="-0.54258">
        <ele>-0.34144327</ele>
        <time>2013-02-19T13:50:19Z</time>
      </trkpt>
      <trkpt lat="46.31489" lon="-0.54257">
        <ele>-0.34144327</ele>
        <time>2013-02-19T13:50:24Z</time>
      </trkpt>
      <trkpt lat="46.31493" lon="-0.54257">
        <ele>-0.34144327</ele>
        <time>2013-02-19T13:50:29Z</time>
      </trkpt>
      <trkpt lat="46.31494" lon="-0.54255">
        <ele>-0.39885855</ele>
        <time>2013-02-19T13:50:34Z</time>
      </trkpt>
      <trkpt lat="46.31504" lon="-0.54255">
        <ele>-0.16278891</ele>
        <time>2013-02-19T13:50:39Z</time>
      </trkpt>
      <trkpt lat="46.3151" lon="-0.54255">
        <ele>-0.16278891</ele>
        <time>2013-02-19T13:50:44Z</time>
      </trkpt>
      <trkpt lat="46.31515" lon="-0.54249">
        <ele>-0.26489216</ele>
        <time>2013-02-19T13:50:49Z</time>
      </trkpt>
      <trkpt lat="46.31515" lon="-0.54242">
        <ele>-0.26489216</ele>
        <time>2013-02-19T13:50:54Z</time>
      </trkpt>
      <trkpt lat="46.31515" lon="-0.54234">
        <ele>-0.19036536</ele>
        <time>2013-02-19T13:50:59Z</time>
      </trkpt>
      <trkpt lat="46.31515" lon="-0.54228">
        <ele>-0.19036536</ele>
        <time>2013-02-19T13:51:04Z</time>
      </trkpt>
      <trkpt lat="46.31516" lon="-0.54219">
        <ele>-0.19572455</ele>
        <time>2013-02-19T13:51:09Z</time>
      </trkpt>
      <trkpt lat="46.31515" lon="-0.54224">
        <ele>-0.19572455</ele>
        <time>2013-02-19T13:51:14Z</time>
      </trkpt>
      <trkpt lat="46.31521" lon="-0.54221">
        <ele>-0.9366847</ele>
        <time>2013-02-19T13:51:19Z</time>
      </trkpt>
      <trkpt lat="46.31522" lon="-0.54218">
        <ele>-0.9366847</ele>
        <time>2013-02-19T13:51:24Z</time>
      </trkpt>
      <trkpt lat="46.31521" lon="-0.54207">
        <ele>-1.7332277</ele>
        <time>2013-02-19T13:51:29Z</time>
      </trkpt>
      <trkpt lat="46.31519" lon="-0.54196">
        <ele>-1.7332277</ele>
        <time>2013-02-19T13:51:34Z</time>
      </trkpt>
      <trkpt lat="46.31519" lon="-0.54189">
        <ele>-1.6480857</ele>
        <time>2013-02-19T13:51:39Z</time>
      </trkpt>
      <trkpt lat="46.31521" lon="-0.54188">
        <ele>-1.6480857</ele>
        <time>2013-02-19T13:51:44Z</time>
      </trkpt>
      <trkpt lat="46.31525" lon="-0.54177">
        <ele>-1.2970636</ele>
        <time>2013-02-19T13:51:49Z</time>
      </trkpt>
      <trkpt lat="46.31526" lon="-0.54175">
        <ele>-1.2970636</ele>
        <time>2013-02-19T13:51:54Z</time>
      </trkpt>
      <trkpt lat="46.31529" lon="-0.54174">
        <ele>-1.2970636</ele>
        <time>2013-02-19T13:51:59Z</time>
      </trkpt>
      <trkpt lat="46.31533" lon="-0.54177">
        <ele>-1.2926744</ele>
        <time>2013-02-19T13:52:04Z</time>
      </trkpt>
      <trkpt lat="46.31543" lon="-0.5418">
        <ele>-1.3106463</ele>
        <time>2013-02-19T13:52:09Z</time>
      </trkpt>
      <trkpt lat="46.31551" lon="-0.54179">
        <ele>-1.3106463</ele>
        <time>2013-02-19T13:52:14Z</time>
      </trkpt>
      <trkpt lat="46.31559" lon="-0.54182">
        <ele>-0.9214516</ele>
        <time>2013-02-19T13:52:19Z</time>
      </trkpt>
      <trkpt lat="46.31564" lon="-0.54178">
        <ele>-0.9214516</ele>
        <time>2013-02-19T13:52:24Z</time>
      </trkpt>
      <trkpt lat="46.31572" lon="-0.54182">
        <ele>-0.20686257</ele>
        <time>2013-02-19T13:52:29Z</time>
      </trkpt>
      <trkpt lat="46.31574" lon="-0.54183">
        <ele>-0.20686257</ele>
        <time>2013-02-19T13:52:34Z</time>
      </trkpt>
      <trkpt lat="46.31581" lon="-0.54188">
        <ele>0.4948947</ele>
        <time>2013-02-19T13:52:39Z</time>
      </trkpt>
      <trkpt lat="46.31588" lon="-0.5419">
        <ele>0.4948947</ele>
        <time>2013-02-19T13:52:44Z</time>
      </trkpt>
      <trkpt lat="46.31594" lon="-0.54192">
        <ele>1.4777988</ele>
        <time>2013-02-19T13:52:49Z</time>
      </trkpt>
      <trkpt lat="46.316" lon="-0.54196">
        <ele>1.4777988</ele>
        <time>2013-02-19T13:52:54Z</time>
      </trkpt>
      <trkpt lat="46.31605" lon="-0.54197">
        <ele>2.274018</ele>
        <time>2013-02-19T13:52:59Z</time>
      </trkpt>
      <trkpt lat="46.31612" lon="-0.54198">
        <ele>2.274018</ele>
        <time>2013-02-19T13:53:04Z</time>
      </trkpt>
      <trkpt lat="46.31619" lon="-0.54198">
        <ele>3.161363</ele>
        <time>2013-02-19T13:53:09Z</time>
      </trkpt>
      <trkpt lat="46.3162" lon="-0.54202">
        <ele>3.161363</ele>
        <time>2013-02-19T13:53:14Z</time>
      </trkpt>
      <trkpt lat="46.31624" lon="-0.54206">
        <ele>3.161363</ele>
        <time>2013-02-19T13:53:19Z</time>
      </trkpt>
      <trkpt lat="46.3163" lon="-0.54206">
        <ele>4.132566</ele>
        <time>2013-02-19T13:53:24Z</time>
      </trkpt>
      <trkpt lat="46.31633" lon="-0.54206">
        <ele>4.132566</ele>
        <time>2013-02-19T13:53:29Z</time>
      </trkpt>
      <trkpt lat="46.31643" lon="-0.54209">
        <ele>5.2225385</ele>
        <time>2013-02-19T13:53:34Z</time>
      </trkpt>
      <trkpt lat="46.31651" lon="-0.54208">
        <ele>5.2225385</ele>
        <time>2013-02-19T13:53:39Z</time>
      </trkpt>
      <trkpt lat="46.31656" lon="-0.54208">
        <ele>6.059198</ele>
        <time>2013-02-19T13:53:44Z</time>
      </trkpt>
      <trkpt lat="46.31661" lon="-0.54209">
        <ele>6.059198</ele>
        <time>2013-02-19T13:53:49Z</time>
      </trkpt>
      <trkpt lat="46.31664" lon="-0.54205">
        <ele>6.8387537</ele>
        <time>2013-02-19T13:53:54Z</time>
      </trkpt>
      <trkpt lat="46.3167" lon="-0.54211">
        <ele>6.8387537</ele>
        <time>2013-02-19T13:53:59Z</time>
      </trkpt>
      <trkpt lat="46.31671" lon="-0.54211">
        <ele>6.8387537</ele>
        <time>2013-02-19T13:54:04Z</time>
      </trkpt>
      <trkpt lat="46.31672" lon="-0.54211">
        <ele>7.7740836</ele>
        <time>2013-02-19T13:54:09Z</time>
      </trkpt>
      <trkpt lat="46.31673" lon="-0.54212">
        <ele>7.7740836</ele>
        <time>2013-02-19T13:54:14Z</time>
      </trkpt>
      <trkpt lat="46.31678" lon="-0.54211">
        <ele>7.7740836</ele>
        <time>2013-02-19T13:54:19Z</time>
      </trkpt>
      <trkpt lat="46.31685" lon="-0.54211">
        <ele>8.470835</ele>
        <time>2013-02-19T13:54:24Z</time>
      </trkpt>
      <trkpt lat="46.31694" lon="-0.54208">
        <ele>9.0404005</ele>
        <time>2013-02-19T13:54:29Z</time>
      </trkpt>
      <trkpt lat="46.317" lon="-0.54207">
        <ele>9.0404005</ele>
        <time>2013-02-19T13:54:34Z</time>
      </trkpt>
      <trkpt lat="46.31702" lon="-0.54205">
        <ele>9.761329</ele>
        <time>2013-02-19T13:54:39Z</time>
      </trkpt>
      <trkpt lat="46.31706" lon="-0.54201">
        <ele>9.761329</ele>
        <time>2013-02-19T13:54:44Z</time>
      </trkpt>
      <trkpt lat="46.31709" lon="-0.54196">
        <ele>10.188726</ele>
        <time>2013-02-19T13:54:49Z</time>
      </trkpt>
      <trkpt lat="46.31714" lon="-0.54193">
        <ele>10.188726</ele>
        <time>2013-02-19T13:54:54Z</time>
      </trkpt>
      <trkpt lat="46.31713" lon="-0.5419">
        <ele>10.188726</ele>
        <time>2013-02-19T13:54:59Z</time>
      </trkpt>
      <trkpt lat="46.3171" lon="-0.54184">
        <ele>10.105164</ele>
        <time>2013-02-19T13:55:04Z</time>
      </trkpt>
      <trkpt lat="46.31716" lon="-0.54181">
        <ele>10.105164</ele>
        <time>2013-02-19T13:55:09Z</time>
      </trkpt>
      <trkpt lat="46.31717" lon="-0.54176">
        <ele>10.105164</ele>
        <time>2013-02-19T13:55:14Z</time>
      </trkpt>
      <trkpt lat="46.31725" lon="-0.54176">
        <ele>9.600209</ele>
        <time>2013-02-19T13:55:19Z</time>
      </trkpt>
      <trkpt lat="46.31724" lon="-0.54171">
        <ele>9.600209</ele>
        <time>2013-02-19T13:55:24Z</time>
      </trkpt>
      <trkpt lat="46.31731" lon="-0.54168">
        <ele>9.159525</ele>
        <time>2013-02-19T13:55:29Z</time>
      </trkpt>
      <trkpt lat="46.31737" lon="-0.54166">
        <ele>9.159525</ele>
        <time>2013-02-19T13:55:34Z</time>
      </trkpt>
      <trkpt lat="46.31742" lon="-0.54164">
        <ele>8.500657</ele>
        <time>2013-02-19T13:55:39Z</time>
      </trkpt>
      <trkpt lat="46.31744" lon="-0.5416">
        <ele>8.500657</ele>
        <time>2013-02-19T13:55:44Z</time>
      </trkpt>
      <trkpt lat="46.31747" lon="-0.54156">
        <ele>8.500657</ele>
        <time>2013-02-19T13:55:49Z</time>
      </trkpt>
      <trkpt lat="46.31753" lon="-0.54152">
        <ele>7.9097905</ele>
        <time>2013-02-19T13:55:54Z</time>
      </trkpt>
      <trkpt lat="46.31762" lon="-0.5415">
        <ele>7.3864155</ele>
        <time>2013-02-19T13:55:59Z</time>
      </trkpt>
      <trkpt lat="46.31766" lon="-0.54144">
        <ele>7.3864155</ele>
        <time>2013-02-19T13:56:04Z</time>
      </trkpt>
      <trkpt lat="46.31773" lon="-0.54139">
        <ele>7.154585</ele>
        <time>2013-02-19T13:56:09Z</time>
      </trkpt>
      <trkpt lat="46.31776" lon="-0.54136">
        <ele>7.154585</ele>
        <time>2013-02-19T13:56:14Z</time>
      </trkpt>
      <trkpt lat="46.3178" lon="-0.54134">
        <ele>7.154585</ele>
        <time>2013-02-19T13:56:19Z</time>
      </trkpt>
      <trkpt lat="46.31782" lon="-0.54131">
        <ele>6.5643363</ele>
        <time>2013-02-19T13:56:24Z</time>
      </trkpt>
      <trkpt lat="46.31788" lon="-0.54128">
        <ele>6.5643363</ele>
        <time>2013-02-19T13:56:29Z</time>
      </trkpt>
      <trkpt lat="46.31789" lon="-0.54123">
        <ele>5.9460564</ele>
        <time>2013-02-19T13:56:34Z</time>
      </trkpt>
      <trkpt lat="46.31795" lon="-0.54118">
        <ele>5.9460564</ele>
        <time>2013-02-19T13:56:39Z</time>
      </trkpt>
      <trkpt lat="46.318" lon="-0.54114">
        <ele>5.4108653</ele>
        <time>2013-02-19T13:56:44Z</time>
      </trkpt>
      <trkpt lat="46.31803" lon="-0.5411">
        <ele>5.4108653</ele>
        <time>2013-02-19T13:56:49Z</time>
      </trkpt>
      <trkpt lat="46.31808" lon="-0.54109">
        <ele>5.4108653</ele>
        <time>2013-02-19T13:56:54Z</time>
      </trkpt>
      <trkpt lat="46.31811" lon="-0.54104">
        <ele>5.272513</ele>
        <time>2013-02-19T13:56:59Z</time>
      </trkpt>
      <trkpt lat="46.31816" lon="-0.54099">
        <ele>5.272513</ele>
        <time>2013-02-19T13:57:04Z</time>
      </trkpt>
      <trkpt lat="46.3182" lon="-0.54095">
        <ele>5.3811617</ele>
        <time>2013-02-19T13:57:09Z</time>
      </trkpt>
      <trkpt lat="46.31822" lon="-0.54091">
        <ele>5.3811617</ele>
        <time>2013-02-19T13:57:14Z</time>
      </trkpt>
      <trkpt lat="46.31826" lon="-0.5409">
        <ele>5.3811617</ele>
        <time>2013-02-19T13:57:19Z</time>
      </trkpt>
      <trkpt lat="46.31828" lon="-0.54086">
        <ele>5.053875</ele>
        <time>2013-02-19T13:57:24Z</time>
      </trkpt>
      <trkpt lat="46.31828" lon="-0.54083">
        <ele>5.053875</ele>
        <time>2013-02-19T13:57:29Z</time>
      </trkpt>
      <trkpt lat="46.3183" lon="-0.54081">
        <ele>5.053875</ele>
        <time>2013-02-19T13:57:34Z</time>
      </trkpt>
      <trkpt lat="46.31836" lon="-0.54076">
        <ele>4.58283</ele>
        <time>2013-02-19T13:57:39Z</time>
      </trkpt>
      <trkpt lat="46.31842" lon="-0.54074">
        <ele>4.58283</ele>
        <time>2013-02-19T13:57:44Z</time>
      </trkpt>
      <trkpt lat="46.3185" lon="-0.54069">
        <ele>3.846093</ele>
        <time>2013-02-19T13:57:49Z</time>
      </trkpt>
      <trkpt lat="46.31856" lon="-0.54064">
        <ele>3.846093</ele>
        <time>2013-02-19T13:57:54Z</time>
      </trkpt>
      <trkpt lat="46.31858" lon="-0.5406">
        <ele>3.1985013</ele>
        <time>2013-02-19T13:57:59Z</time>
      </trkpt>
      <trkpt lat="46.31853" lon="-0.54055">
        <ele>3.1985013</ele>
        <time>2013-02-19T13:58:04Z</time>
      </trkpt>
      <trkpt lat="46.31855" lon="-0.54051">
        <ele>2.410319</ele>
        <time>2013-02-19T13:58:09Z</time>
      </trkpt>
      <trkpt lat="46.31858" lon="-0.54047">
        <ele>2.410319</ele>
        <time>2013-02-19T13:58:14Z</time>
      </trkpt>
      <trkpt lat="46.31865" lon="-0.54045">
        <ele>1.795042</ele>
        <time>2013-02-19T13:58:19Z</time>
      </trkpt>
      <trkpt lat="46.31869" lon="-0.54041">
        <ele>1.795042</ele>
        <time>2013-02-19T13:58:24Z</time>
      </trkpt>
      <trkpt lat="46.31876" lon="-0.54037">
        <ele>1.3107651</ele>
        <time>2013-02-19T13:58:29Z</time>
      </trkpt>
      <trkpt lat="46.31877" lon="-0.54033">
        <ele>1.3107651</ele>
        <time>2013-02-19T13:58:34Z</time>
      </trkpt>
      <trkpt lat="46.31883" lon="-0.54028">
        <ele>1.2760162</ele>
        <time>2013-02-19T13:58:39Z</time>
      </trkpt>
      <trkpt lat="46.31885" lon="-0.54023">
        <ele>1.2760162</ele>
        <time>2013-02-19T13:58:44Z</time>
      </trkpt>
      <trkpt lat="46.31899" lon="-0.54021">
        <ele>1.4313506</ele>
        <time>2013-02-19T13:58:49Z</time>
      </trkpt>
      <trkpt lat="46.31904" lon="-0.54017">
        <ele>1.4313506</ele>
        <time>2013-02-19T13:58:54Z</time>
      </trkpt>
      <trkpt lat="46.31906" lon="-0.54013">
        <ele>1.5682325</ele>
        <time>2013-02-19T13:58:59Z</time>
      </trkpt>
      <trkpt lat="46.31909" lon="-0.54007">
        <ele>1.5682325</ele>
        <time>2013-02-19T13:59:04Z</time>
      </trkpt>
      <trkpt lat="46.31909" lon="-0.54">
        <ele>1.7618023</ele>
        <time>2013-02-19T13:59:09Z</time>
      </trkpt>
      <trkpt lat="46.31919" lon="-0.53996">
        <ele>2.3609302</ele>
        <time>2013-02-19T13:59:14Z</time>
      </trkpt>
      <trkpt lat="46.31925" lon="-0.53991">
        <ele>2.3609302</ele>
        <time>2013-02-19T13:59:19Z</time>
      </trkpt>
      <trkpt lat="46.31931" lon="-0.53986">
        <ele>3.3312454</ele>
        <time>2013-02-19T13:59:24Z</time>
      </trkpt>
      <trkpt lat="46.31936" lon="-0.53984">
        <ele>3.3312454</ele>
        <time>2013-02-19T13:59:29Z</time>
      </trkpt>
      <trkpt lat="46.31938" lon="-0.53983">
        <ele>3.3312454</ele>
        <time>2013-02-19T13:59:34Z</time>
      </trkpt>
      <trkpt lat="46.31939" lon="-0.53976">
        <ele>4.200014</ele>
        <time>2013-02-19T13:59:39Z</time>
      </trkpt>
      <trkpt lat="46.31944" lon="-0.53972">
        <ele>4.200014</ele>
        <time>2013-02-19T13:59:44Z</time>
      </trkpt>
      <trkpt lat="46.3195" lon="-0.53972">
        <ele>5.105061</ele>
        <time>2013-02-19T13:59:49Z</time>
      </trkpt>
      <trkpt lat="46.31954" lon="-0.5397">
        <ele>5.105061</ele>
        <time>2013-02-19T13:59:54Z</time>
      </trkpt>
      <trkpt lat="46.31958" lon="-0.53967">
        <ele>5.105061</ele>
        <time>2013-02-19T13:59:59Z</time>
      </trkpt>
      <trkpt lat="46.3196" lon="-0.53961">
        <ele>5.631969</ele>
        <time>2013-02-19T14:00:04Z</time>
      </trkpt>
      <trkpt lat="46.31968" lon="-0.53956">
        <ele>5.631969</ele>
        <time>2013-02-19T14:00:09Z</time>
      </trkpt>
      <trkpt lat="46.31972" lon="-0.53952">
        <ele>5.882403</ele>
        <time>2013-02-19T14:00:14Z</time>
      </trkpt>
      <trkpt lat="46.31976" lon="-0.53949">
        <ele>5.882403</ele>
        <time>2013-02-19T14:00:19Z</time>
      </trkpt>
      <trkpt lat="46.31983" lon="-0.53946">
        <ele>6.3727813</ele>
        <time>2013-02-19T14:00:24Z</time>
      </trkpt>
      <trkpt lat="46.31993" lon="-0.53943">
        <ele>6.777728</ele>
        <time>2013-02-19T14:00:29Z</time>
      </trkpt>
      <trkpt lat="46.31992" lon="-0.5394">
        <ele>6.777728</ele>
        <time>2013-02-19T14:00:34Z</time>
      </trkpt>
      <trkpt lat="46.31993" lon="-0.53938">
        <ele>6.777728</ele>
        <time>2013-02-19T14:00:39Z</time>
      </trkpt>
      <trkpt lat="46.31993" lon="-0.53932">
        <ele>6.777728</ele>
        <time>2013-02-19T14:00:44Z</time>
      </trkpt>
      <trkpt lat="46.31995" lon="-0.53927">
        <ele>7.0012665</ele>
        <time>2013-02-19T14:00:49Z</time>
      </trkpt>
      <trkpt lat="46.31996" lon="-0.53924">
        <ele>7.0012665</ele>
        <time>2013-02-19T14:00:54Z</time>
      </trkpt>
      <trkpt lat="46.31996" lon="-0.5392">
        <ele>7.0012665</ele>
        <time>2013-02-19T14:00:59Z</time>
      </trkpt>
      <trkpt lat="46.32001" lon="-0.53918">
        <ele>7.0279055</ele>
        <time>2013-02-19T14:01:04Z</time>
      </trkpt>
      <trkpt lat="46.32006" lon="-0.5391">
        <ele>7.0279055</ele>
        <time>2013-02-19T14:01:09Z</time>
      </trkpt>
      <trkpt lat="46.3201" lon="-0.53905">
        <ele>6.988666</ele>
        <time>2013-02-19T14:01:14Z</time>
      </trkpt>
      <trkpt lat="46.32013" lon="-0.53903">
        <ele>6.988666</ele>
        <time>2013-02-19T14:01:19Z</time>
      </trkpt>
      <trkpt lat="46.3202" lon="-0.539">
        <ele>6.454537</ele>
        <time>2013-02-19T14:01:24Z</time>
      </trkpt>
      <trkpt lat="46.32025" lon="-0.53896">
        <ele>6.454537</ele>
        <time>2013-02-19T14:01:29Z</time>
      </trkpt>
      <trkpt lat="46.32027" lon="-0.53894">
        <ele>6.454537</ele>
        <time>2013-02-19T14:01:34Z</time>
      </trkpt>
      <trkpt lat="46.3203" lon="-0.53895">
        <ele>6.317801</ele>
        <time>2013-02-19T14:01:39Z</time>
      </trkpt>
      <trkpt lat="46.32034" lon="-0.53891">
        <ele>6.317801</ele>
        <time>2013-02-19T14:01:44Z</time>
      </trkpt>
      <trkpt lat="46.32041" lon="-0.53887">
        <ele>6.3176017</ele>
        <time>2013-02-19T14:01:49Z</time>
      </trkpt>
      <trkpt lat="46.32047" lon="-0.5388">
        <ele>6.3176017</ele>
        <time>2013-02-19T14:01:54Z</time>
      </trkpt>
      <trkpt lat="46.32046" lon="-0.53875">
        <ele>5.9093704</ele>
        <time>2013-02-19T14:01:59Z</time>
      </trkpt>
      <trkpt lat="46.3205" lon="-0.53871">
        <ele>5.9093704</ele>
        <time>2013-02-19T14:02:04Z</time>
      </trkpt>
      <trkpt lat="46.32054" lon="-0.53868">
        <ele>5.9093704</ele>
        <time>2013-02-19T14:02:09Z</time>
      </trkpt>
      <trkpt lat="46.32054" lon="-0.53867">
        <ele>6.019878</ele>
        <time>2013-02-19T14:02:14Z</time>
      </trkpt>
      <trkpt lat="46.32056" lon="-0.53861">
        <ele>6.019878</ele>
        <time>2013-02-19T14:02:19Z</time>
      </trkpt>
      <trkpt lat="46.32061" lon="-0.53856">
        <ele>6.336015</ele>
        <time>2013-02-19T14:02:24Z</time>
      </trkpt>
      <trkpt lat="46.32066" lon="-0.53852">
        <ele>6.336015</ele>
        <time>2013-02-19T14:02:29Z</time>
      </trkpt>
      <trkpt lat="46.32069" lon="-0.53846">
        <ele>6.5820794</ele>
        <time>2013-02-19T14:02:34Z</time>
      </trkpt>
      <trkpt lat="46.32071" lon="-0.5384">
        <ele>6.5820794</ele>
        <time>2013-02-19T14:02:39Z</time>
      </trkpt>
      <trkpt lat="46.32071" lon="-0.53835">
        <ele>6.5820794</ele>
        <time>2013-02-19T14:02:44Z</time>
      </trkpt>
      <trkpt lat="46.32081" lon="-0.5383">
        <ele>6.387734</ele>
        <time>2013-02-19T14:02:49Z</time>
      </trkpt>
      <trkpt lat="46.32084" lon="-0.53825">
        <ele>6.387734</ele>
        <time>2013-02-19T14:02:54Z</time>
      </trkpt>
      <trkpt lat="46.32087" lon="-0.53821">
        <ele>6.2764993</ele>
        <time>2013-02-19T14:02:59Z</time>
      </trkpt>
      <trkpt lat="46.32096" lon="-0.53816">
        <ele>6.040785</ele>
        <time>2013-02-19T14:03:04Z</time>
      </trkpt>
      <trkpt lat="46.32113" lon="-0.53815">
        <ele>6.050972</ele>
        <time>2013-02-19T14:03:09Z</time>
      </trkpt>
      <trkpt lat="46.32118" lon="-0.53809">
        <ele>6.050972</ele>
        <time>2013-02-19T14:03:14Z</time>
      </trkpt>
      <trkpt lat="46.32123" lon="-0.53808">
        <ele>6.562977</ele>
        <time>2013-02-19T14:03:19Z</time>
      </trkpt>
      <trkpt lat="46.32126" lon="-0.53805">
        <ele>6.562977</ele>
        <time>2013-02-19T14:03:24Z</time>
      </trkpt>
      <trkpt lat="46.32128" lon="-0.53802">
        <ele>6.562977</ele>
        <time>2013-02-19T14:03:29Z</time>
      </trkpt>
      <trkpt lat="46.32131" lon="-0.53799">
        <ele>7.1493235</ele>
        <time>2013-02-19T14:03:34Z</time>
      </trkpt>
      <trkpt lat="46.32132" lon="-0.53797">
        <ele>7.1493235</ele>
        <time>2013-02-19T14:03:39Z</time>
      </trkpt>
      <trkpt lat="46.32135" lon="-0.53791">
        <ele>7.1493235</ele>
        <time>2013-02-19T14:03:44Z</time>
      </trkpt>
      <trkpt lat="46.32137" lon="-0.53787">
        <ele>7.1974797</ele>
        <time>2013-02-19T14:03:49Z</time>
      </trkpt>
      <trkpt lat="46.32137" lon="-0.53779">
        <ele>7.1974797</ele>
        <time>2013-02-19T14:03:54Z</time>
      </trkpt>
      <trkpt lat="46.32141" lon="-0.53776">
        <ele>6.9488034</ele>
        <time>2013-02-19T14:03:59Z</time>
      </trkpt>
      <trkpt lat="46.32144" lon="-0.53772">
        <ele>6.9488034</ele>
        <time>2013-02-19T14:04:04Z</time>
      </trkpt>
      <trkpt lat="46.32148" lon="-0.53771">
        <ele>6.9488034</ele>
        <time>2013-02-19T14:04:09Z</time>
      </trkpt>
      <trkpt lat="46.32149" lon="-0.53771">
        <ele>7.291062</ele>
        <time>2013-02-19T14:04:14Z</time>
      </trkpt>
      <trkpt lat="46.32151" lon="-0.53764">
        <ele>7.291062</ele>
        <time>2013-02-19T14:04:24Z</time>
      </trkpt>
      <trkpt lat="46.32152" lon="-0.53764">
        <ele>7.291062</ele>
        <time>2013-02-19T14:04:29Z</time>
      </trkpt>
      <trkpt lat="46.32154" lon="-0.53764">
        <ele>7.291062</ele>
        <time>2013-02-19T14:04:34Z</time>
      </trkpt>
      <trkpt lat="46.32156" lon="-0.53766">
        <ele>7.9493437</ele>
        <time>2013-02-19T14:04:39Z</time>
      </trkpt>
      <trkpt lat="46.32158" lon="-0.53765">
        <ele>7.9493437</ele>
        <time>2013-02-19T14:04:44Z</time>
      </trkpt>
      <trkpt lat="46.3216" lon="-0.53761">
        <ele>7.9493437</ele>
        <time>2013-02-19T14:04:49Z</time>
      </trkpt>
      <trkpt lat="46.32163" lon="-0.53756">
        <ele>8.076745</ele>
        <time>2013-02-19T14:04:54Z</time>
      </trkpt>
      <trkpt lat="46.32167" lon="-0.53755">
        <ele>8.076745</ele>
        <time>2013-02-19T14:04:59Z</time>
      </trkpt>
      <trkpt lat="46.32166" lon="-0.53753">
        <ele>8.076745</ele>
        <time>2013-02-19T14:05:04Z</time>
      </trkpt>
      <trkpt lat="46.3217" lon="-0.53751">
        <ele>8.534051</ele>
        <time>2013-02-19T14:05:09Z</time>
      </trkpt>
      <trkpt lat="46.32172" lon="-0.53748">
        <ele>8.534051</ele>
        <time>2013-02-19T14:05:14Z</time>
      </trkpt>
      <trkpt lat="46.32178" lon="-0.53744">
        <ele>8.733436</ele>
        <time>2013-02-19T14:05:19Z</time>
      </trkpt>
      <trkpt lat="46.32187" lon="-0.53741">
        <ele>8.733436</ele>
        <time>2013-02-19T14:05:24Z</time>
      </trkpt>
      <trkpt lat="46.322" lon="-0.53739">
        <ele>8.967477</ele>
        <time>2013-02-19T14:05:29Z</time>
      </trkpt>
      <trkpt lat="46.322" lon="-0.53738">
        <ele>8.967477</ele>
        <time>2013-02-19T14:05:34Z</time>
      </trkpt>
      <trkpt lat="46.32204" lon="-0.53739">
        <ele>8.967477</ele>
        <time>2013-02-19T14:05:39Z</time>
      </trkpt>
      <trkpt lat="46.32207" lon="-0.5374">
        <ele>8.967477</ele>
        <time>2013-02-19T14:05:44Z</time>
      </trkpt>
      <trkpt lat="46.32209" lon="-0.53739">
        <ele>9.391811</ele>
        <time>2013-02-19T14:05:49Z</time>
      </trkpt>
      <trkpt lat="46.32209" lon="-0.53736">
        <ele>9.391811</ele>
        <time>2013-02-19T14:05:54Z</time>
      </trkpt>
      <trkpt lat="46.32214" lon="-0.53736">
        <ele>9.391811</ele>
        <time>2013-02-19T14:05:59Z</time>
      </trkpt>
      <trkpt lat="46.32218" lon="-0.53738">
        <ele>10.005885</ele>
        <time>2013-02-19T14:06:04Z</time>
      </trkpt>
      <trkpt lat="46.32222" lon="-0.53737">
        <ele>10.005885</ele>
        <time>2013-02-19T14:06:09Z</time>
      </trkpt>
      <trkpt lat="46.32222" lon="-0.53738">
        <ele>10.005885</ele>
        <time>2013-02-19T14:06:14Z</time>
      </trkpt>
      <trkpt lat="46.32226" lon="-0.53741">
        <ele>9.899924</ele>
        <time>2013-02-19T14:06:19Z</time>
      </trkpt>
      <trkpt lat="46.32229" lon="-0.53742">
        <ele>9.899924</ele>
        <time>2013-02-19T14:06:24Z</time>
      </trkpt>
      <trkpt lat="46.32232" lon="-0.53744">
        <ele>9.899924</ele>
        <time>2013-02-19T14:06:29Z</time>
      </trkpt>
      <trkpt lat="46.32239" lon="-0.53744">
        <ele>10.007267</ele>
        <time>2013-02-19T14:06:34Z</time>
      </trkpt>
      <trkpt lat="46.32241" lon="-0.53745">
        <ele>10.007267</ele>
        <time>2013-02-19T14:06:39Z</time>
      </trkpt>
      <trkpt lat="46.32245" lon="-0.53746">
        <ele>10.007267</ele>
        <time>2013-02-19T14:06:44Z</time>
      </trkpt>
      <trkpt lat="46.3225" lon="-0.53748">
        <ele>9.980411</ele>
        <time>2013-02-19T14:06:49Z</time>
      </trkpt>
      <trkpt lat="46.32255" lon="-0.53748">
        <ele>9.980411</ele>
        <time>2013-02-19T14:06:54Z</time>
      </trkpt>
      <trkpt lat="46.32256" lon="-0.53748">
        <ele>9.980411</ele>
        <time>2013-02-19T14:06:59Z</time>
      </trkpt>
      <trkpt lat="46.32259" lon="-0.53747">
        <ele>9.5555</ele>
        <time>2013-02-19T14:07:04Z</time>
      </trkpt>
      <trkpt lat="46.32263" lon="-0.53751">
        <ele>9.5555</ele>
        <time>2013-02-19T14:07:09Z</time>
      </trkpt>
      <trkpt lat="46.32266" lon="-0.53753">
        <ele>9.5555</ele>
        <time>2013-02-19T14:07:14Z</time>
      </trkpt>
      <trkpt lat="46.32269" lon="-0.53752">
        <ele>9.426783</ele>
        <time>2013-02-19T14:07:19Z</time>
      </trkpt>
      <trkpt lat="46.32278" lon="-0.53755">
        <ele>9.688491</ele>
        <time>2013-02-19T14:07:24Z</time>
      </trkpt>
      <trkpt lat="46.32285" lon="-0.53755">
        <ele>9.688491</ele>
        <time>2013-02-19T14:07:29Z</time>
      </trkpt>
      <trkpt lat="46.32288" lon="-0.53756">
        <ele>10.181628</ele>
        <time>2013-02-19T14:07:34Z</time>
      </trkpt>
      <trkpt lat="46.3229" lon="-0.53758">
        <ele>10.181628</ele>
        <time>2013-02-19T14:07:39Z</time>
      </trkpt>
      <trkpt lat="46.32297" lon="-0.53761">
        <ele>10.700572</ele>
        <time>2013-02-19T14:07:44Z</time>
      </trkpt>
      <trkpt lat="46.323" lon="-0.53761">
        <ele>10.700572</ele>
        <time>2013-02-19T14:07:49Z</time>
      </trkpt>
      <trkpt lat="46.32302" lon="-0.5376">
        <ele>10.700572</ele>
        <time>2013-02-19T14:07:54Z</time>
      </trkpt>
      <trkpt lat="46.32305" lon="-0.53758">
        <ele>10.700572</ele>
        <time>2013-02-19T14:07:59Z</time>
      </trkpt>
      <trkpt lat="46.32311" lon="-0.53762">
        <ele>11.314368</ele>
        <time>2013-02-19T14:08:04Z</time>
      </trkpt>
      <trkpt lat="46.32316" lon="-0.53769">
        <ele>11.314368</ele>
        <time>2013-02-19T14:08:09Z</time>
      </trkpt>
      <trkpt lat="46.3232" lon="-0.53769">
        <ele>11.755041</ele>
        <time>2013-02-19T14:08:14Z</time>
      </trkpt>
      <trkpt lat="46.32324" lon="-0.53771">
        <ele>11.755041</ele>
        <time>2013-02-19T14:08:19Z</time>
      </trkpt>
      <trkpt lat="46.32327" lon="-0.53782">
        <ele>12.135365</ele>
        <time>2013-02-19T14:08:24Z</time>
      </trkpt>
      <trkpt lat="46.3233" lon="-0.5378">
        <ele>12.135365</ele>
        <time>2013-02-19T14:08:29Z</time>
      </trkpt>
      <trkpt lat="46.32335" lon="-0.53789">
        <ele>12.9349</ele>
        <time>2013-02-19T14:08:34Z</time>
      </trkpt>
      <trkpt lat="46.32338" lon="-0.53792">
        <ele>12.9349</ele>
        <time>2013-02-19T14:08:39Z</time>
      </trkpt>
      <trkpt lat="46.32342" lon="-0.53793">
        <ele>12.9349</ele>
        <time>2013-02-19T14:08:44Z</time>
      </trkpt>
      <trkpt lat="46.32342" lon="-0.53778">
        <ele>12.318544</ele>
        <time>2013-02-19T14:08:49Z</time>
      </trkpt>
      <trkpt lat="46.32343" lon="-0.53787">
        <ele>12.318544</ele>
        <time>2013-02-19T14:08:54Z</time>
      </trkpt>
      <trkpt lat="46.32343" lon="-0.53787">
        <ele>12.318544</ele>
        <time>2013-02-19T14:08:59Z</time>
      </trkpt>
      <trkpt lat="46.32346" lon="-0.53787">
        <ele>12.318544</ele>
        <time>2013-02-19T14:09:04Z</time>
      </trkpt>
      <trkpt lat="46.32345" lon="-0.5379">
        <ele>11.546087</ele>
        <time>2013-02-19T14:09:09Z</time>
      </trkpt>
      <trkpt lat="46.32345" lon="-0.5379">
        <ele>11.546087</ele>
        <time>2013-02-19T14:09:14Z</time>
      </trkpt>
      <trkpt lat="46.32348" lon="-0.53792">
        <ele>11.546087</ele>
        <time>2013-02-19T14:09:19Z</time>
      </trkpt>
      <trkpt lat="46.32356" lon="-0.53796">
        <ele>10.948748</ele>
        <time>2013-02-19T14:09:24Z</time>
      </trkpt>
      <trkpt lat="46.32361" lon="-0.53799">
        <ele>10.948748</ele>
        <time>2013-02-19T14:09:29Z</time>
      </trkpt>
      <trkpt lat="46.32362" lon="-0.53799">
        <ele>10.948748</ele>
        <time>2013-02-19T14:09:34Z</time>
      </trkpt>
      <trkpt lat="46.32365" lon="-0.53799">
        <ele>10.659863</ele>
        <time>2013-02-19T14:09:39Z</time>
      </trkpt>
      <trkpt lat="46.32372" lon="-0.53801">
        <ele>10.659863</ele>
        <time>2013-02-19T14:09:44Z</time>
      </trkpt>
      <trkpt lat="46.32373" lon="-0.53805">
        <ele>10.00921</ele>
        <time>2013-02-19T14:09:49Z</time>
      </trkpt>
      <trkpt lat="46.32374" lon="-0.53806">
        <ele>10.00921</ele>
        <time>2013-02-19T14:09:54Z</time>
      </trkpt>
      <trkpt lat="46.32371" lon="-0.53804">
        <ele>10.00921</ele>
        <time>2013-02-19T14:09:59Z</time>
      </trkpt>
      <trkpt lat="46.32371" lon="-0.53799">
        <ele>10.00921</ele>
        <time>2013-02-19T14:10:04Z</time>
      </trkpt>
      <trkpt lat="46.32371" lon="-0.53799">
        <ele>10.00921</ele>
        <time>2013-02-19T14:10:09Z</time>
      </trkpt>
      <trkpt lat="46.32379" lon="-0.5381">
        <ele>9.400412</ele>
        <time>2013-02-19T14:10:19Z</time>
      </trkpt>
      <trkpt lat="46.32385" lon="-0.53815">
        <ele>9.400412</ele>
        <time>2013-02-19T14:10:24Z</time>
      </trkpt>
      <trkpt lat="46.32391" lon="-0.53812">
        <ele>9.250495</ele>
        <time>2013-02-19T14:10:29Z</time>
      </trkpt>
      <trkpt lat="46.32393" lon="-0.53814">
        <ele>9.250495</ele>
        <time>2013-02-19T14:10:34Z</time>
      </trkpt>
      <trkpt lat="46.32394" lon="-0.53809">
        <ele>9.250495</ele>
        <time>2013-02-19T14:10:39Z</time>
      </trkpt>
      <trkpt lat="46.32396" lon="-0.53807">
        <ele>9.250495</ele>
        <time>2013-02-19T14:10:44Z</time>
      </trkpt>
      <trkpt lat="46.32397" lon="-0.53808">
        <ele>9.656203</ele>
        <time>2013-02-19T14:10:49Z</time>
      </trkpt>
      <trkpt lat="46.32399" lon="-0.538">
        <ele>9.656203</ele>
        <time>2013-02-19T14:10:54Z</time>
      </trkpt>
      <trkpt lat="46.32404" lon="-0.53804">
        <ele>9.9560795</ele>
        <time>2013-02-19T14:10:59Z</time>
      </trkpt>
      <trkpt lat="46.32407" lon="-0.53806">
        <ele>9.9560795</ele>
        <time>2013-02-19T14:11:04Z</time>
      </trkpt>
      <trkpt lat="46.32409" lon="-0.53809">
        <ele>9.9560795</ele>
        <time>2013-02-19T14:11:09Z</time>
      </trkpt>
      <trkpt lat="46.32408" lon="-0.53809">
        <ele>9.9560795</ele>
        <time>2013-02-19T14:11:14Z</time>
      </trkpt>
      <trkpt lat="46.3241" lon="-0.53813">
        <ele>10.243879</ele>
        <time>2013-02-19T14:11:19Z</time>
      </trkpt>
      <trkpt lat="46.32411" lon="-0.53815">
        <ele>10.243879</ele>
        <time>2013-02-19T14:11:24Z</time>
      </trkpt>
      <trkpt lat="46.32412" lon="-0.53816">
        <ele>10.243879</ele>
        <time>2013-02-19T14:11:29Z</time>
      </trkpt>
      <trkpt lat="46.32409" lon="-0.53814">
        <ele>10.243879</ele>
        <time>2013-02-19T14:11:34Z</time>
      </trkpt>
      <trkpt lat="46.3241" lon="-0.53815">
        <ele>10.243879</ele>
        <time>2013-02-19T14:11:39Z</time>
      </trkpt>
      <trkpt lat="46.32421" lon="-0.53816">
        <ele>10.966804</ele>
        <time>2013-02-19T14:11:44Z</time>
      </trkpt>
      <trkpt lat="46.32419" lon="-0.53813">
        <ele>10.966804</ele>
        <time>2013-02-19T14:11:49Z</time>
      </trkpt>
      <trkpt lat="46.32419" lon="-0.53817">
        <ele>10.966804</ele>
        <time>2013-02-19T14:11:54Z</time>
      </trkpt>
      <trkpt lat="46.32423" lon="-0.53818">
        <ele>11.83172</ele>
        <time>2013-02-19T14:11:59Z</time>
      </trkpt>
      <trkpt lat="46.3243" lon="-0.5382">
        <ele>11.83172</ele>
        <time>2013-02-19T14:12:04Z</time>
      </trkpt>
      <trkpt lat="46.32434" lon="-0.53824">
        <ele>12.739603</ele>
        <time>2013-02-19T14:12:09Z</time>
      </trkpt>
      <trkpt lat="46.32434" lon="-0.53827">
        <ele>12.739603</ele>
        <time>2013-02-19T14:12:14Z</time>
      </trkpt>
      <trkpt lat="46.32438" lon="-0.53825">
        <ele>12.739603</ele>
        <time>2013-02-19T14:12:19Z</time>
      </trkpt>
      <trkpt lat="46.32441" lon="-0.53823">
        <ele>13.555357</ele>
        <time>2013-02-19T14:12:24Z</time>
      </trkpt>
      <trkpt lat="46.32442" lon="-0.53822">
        <ele>13.555357</ele>
        <time>2013-02-19T14:12:29Z</time>
      </trkpt>
      <trkpt lat="46.32441" lon="-0.53823">
        <ele>13.555357</ele>
        <time>2013-02-19T14:12:34Z</time>
      </trkpt>
      <trkpt lat="46.32442" lon="-0.53823">
        <ele>13.555357</ele>
        <time>2013-02-19T14:12:39Z</time>
      </trkpt>
      <trkpt lat="46.32443" lon="-0.53823">
        <ele>13.555357</ele>
        <time>2013-02-19T14:12:44Z</time>
      </trkpt>
      <trkpt lat="46.32446" lon="-0.53825">
        <ele>14.024376</ele>
        <time>2013-02-19T14:12:49Z</time>
      </trkpt>
      <trkpt lat="46.32447" lon="-0.53825">
        <ele>14.024376</ele>
        <time>2013-02-19T14:12:54Z</time>
      </trkpt>
      <trkpt lat="46.32447" lon="-0.53825">
        <ele>14.024376</ele>
        <time>2013-02-19T14:12:59Z</time>
      </trkpt>
      <trkpt lat="46.32451" lon="-0.5383">
        <ele>14.024376</ele>
        <time>2013-02-19T14:13:04Z</time>
      </trkpt>
      <trkpt lat="46.32454" lon="-0.53834">
        <ele>14.041458</ele>
        <time>2013-02-19T14:13:09Z</time>
      </trkpt>
      <trkpt lat="46.32457" lon="-0.53836">
        <ele>14.041458</ele>
        <time>2013-02-19T14:13:14Z</time>
      </trkpt>
      <trkpt lat="46.32456" lon="-0.53838">
        <ele>14.041458</ele>
        <time>2013-02-19T14:13:19Z</time>
      </trkpt>
      <trkpt lat="46.32454" lon="-0.53836">
        <ele>14.041458</ele>
        <time>2013-02-19T14:13:24Z</time>
      </trkpt>
      <trkpt lat="46.32457" lon="-0.53832">
        <ele>13.251003</ele>
        <time>2013-02-19T14:13:29Z</time>
      </trkpt>
      <trkpt lat="46.32462" lon="-0.5384">
        <ele>13.251003</ele>
        <time>2013-02-19T14:13:34Z</time>
      </trkpt>
      <trkpt lat="46.32461" lon="-0.53852">
        <ele>13.444296</ele>
        <time>2013-02-19T14:13:39Z</time>
      </trkpt>
      <trkpt lat="46.32461" lon="-0.53856">
        <ele>13.444296</ele>
        <time>2013-02-19T14:13:44Z</time>
      </trkpt>
      <trkpt lat="46.32464" lon="-0.53857">
        <ele>13.444296</ele>
        <time>2013-02-19T14:13:49Z</time>
      </trkpt>
      <trkpt lat="46.32463" lon="-0.53859">
        <ele>13.444296</ele>
        <time>2013-02-19T14:13:54Z</time>
      </trkpt>
      <trkpt lat="46.32461" lon="-0.53852">
        <ele>12.7474575</ele>
        <time>2013-02-19T14:13:59Z</time>
      </trkpt>
      <trkpt lat="46.3246" lon="-0.53849">
        <ele>12.7474575</ele>
        <time>2013-02-19T14:14:04Z</time>
      </trkpt>
      <trkpt lat="46.32469" lon="-0.53851">
        <ele>10.853514</ele>
        <time>2013-02-19T14:14:09Z</time>
      </trkpt>
      <trkpt lat="46.32478" lon="-0.53852">
        <ele>10.853514</ele>
        <time>2013-02-19T14:14:14Z</time>
      </trkpt>
      <trkpt lat="46.32481" lon="-0.53851">
        <ele>9.772782</ele>
        <time>2013-02-19T14:14:19Z</time>
      </trkpt>
      <trkpt lat="46.32483" lon="-0.53856">
        <ele>9.772782</ele>
        <time>2013-02-19T14:14:24Z</time>
      </trkpt>
      <trkpt lat="46.32486" lon="-0.53864">
        <ele>8.497755</ele>
        <time>2013-02-19T14:14:29Z</time>
      </trkpt>
      <trkpt lat="46.32483" lon="-0.53874">
        <ele>8.497755</ele>
        <time>2013-02-19T14:14:34Z</time>
      </trkpt>
      <trkpt lat="46.32482" lon="-0.53877">
        <ele>7.3204107</ele>
        <time>2013-02-19T14:14:39Z</time>
      </trkpt>
      <trkpt lat="46.32482" lon="-0.53887">
        <ele>7.3204107</ele>
        <time>2013-02-19T14:14:44Z</time>
      </trkpt>
      <trkpt lat="46.32484" lon="-0.53896">
        <ele>6.4100947</ele>
        <time>2013-02-19T14:14:49Z</time>
      </trkpt>
      <trkpt lat="46.32482" lon="-0.53908">
        <ele>6.4100947</ele>
        <time>2013-02-19T14:14:54Z</time>
      </trkpt>
      <trkpt lat="46.32487" lon="-0.53913">
        <ele>6.5858393</ele>
        <time>2013-02-19T14:14:59Z</time>
      </trkpt>
      <trkpt lat="46.32485" lon="-0.53916">
        <ele>6.5858393</ele>
        <time>2013-02-19T14:15:04Z</time>
      </trkpt>
      <trkpt lat="46.32483" lon="-0.53927">
        <ele>6.9749494</ele>
        <time>2013-02-19T14:15:09Z</time>
      </trkpt>
      <trkpt lat="46.32481" lon="-0.53936">
        <ele>6.9749494</ele>
        <time>2013-02-19T14:15:14Z</time>
      </trkpt>
      <trkpt lat="46.32483" lon="-0.53938">
        <ele>6.9749494</ele>
        <time>2013-02-19T14:15:19Z</time>
      </trkpt>
      <trkpt lat="46.32488" lon="-0.53945">
        <ele>6.4079065</ele>
        <time>2013-02-19T14:15:24Z</time>
      </trkpt>
      <trkpt lat="46.32484" lon="-0.5395">
        <ele>6.4079065</ele>
        <time>2013-02-19T14:15:29Z</time>
      </trkpt>
      <trkpt lat="46.32482" lon="-0.53951">
        <ele>6.4079065</ele>
        <time>2013-02-19T14:15:34Z</time>
      </trkpt>
      <trkpt lat="46.32487" lon="-0.53955">
        <ele>4.6540065</ele>
        <time>2013-02-19T14:15:39Z</time>
      </trkpt>
      <trkpt lat="46.32491" lon="-0.5396">
        <ele>4.6540065</ele>
        <time>2013-02-19T14:15:44Z</time>
      </trkpt>
      <trkpt lat="46.32493" lon="-0.53974">
        <ele>3.3906624</ele>
        <time>2013-02-19T14:15:49Z</time>
      </trkpt>
      <trkpt lat="46.32493" lon="-0.5398">
        <ele>3.3906624</ele>
        <time>2013-02-19T14:15:54Z</time>
      </trkpt>
      <trkpt lat="46.32494" lon="-0.53989">
        <ele>2.398044</ele>
        <time>2013-02-19T14:15:59Z</time>
      </trkpt>
      <trkpt lat="46.32496" lon="-0.53996">
        <ele>2.398044</ele>
        <time>2013-02-19T14:16:04Z</time>
      </trkpt>
      <trkpt lat="46.32499" lon="-0.54">
        <ele>1.7022356</ele>
        <time>2013-02-19T14:16:09Z</time>
      </trkpt>
      <trkpt lat="46.32502" lon="-0.54008">
        <ele>1.7022356</ele>
        <time>2013-02-19T14:16:14Z</time>
      </trkpt>
      <trkpt lat="46.32502" lon="-0.54017">
        <ele>0.75005215</ele>
        <time>2013-02-19T14:16:19Z</time>
      </trkpt>
      <trkpt lat="46.32503" lon="-0.54026">
        <ele>0.75005215</ele>
        <time>2013-02-19T14:16:24Z</time>
      </trkpt>
      <trkpt lat="46.32506" lon="-0.54034">
        <ele>-0.27865195</ele>
        <time>2013-02-19T14:16:29Z</time>
      </trkpt>
      <trkpt lat="46.32508" lon="-0.54033">
        <ele>-0.27865195</ele>
        <time>2013-02-19T14:16:34Z</time>
      </trkpt>
      <trkpt lat="46.32508" lon="-0.54042">
        <ele>-0.27865195</ele>
        <time>2013-02-19T14:16:39Z</time>
      </trkpt>
      <trkpt lat="46.32506" lon="-0.54045">
        <ele>-1.7647233</ele>
        <time>2013-02-19T14:16:44Z</time>
      </trkpt>
      <trkpt lat="46.32508" lon="-0.54056">
        <ele>-1.7647233</ele>
        <time>2013-02-19T14:16:49Z</time>
      </trkpt>
      <trkpt lat="46.32508" lon="-0.54059">
        <ele>-3.0510168</ele>
        <time>2013-02-19T14:16:54Z</time>
      </trkpt>
      <trkpt lat="46.32504" lon="-0.54065">
        <ele>-3.0510168</ele>
        <time>2013-02-19T14:16:59Z</time>
      </trkpt>
      <trkpt lat="46.32504" lon="-0.54073">
        <ele>-4.14899</ele>
        <time>2013-02-19T14:17:04Z</time>
      </trkpt>
      <trkpt lat="46.32505" lon="-0.54081">
        <ele>-4.14899</ele>
        <time>2013-02-19T14:17:09Z</time>
      </trkpt>
      <trkpt lat="46.32505" lon="-0.54085">
        <ele>-4.14899</ele>
        <time>2013-02-19T14:17:14Z</time>
      </trkpt>
      <trkpt lat="46.32505" lon="-0.54094">
        <ele>-4.882517</ele>
        <time>2013-02-19T14:17:19Z</time>
      </trkpt>
      <trkpt lat="46.32506" lon="-0.54104">
        <ele>-4.882517</ele>
        <time>2013-02-19T14:17:24Z</time>
      </trkpt>
      <trkpt lat="46.32508" lon="-0.54112">
        <ele>-5.2624483</ele>
        <time>2013-02-19T14:17:29Z</time>
      </trkpt>
      <trkpt lat="46.32509" lon="-0.54115">
        <ele>-5.2624483</ele>
        <time>2013-02-19T14:17:34Z</time>
      </trkpt>
      <trkpt lat="46.32506" lon="-0.54122">
        <ele>-5.2624483</ele>
        <time>2013-02-19T14:17:39Z</time>
      </trkpt>
      <trkpt lat="46.32509" lon="-0.54132">
        <ele>-6.049307</ele>
        <time>2013-02-19T14:17:44Z</time>
      </trkpt>
      <trkpt lat="46.32509" lon="-0.54141">
        <ele>-6.049307</ele>
        <time>2013-02-19T14:17:49Z</time>
      </trkpt>
      <trkpt lat="46.32509" lon="-0.54148">
        <ele>-6.462299</ele>
        <time>2013-02-19T14:17:54Z</time>
      </trkpt>
      <trkpt lat="46.32508" lon="-0.54156">
        <ele>-6.462299</ele>
        <time>2013-02-19T14:17:59Z</time>
      </trkpt>
      <trkpt lat="46.32508" lon="-0.54166">
        <ele>-6.557329</ele>
        <time>2013-02-19T14:18:04Z</time>
      </trkpt>
      <trkpt lat="46.32508" lon="-0.54172">
        <ele>-6.557329</ele>
        <time>2013-02-19T14:18:09Z</time>
      </trkpt>
      <trkpt lat="46.3251" lon="-0.5418">
        <ele>-7.050083</ele>
        <time>2013-02-19T14:18:14Z</time>
      </trkpt>
      <trkpt lat="46.3251" lon="-0.54189">
        <ele>-7.050083</ele>
        <time>2013-02-19T14:18:19Z</time>
      </trkpt>
      <trkpt lat="46.3251" lon="-0.54194">
        <ele>-7.2047095</ele>
        <time>2013-02-19T14:18:24Z</time>
      </trkpt>
      <trkpt lat="46.32509" lon="-0.54203">
        <ele>-7.2047095</ele>
        <time>2013-02-19T14:18:29Z</time>
      </trkpt>
      <trkpt lat="46.32511" lon="-0.54215">
        <ele>-7.435689</ele>
        <time>2013-02-19T14:18:34Z</time>
      </trkpt>
      <trkpt lat="46.32511" lon="-0.54224">
        <ele>-7.435689</ele>
        <time>2013-02-19T14:18:39Z</time>
      </trkpt>
      <trkpt lat="46.32511" lon="-0.54231">
        <ele>-6.844277</ele>
        <time>2013-02-19T14:18:44Z</time>
      </trkpt>
      <trkpt lat="46.32511" lon="-0.54238">
        <ele>-6.844277</ele>
        <time>2013-02-19T14:18:49Z</time>
      </trkpt>
      <trkpt lat="46.32511" lon="-0.54243">
        <ele>-6.844277</ele>
        <time>2013-02-19T14:18:54Z</time>
      </trkpt>
      <trkpt lat="46.32512" lon="-0.5425">
        <ele>-6.6321096</ele>
        <time>2013-02-19T14:18:59Z</time>
      </trkpt>
      <trkpt lat="46.32505" lon="-0.54258">
        <ele>-6.6321096</ele>
        <time>2013-02-19T14:19:04Z</time>
      </trkpt>
      <trkpt lat="46.32503" lon="-0.54263">
        <ele>-7.608883</ele>
        <time>2013-02-19T14:19:09Z</time>
      </trkpt>
      <trkpt lat="46.32503" lon="-0.54267">
        <ele>-7.608883</ele>
        <time>2013-02-19T14:19:14Z</time>
      </trkpt>
      <trkpt lat="46.32506" lon="-0.54272">
        <ele>-7.608883</ele>
        <time>2013-02-19T14:19:19Z</time>
      </trkpt>
      <trkpt lat="46.32512" lon="-0.54274">
        <ele>-8.619212</ele>
        <time>2013-02-19T14:19:24Z</time>
      </trkpt>
      <trkpt lat="46.32513" lon="-0.54278">
        <ele>-8.619212</ele>
        <time>2013-02-19T14:19:29Z</time>
      </trkpt>
      <trkpt lat="46.32517" lon="-0.5428">
        <ele>-8.619212</ele>
        <time>2013-02-19T14:19:34Z</time>
      </trkpt>
      <trkpt lat="46.32523" lon="-0.54275">
        <ele>-10.105719</ele>
        <time>2013-02-19T14:19:39Z</time>
      </trkpt>
      <trkpt lat="46.32518" lon="-0.54278">
        <ele>-10.105719</ele>
        <time>2013-02-19T14:19:44Z</time>
      </trkpt>
      <trkpt lat="46.32512" lon="-0.5428">
        <ele>-9.494068</ele>
        <time>2013-02-19T14:19:49Z</time>
      </trkpt>
      <trkpt lat="46.32509" lon="-0.54282">
        <ele>-9.494068</ele>
        <time>2013-02-19T14:19:54Z</time>
      </trkpt>
      <trkpt lat="46.32509" lon="-0.54284">
        <ele>-9.494068</ele>
        <time>2013-02-19T14:19:59Z</time>
      </trkpt>
      <trkpt lat="46.32509" lon="-0.54284">
        <ele>-9.494068</ele>
        <time>2013-02-19T14:20:04Z</time>
      </trkpt>
      <trkpt lat="46.32508" lon="-0.54284">
        <ele>-9.494068</ele>
        <time>2013-02-19T14:20:09Z</time>
      </trkpt>
      <trkpt lat="46.32508" lon="-0.54285">
        <ele>-9.494068</ele>
        <time>2013-02-19T14:20:14Z</time>
      </trkpt>
      <trkpt lat="46.32509" lon="-0.5429">
        <ele>-6.7251754</ele>
        <time>2013-02-19T14:20:24Z</time>
      </trkpt>
      <trkpt lat="46.32508" lon="-0.54291">
        <ele>-6.7251754</ele>
        <time>2013-02-19T14:20:29Z</time>
      </trkpt>
      <trkpt lat="46.32501" lon="-0.54286">
        <ele>-4.0129275</ele>
        <time>2013-02-19T14:20:34Z</time>
      </trkpt>
      <trkpt lat="46.32499" lon="-0.54283">
        <ele>-4.0129275</ele>
        <time>2013-02-19T14:20:39Z</time>
      </trkpt>
      <trkpt lat="46.32502" lon="-0.54288">
        <ele>-4.0129275</ele>
        <time>2013-02-19T14:20:44Z</time>
      </trkpt>
      <trkpt lat="46.32503" lon="-0.54293">
        <ele>-1.2034901</ele>
        <time>2013-02-19T14:20:49Z</time>
      </trkpt>
      <trkpt lat="46.32504" lon="-0.54295">
        <ele>-1.2034901</ele>
        <time>2013-02-19T14:20:54Z</time>
      </trkpt>
      <trkpt lat="46.32506" lon="-0.54295">
        <ele>-1.2034901</ele>
        <time>2013-02-19T14:20:59Z</time>
      </trkpt>
      <trkpt lat="46.32507" lon="-0.54295">
        <ele>-1.2034901</ele>
        <time>2013-02-19T14:21:04Z</time>
      </trkpt>
      <trkpt lat="46.32507" lon="-0.54296">
        <ele>-1.2034901</ele>
        <time>2013-02-19T14:21:09Z</time>
      </trkpt>
      <trkpt lat="46.32511" lon="-0.543">
        <ele>1.7589575</ele>
        <time>2013-02-19T14:21:34Z</time>
      </trkpt>
      <trkpt lat="46.32513" lon="-0.543">
        <ele>1.7589575</ele>
        <time>2013-02-19T14:21:39Z</time>
      </trkpt>
      <trkpt lat="46.32515" lon="-0.543">
        <ele>1.7589575</ele>
        <time>2013-02-19T14:21:44Z</time>
      </trkpt>
      <trkpt lat="46.32512" lon="-0.54301">
        <ele>1.7589575</ele>
        <time>2013-02-19T14:21:49Z</time>
      </trkpt>
      <trkpt lat="46.32511" lon="-0.54305">
        <ele>2.7208421</ele>
        <time>2013-02-19T14:21:54Z</time>
      </trkpt>
      <trkpt lat="46.32511" lon="-0.54307">
        <ele>2.7208421</ele>
        <time>2013-02-19T14:21:59Z</time>
      </trkpt>
      <trkpt lat="46.3251" lon="-0.54306">
        <ele>2.7208421</ele>
        <time>2013-02-19T14:22:04Z</time>
      </trkpt>
      <trkpt lat="46.32502" lon="-0.54327">
        <ele>3.367329</ele>
        <time>2013-02-19T14:22:09Z</time>
      </trkpt>
      <trkpt lat="46.32503" lon="-0.54328">
        <ele>3.367329</ele>
        <time>2013-02-19T14:22:14Z</time>
      </trkpt>
      <trkpt lat="46.32496" lon="-0.54338">
        <ele>4.87165</ele>
        <time>2013-02-19T14:22:19Z</time>
      </trkpt>
      <trkpt lat="46.32488" lon="-0.54356">
        <ele>7.6700315</ele>
        <time>2013-02-19T14:22:24Z</time>
      </trkpt>
      <trkpt lat="46.32486" lon="-0.54358">
        <ele>7.6700315</ele>
        <time>2013-02-19T14:22:29Z</time>
      </trkpt>
      <trkpt lat="46.3249" lon="-0.54364">
        <ele>10.361731</ele>
        <time>2013-02-19T14:22:34Z</time>
      </trkpt>
      <trkpt lat="46.32485" lon="-0.54364">
        <ele>10.361731</ele>
        <time>2013-02-19T14:22:39Z</time>
      </trkpt>
      <trkpt lat="46.32478" lon="-0.54364">
        <ele>12.052831</ele>
        <time>2013-02-19T14:22:44Z</time>
      </trkpt>
      <trkpt lat="46.32476" lon="-0.54372">
        <ele>12.052831</ele>
        <time>2013-02-19T14:22:49Z</time>
      </trkpt>
      <trkpt lat="46.32475" lon="-0.5437">
        <ele>12.052831</ele>
        <time>2013-02-19T14:22:54Z</time>
      </trkpt>
      <trkpt lat="46.32475" lon="-0.5438">
        <ele>13.546471</ele>
        <time>2013-02-19T14:22:59Z</time>
      </trkpt>
      <trkpt lat="46.32481" lon="-0.54398">
        <ele>15.645124</ele>
        <time>2013-02-19T14:23:04Z</time>
      </trkpt>
      <trkpt lat="46.32483" lon="-0.54399">
        <ele>15.645124</ele>
        <time>2013-02-19T14:23:09Z</time>
      </trkpt>
      <trkpt lat="46.32484" lon="-0.54402">
        <ele>15.645124</ele>
        <time>2013-02-19T14:23:14Z</time>
      </trkpt>
      <trkpt lat="46.32481" lon="-0.5441">
        <ele>16.842623</ele>
        <time>2013-02-19T14:23:19Z</time>
      </trkpt>
      <trkpt lat="46.3248" lon="-0.5441">
        <ele>16.842623</ele>
        <time>2013-02-19T14:23:24Z</time>
      </trkpt>
      <trkpt lat="46.32478" lon="-0.54413">
        <ele>16.842623</ele>
        <time>2013-02-19T14:23:29Z</time>
      </trkpt>
      <trkpt lat="46.32478" lon="-0.54413">
        <ele>16.842623</ele>
        <time>2013-02-19T14:23:39Z</time>
      </trkpt>
      <trkpt lat="46.32478" lon="-0.54412">
        <ele>16.842623</ele>
        <time>2013-02-19T14:23:44Z</time>
      </trkpt>
      <trkpt lat="46.32476" lon="-0.54412">
        <ele>16.842623</ele>
        <time>2013-02-19T14:23:59Z</time>
      </trkpt>
      <trkpt lat="46.32473" lon="-0.54412">
        <ele>18.743626</ele>
        <time>2013-02-19T14:24:04Z</time>
      </trkpt>
      <trkpt lat="46.32476" lon="-0.54416">
        <ele>18.743626</ele>
        <time>2013-02-19T14:24:09Z</time>
      </trkpt>
      <trkpt lat="46.32473" lon="-0.54419">
        <ele>18.743626</ele>
        <time>2013-02-19T14:24:34Z</time>
      </trkpt>
      <trkpt lat="46.32469" lon="-0.5442">
        <ele>20.58496</ele>
        <time>2013-02-19T14:24:39Z</time>
      </trkpt>
      <trkpt lat="46.32469" lon="-0.54425">
        <ele>20.58496</ele>
        <time>2013-02-19T14:24:44Z</time>
      </trkpt>
      <trkpt lat="46.32475" lon="-0.54439">
        <ele>22.553322</ele>
        <time>2013-02-19T14:24:49Z</time>
      </trkpt>
      <trkpt lat="46.32472" lon="-0.54432">
        <ele>22.553322</ele>
        <time>2013-02-19T14:24:54Z</time>
      </trkpt>
      <trkpt lat="46.32474" lon="-0.54425">
        <ele>23.899178</ele>
        <time>2013-02-19T14:24:59Z</time>
      </trkpt>
      <trkpt lat="46.32464" lon="-0.54426">
        <ele>25.990753</ele>
        <time>2013-02-19T14:25:04Z</time>
      </trkpt>
      <trkpt lat="46.32466" lon="-0.5443">
        <ele>25.990753</ele>
        <time>2013-02-19T14:25:09Z</time>
      </trkpt>
      <trkpt lat="46.32467" lon="-0.54432">
        <ele>25.990753</ele>
        <time>2013-02-19T14:25:14Z</time>
      </trkpt>
      <trkpt lat="46.32461" lon="-0.54438">
        <ele>28.076275</ele>
        <time>2013-02-19T14:25:19Z</time>
      </trkpt>
      <trkpt lat="46.32462" lon="-0.54443">
        <ele>28.076275</ele>
        <time>2013-02-19T14:25:24Z</time>
      </trkpt>
      <trkpt lat="46.32466" lon="-0.54452">
        <ele>29.574661</ele>
        <time>2013-02-19T14:25:29Z</time>
      </trkpt>
      <trkpt lat="46.32456" lon="-0.54458">
        <ele>30.68429</ele>
        <time>2013-02-19T14:25:34Z</time>
      </trkpt>
      <trkpt lat="46.32449" lon="-0.54463">
        <ele>30.68429</ele>
        <time>2013-02-19T14:25:39Z</time>
      </trkpt>
      <trkpt lat="46.32447" lon="-0.54471">
        <ele>31.892853</ele>
        <time>2013-02-19T14:25:44Z</time>
      </trkpt>
      <trkpt lat="46.32447" lon="-0.54479">
        <ele>31.892853</ele>
        <time>2013-02-19T14:25:49Z</time>
      </trkpt>
      <trkpt lat="46.32443" lon="-0.54489">
        <ele>31.93717</ele>
        <time>2013-02-19T14:25:54Z</time>
      </trkpt>
      <trkpt lat="46.32438" lon="-0.54488">
        <ele>31.93717</ele>
        <time>2013-02-19T14:25:59Z</time>
      </trkpt>
      <trkpt lat="46.32436" lon="-0.54494">
        <ele>31.09137</ele>
        <time>2013-02-19T14:26:04Z</time>
      </trkpt>
      <trkpt lat="46.32429" lon="-0.54507">
        <ele>30.17411</ele>
        <time>2013-02-19T14:26:09Z</time>
      </trkpt>
      <trkpt lat="46.32427" lon="-0.54513">
        <ele>30.17411</ele>
        <time>2013-02-19T14:26:14Z</time>
      </trkpt>
      <trkpt lat="46.32424" lon="-0.54521">
        <ele>28.099596</ele>
        <time>2013-02-19T14:26:19Z</time>
      </trkpt>
      <trkpt lat="46.32421" lon="-0.5453">
        <ele>28.099596</ele>
        <time>2013-02-19T14:26:24Z</time>
      </trkpt>
      <trkpt lat="46.3242" lon="-0.54535">
        <ele>26.070028</ele>
        <time>2013-02-19T14:26:29Z</time>
      </trkpt>
      <trkpt lat="46.3242" lon="-0.54541">
        <ele>26.070028</ele>
        <time>2013-02-19T14:26:34Z</time>
      </trkpt>
      <trkpt lat="46.32421" lon="-0.54551">
        <ele>24.348976</ele>
        <time>2013-02-19T14:26:39Z</time>
      </trkpt>
      <trkpt lat="46.32416" lon="-0.54565">
        <ele>22.401619</ele>
        <time>2013-02-19T14:26:44Z</time>
      </trkpt>
      <trkpt lat="46.32414" lon="-0.54571">
        <ele>22.401619</ele>
        <time>2013-02-19T14:26:49Z</time>
      </trkpt>
      <trkpt lat="46.32413" lon="-0.54574">
        <ele>22.401619</ele>
        <time>2013-02-19T14:26:54Z</time>
      </trkpt>
      <trkpt lat="46.32413" lon="-0.54578">
        <ele>19.61778</ele>
        <time>2013-02-19T14:26:59Z</time>
      </trkpt>
      <trkpt lat="46.32413" lon="-0.54585">
        <ele>19.61778</ele>
        <time>2013-02-19T14:27:04Z</time>
      </trkpt>
      <trkpt lat="46.32414" lon="-0.54586">
        <ele>19.61778</ele>
        <time>2013-02-19T14:27:09Z</time>
      </trkpt>
      <trkpt lat="46.32415" lon="-0.5458">
        <ele>16.097351</ele>
        <time>2013-02-19T14:27:14Z</time>
      </trkpt>
      <trkpt lat="46.32422" lon="-0.54585">
        <ele>16.097351</ele>
        <time>2013-02-19T14:27:19Z</time>
      </trkpt>
      <trkpt lat="46.32421" lon="-0.54595">
        <ele>12.54017</ele>
        <time>2013-02-19T14:27:24Z</time>
      </trkpt>
      <trkpt lat="46.3242" lon="-0.546">
        <ele>12.54017</ele>
        <time>2013-02-19T14:27:29Z</time>
      </trkpt>
      <trkpt lat="46.32422" lon="-0.54612">
        <ele>9.364125</ele>
        <time>2013-02-19T14:27:34Z</time>
      </trkpt>
      <trkpt lat="46.32421" lon="-0.54621">
        <ele>9.364125</ele>
        <time>2013-02-19T14:27:39Z</time>
      </trkpt>
      <trkpt lat="46.32424" lon="-0.54627">
        <ele>6.177039</ele>
        <time>2013-02-19T14:27:44Z</time>
      </trkpt>
      <trkpt lat="46.32428" lon="-0.54629">
        <ele>6.177039</ele>
        <time>2013-02-19T14:27:49Z</time>
      </trkpt>
      <trkpt lat="46.32422" lon="-0.54638">
        <ele>1.678723</ele>
        <time>2013-02-19T14:27:54Z</time>
      </trkpt>
      <trkpt lat="46.32421" lon="-0.54643">
        <ele>1.678723</ele>
        <time>2013-02-19T14:27:59Z</time>
      </trkpt>
      <trkpt lat="46.32415" lon="-0.54653">
        <ele>-3.3576505</ele>
        <time>2013-02-19T14:28:04Z</time>
      </trkpt>
      <trkpt lat="46.32416" lon="-0.5466">
        <ele>-3.3576505</ele>
        <time>2013-02-19T14:28:09Z</time>
      </trkpt>
      <trkpt lat="46.32408" lon="-0.54667">
        <ele>-8.848468</ele>
        <time>2013-02-19T14:28:14Z</time>
      </trkpt>
      <trkpt lat="46.32403" lon="-0.54672">
        <ele>-8.848468</ele>
        <time>2013-02-19T14:28:19Z</time>
      </trkpt>
      <trkpt lat="46.32397" lon="-0.5468">
        <ele>-14.41256</ele>
        <time>2013-02-19T14:28:24Z</time>
      </trkpt>
      <trkpt lat="46.32394" lon="-0.54685">
        <ele>-14.41256</ele>
        <time>2013-02-19T14:28:29Z</time>
      </trkpt>
      <trkpt lat="46.32391" lon="-0.54691">
        <ele>-21.166737</ele>
        <time>2013-02-19T14:28:34Z</time>
      </trkpt>
      <trkpt lat="46.32385" lon="-0.54701">
        <ele>-21.166737</ele>
        <time>2013-02-19T14:28:39Z</time>
      </trkpt>
      <trkpt lat="46.32383" lon="-0.54704">
        <ele>-27.620754</ele>
        <time>2013-02-19T14:28:44Z</time>
      </trkpt>
      <trkpt lat="46.32378" lon="-0.5471">
        <ele>-27.620754</ele>
        <time>2013-02-19T14:28:49Z</time>
      </trkpt>
      <trkpt lat="46.32372" lon="-0.54717">
        <ele>-33.965813</ele>
        <time>2013-02-19T14:28:54Z</time>
      </trkpt>
      <trkpt lat="46.32374" lon="-0.5472">
        <ele>-33.965813</ele>
        <time>2013-02-19T14:28:59Z</time>
      </trkpt>
      <trkpt lat="46.32375" lon="-0.54725">
        <ele>-33.965813</ele>
        <time>2013-02-19T14:29:04Z</time>
      </trkpt>
      <trkpt lat="46.32379" lon="-0.54732">
        <ele>-41.820827</ele>
        <time>2013-02-19T14:29:09Z</time>
      </trkpt>
      <trkpt lat="46.3238" lon="-0.54737">
        <ele>-41.820827</ele>
        <time>2013-02-19T14:29:14Z</time>
      </trkpt>
      <trkpt lat="46.3238" lon="-0.54746">
        <ele>-49.30972</ele>
        <time>2013-02-19T14:29:19Z</time>
      </trkpt>
      <trkpt lat="46.32376" lon="-0.54757">
        <ele>-49.30972</ele>
        <time>2013-02-19T14:29:24Z</time>
      </trkpt>
      <trkpt lat="46.32377" lon="-0.54766">
        <ele>-53.341015</ele>
        <time>2013-02-19T14:29:29Z</time>
      </trkpt>
      <trkpt lat="46.32375" lon="-0.54777">
        <ele>-53.341015</ele>
        <time>2013-02-19T14:29:34Z</time>
      </trkpt>
      <trkpt lat="46.32379" lon="-0.5478">
        <ele>-58.222775</ele>
        <time>2013-02-19T14:29:39Z</time>
      </trkpt>
      <trkpt lat="46.3238" lon="-0.54788">
        <ele>-58.222775</ele>
        <time>2013-02-19T14:29:44Z</time>
      </trkpt>
      <trkpt lat="46.32381" lon="-0.54794">
        <ele>-61.863155</ele>
        <time>2013-02-19T14:29:49Z</time>
      </trkpt>
      <trkpt lat="46.3238" lon="-0.54804">
        <ele>-61.863155</ele>
        <time>2013-02-19T14:29:54Z</time>
      </trkpt>
      <trkpt lat="46.3238" lon="-0.54816">
        <ele>-63.077255</ele>
        <time>2013-02-19T14:29:59Z</time>
      </trkpt>
      <trkpt lat="46.32377" lon="-0.54828">
        <ele>-63.077255</ele>
        <time>2013-02-19T14:30:04Z</time>
      </trkpt>
      <trkpt lat="46.32377" lon="-0.5484">
        <ele>-62.244373</ele>
        <time>2013-02-19T14:30:09Z</time>
      </trkpt>
      <trkpt lat="46.32368" lon="-0.54851">
        <ele>-60.543495</ele>
        <time>2013-02-19T14:30:14Z</time>
      </trkpt>
      <trkpt lat="46.3236" lon="-0.54862">
        <ele>-57.960133</ele>
        <time>2013-02-19T14:30:19Z</time>
      </trkpt>
      <trkpt lat="46.32369" lon="-0.54876">
        <ele>-55.535637</ele>
        <time>2013-02-19T14:30:24Z</time>
      </trkpt>
      <trkpt lat="46.32368" lon="-0.54883">
        <ele>-55.535637</ele>
        <time>2013-02-19T14:30:29Z</time>
      </trkpt>
      <trkpt lat="46.32356" lon="-0.54892">
        <ele>-52.05858</ele>
        <time>2013-02-19T14:30:34Z</time>
      </trkpt>
      <trkpt lat="46.32354" lon="-0.54897">
        <ele>-52.05858</ele>
        <time>2013-02-19T14:30:39Z</time>
      </trkpt>
      <trkpt lat="46.32349" lon="-0.54909">
        <ele>-48.03812</ele>
        <time>2013-02-19T14:30:44Z</time>
      </trkpt>
      <trkpt lat="46.32345" lon="-0.54919">
        <ele>-48.03812</ele>
        <time>2013-02-19T14:30:49Z</time>
      </trkpt>
      <trkpt lat="46.32343" lon="-0.54927">
        <ele>-43.65945</ele>
        <time>2013-02-19T14:30:54Z</time>
      </trkpt>
      <trkpt lat="46.32344" lon="-0.54934">
        <ele>-43.65945</ele>
        <time>2013-02-19T14:30:59Z</time>
      </trkpt>
      <trkpt lat="46.32345" lon="-0.54936">
        <ele>-43.65945</ele>
        <time>2013-02-19T14:31:04Z</time>
      </trkpt>
      <trkpt lat="46.32347" lon="-0.54941">
        <ele>-38.807026</ele>
        <time>2013-02-19T14:31:09Z</time>
      </trkpt>
      <trkpt lat="46.32342" lon="-0.54949">
        <ele>-38.807026</ele>
        <time>2013-02-19T14:31:14Z</time>
      </trkpt>
      <trkpt lat="46.32335" lon="-0.54955">
        <ele>-34.254204</ele>
        <time>2013-02-19T14:31:19Z</time>
      </trkpt>
      <trkpt lat="46.32332" lon="-0.54962">
        <ele>-34.254204</ele>
        <time>2013-02-19T14:31:24Z</time>
      </trkpt>
      <trkpt lat="46.32328" lon="-0.54969">
        <ele>-29.938465</ele>
        <time>2013-02-19T14:31:29Z</time>
      </trkpt>
      <trkpt lat="46.32325" lon="-0.54975">
        <ele>-29.938465</ele>
        <time>2013-02-19T14:31:34Z</time>
      </trkpt>
      <trkpt lat="46.32322" lon="-0.54982">
        <ele>-26.939623</ele>
        <time>2013-02-19T14:31:39Z</time>
      </trkpt>
      <trkpt lat="46.3232" lon="-0.54988">
        <ele>-26.939623</ele>
        <time>2013-02-19T14:31:44Z</time>
      </trkpt>
      <trkpt lat="46.32321" lon="-0.54994">
        <ele>-24.74118</ele>
        <time>2013-02-19T14:31:49Z</time>
      </trkpt>
      <trkpt lat="46.3232" lon="-0.55002">
        <ele>-24.74118</ele>
        <time>2013-02-19T14:31:54Z</time>
      </trkpt>
      <trkpt lat="46.32318" lon="-0.5501">
        <ele>-22.646025</ele>
        <time>2013-02-19T14:31:59Z</time>
      </trkpt>
      <trkpt lat="46.32317" lon="-0.5502">
        <ele>-22.646025</ele>
        <time>2013-02-19T14:32:04Z</time>
      </trkpt>
      <trkpt lat="46.32315" lon="-0.55031">
        <ele>-20.108673</ele>
        <time>2013-02-19T14:32:09Z</time>
      </trkpt>
      <trkpt lat="46.32314" lon="-0.55039">
        <ele>-20.108673</ele>
        <time>2013-02-19T14:32:14Z</time>
      </trkpt>
      <trkpt lat="46.32316" lon="-0.55046">
        <ele>-18.080275</ele>
        <time>2013-02-19T14:32:19Z</time>
      </trkpt>
      <trkpt lat="46.32314" lon="-0.55053">
        <ele>-18.080275</ele>
        <time>2013-02-19T14:32:24Z</time>
      </trkpt>
      <trkpt lat="46.32312" lon="-0.55061">
        <ele>-16.100246</ele>
        <time>2013-02-19T14:32:29Z</time>
      </trkpt>
      <trkpt lat="46.32311" lon="-0.55067">
        <ele>-16.100246</ele>
        <time>2013-02-19T14:32:34Z</time>
      </trkpt>
      <trkpt lat="46.32311" lon="-0.55075">
        <ele>-14.274698</ele>
        <time>2013-02-19T14:32:39Z</time>
      </trkpt>
      <trkpt lat="46.32308" lon="-0.55084">
        <ele>-14.274698</ele>
        <time>2013-02-19T14:32:44Z</time>
      </trkpt>
      <trkpt lat="46.32306" lon="-0.55091">
        <ele>-12.629222</ele>
        <time>2013-02-19T14:32:49Z</time>
      </trkpt>
      <trkpt lat="46.32304" lon="-0.55097">
        <ele>-12.629222</ele>
        <time>2013-02-19T14:32:54Z</time>
      </trkpt>
      <trkpt lat="46.32304" lon="-0.55103">
        <ele>-11.417369</ele>
        <time>2013-02-19T14:32:59Z</time>
      </trkpt>
      <trkpt lat="46.32304" lon="-0.55109">
        <ele>-11.417369</ele>
        <time>2013-02-19T14:33:04Z</time>
      </trkpt>
      <trkpt lat="46.32301" lon="-0.55116">
        <ele>-10.526743</ele>
        <time>2013-02-19T14:33:09Z</time>
      </trkpt>
      <trkpt lat="46.32298" lon="-0.55124">
        <ele>-10.526743</ele>
        <time>2013-02-19T14:33:14Z</time>
      </trkpt>
      <trkpt lat="46.32296" lon="-0.55132">
        <ele>-9.707954</ele>
        <time>2013-02-19T14:33:19Z</time>
      </trkpt>
      <trkpt lat="46.32295" lon="-0.5514">
        <ele>-9.707954</ele>
        <time>2013-02-19T14:33:24Z</time>
      </trkpt>
      <trkpt lat="46.32296" lon="-0.55147">
        <ele>-9.017716</ele>
        <time>2013-02-19T14:33:29Z</time>
      </trkpt>
      <trkpt lat="46.32294" lon="-0.55156">
        <ele>-9.017716</ele>
        <time>2013-02-19T14:33:34Z</time>
      </trkpt>
      <trkpt lat="46.32292" lon="-0.55159">
        <ele>-9.017716</ele>
        <time>2013-02-19T14:33:39Z</time>
      </trkpt>
      <trkpt lat="46.32292" lon="-0.5516">
        <ele>-7.643316</ele>
        <time>2013-02-19T14:33:44Z</time>
      </trkpt>
      <trkpt lat="46.32293" lon="-0.55169">
        <ele>-7.643316</ele>
        <time>2013-02-19T14:33:59Z</time>
      </trkpt>
      <trkpt lat="46.32294" lon="-0.55176">
        <ele>-6.029554</ele>
        <time>2013-02-19T14:34:04Z</time>
      </trkpt>
      <trkpt lat="46.32294" lon="-0.55181">
        <ele>-6.029554</ele>
        <time>2013-02-19T14:34:09Z</time>
      </trkpt>
      <trkpt lat="46.32297" lon="-0.55189">
        <ele>-4.733112</ele>
        <time>2013-02-19T14:34:14Z</time>
      </trkpt>
      <trkpt lat="46.323" lon="-0.55197">
        <ele>-4.733112</ele>
        <time>2013-02-19T14:34:19Z</time>
      </trkpt>
      <trkpt lat="46.32301" lon="-0.55208">
        <ele>-3.1734183</ele>
        <time>2013-02-19T14:34:24Z</time>
      </trkpt>
      <trkpt lat="46.323" lon="-0.55221">
        <ele>-1.576854</ele>
        <time>2013-02-19T14:34:29Z</time>
      </trkpt>
      <trkpt lat="46.323" lon="-0.55228">
        <ele>-1.576854</ele>
        <time>2013-02-19T14:34:34Z</time>
      </trkpt>
      <trkpt lat="46.32303" lon="-0.55237">
        <ele>0.20722766</ele>
        <time>2013-02-19T14:34:39Z</time>
      </trkpt>
      <trkpt lat="46.32306" lon="-0.55249">
        <ele>2.0298798</ele>
        <time>2013-02-19T14:34:44Z</time>
      </trkpt>
      <trkpt lat="46.32312" lon="-0.55257">
        <ele>2.0298798</ele>
        <time>2013-02-19T14:34:49Z</time>
      </trkpt>
      <trkpt lat="46.32313" lon="-0.5526">
        <ele>3.1623526</ele>
        <time>2013-02-19T14:34:54Z</time>
      </trkpt>
      <trkpt lat="46.32313" lon="-0.55265">
        <ele>3.1623526</ele>
        <time>2013-02-19T14:34:59Z</time>
      </trkpt>
      <trkpt lat="46.32312" lon="-0.55277">
        <ele>4.4591613</ele>
        <time>2013-02-19T14:35:04Z</time>
      </trkpt>
      <trkpt lat="46.32315" lon="-0.55282">
        <ele>4.4591613</ele>
        <time>2013-02-19T14:35:09Z</time>
      </trkpt>
      <trkpt lat="46.32314" lon="-0.5529">
        <ele>5.5300884</ele>
        <time>2013-02-19T14:35:14Z</time>
      </trkpt>
      <trkpt lat="46.32318" lon="-0.55295">
        <ele>5.5300884</ele>
        <time>2013-02-19T14:35:19Z</time>
      </trkpt>
      <trkpt lat="46.32321" lon="-0.55295">
        <ele>5.5300884</ele>
        <time>2013-02-19T14:35:24Z</time>
      </trkpt>
      <trkpt lat="46.32327" lon="-0.55295">
        <ele>5.567675</ele>
        <time>2013-02-19T14:35:29Z</time>
      </trkpt>
      <trkpt lat="46.3234" lon="-0.55285">
        <ele>4.475369</ele>
        <time>2013-02-19T14:35:34Z</time>
      </trkpt>
      <trkpt lat="46.32338" lon="-0.55297">
        <ele>4.475369</ele>
        <time>2013-02-19T14:35:39Z</time>
      </trkpt>
      <trkpt lat="46.32342" lon="-0.553">
        <ele>2.5849788</ele>
        <time>2013-02-19T14:35:44Z</time>
      </trkpt>
      <trkpt lat="46.32341" lon="-0.55308">
        <ele>2.5849788</ele>
        <time>2013-02-19T14:35:49Z</time>
      </trkpt>
      <trkpt lat="46.32346" lon="-0.55314">
        <ele>0.6674846</ele>
        <time>2013-02-19T14:35:54Z</time>
      </trkpt>
      <trkpt lat="46.32353" lon="-0.55318">
        <ele>0.6674846</ele>
        <time>2013-02-19T14:35:59Z</time>
      </trkpt>
      <trkpt lat="46.32364" lon="-0.55314">
        <ele>-2.1477907</ele>
        <time>2013-02-19T14:36:04Z</time>
      </trkpt>
      <trkpt lat="46.32374" lon="-0.55312">
        <ele>-5.180607</ele>
        <time>2013-02-19T14:36:09Z</time>
      </trkpt>
      <trkpt lat="46.32373" lon="-0.55325">
        <ele>-5.180607</ele>
        <time>2013-02-19T14:36:14Z</time>
      </trkpt>
      <trkpt lat="46.32378" lon="-0.55326">
        <ele>-8.534989</ele>
        <time>2013-02-19T14:36:19Z</time>
      </trkpt>
      <trkpt lat="46.32382" lon="-0.55328">
        <ele>-8.534989</ele>
        <time>2013-02-19T14:36:24Z</time>
      </trkpt>
      <trkpt lat="46.32384" lon="-0.55329">
        <ele>-8.534989</ele>
        <time>2013-02-19T14:36:29Z</time>
      </trkpt>
      <trkpt lat="46.32385" lon="-0.55333">
        <ele>-13.387228</ele>
        <time>2013-02-19T14:36:34Z</time>
      </trkpt>
      <trkpt lat="46.32387" lon="-0.55338">
        <ele>-15.988259</ele>
        <time>2013-02-19T14:36:39Z</time>
      </trkpt>
      <trkpt lat="46.32384" lon="-0.55351">
        <ele>-18.58929</ele>
        <time>2013-02-19T14:36:44Z</time>
      </trkpt>
      <trkpt lat="46.32384" lon="-0.5536">
        <ele>-18.58929</ele>
        <time>2013-02-19T14:36:49Z</time>
      </trkpt>
      <trkpt lat="46.32386" lon="-0.55365">
        <ele>-23.739458</ele>
        <time>2013-02-19T14:36:54Z</time>
      </trkpt>
      <trkpt lat="46.32385" lon="-0.55371">
        <ele>-24.24171</ele>
        <time>2013-02-19T14:36:59Z</time>
      </trkpt>
      <trkpt lat="46.32383" lon="-0.55377">
        <ele>-24.743963</ele>
        <time>2013-02-19T14:37:04Z</time>
      </trkpt>
      <trkpt lat="46.32383" lon="-0.55383">
        <ele>-25.246216</ele>
        <time>2013-02-19T14:37:09Z</time>
      </trkpt>
      <trkpt lat="46.3238" lon="-0.55394">
        <ele>-25.748468</ele>
        <time>2013-02-19T14:37:14Z</time>
      </trkpt>
      <trkpt lat="46.32369" lon="-0.55411">
        <ele>-26.250721</ele>
        <time>2013-02-19T14:37:19Z</time>
      </trkpt>
      <trkpt lat="46.32363" lon="-0.55416">
        <ele>-26.752974</ele>
        <time>2013-02-19T14:37:24Z</time>
      </trkpt>
      <trkpt lat="46.32361" lon="-0.55425">
        <ele>-27.255226</ele>
        <time>2013-02-19T14:37:29Z</time>
      </trkpt>
      <trkpt lat="46.32364" lon="-0.55439">
        <ele>-30.024057</ele>
        <time>2013-02-19T14:37:34Z</time>
      </trkpt>
      <trkpt lat="46.32361" lon="-0.55451">
        <ele>-31.962564</ele>
        <time>2013-02-19T14:37:39Z</time>
      </trkpt>
      <trkpt lat="46.32358" lon="-0.55461">
        <ele>-31.962564</ele>
        <time>2013-02-19T14:37:44Z</time>
      </trkpt>
      <trkpt lat="46.32355" lon="-0.5547">
        <ele>-33.11127</ele>
        <time>2013-02-19T14:37:49Z</time>
      </trkpt>
      <trkpt lat="46.32353" lon="-0.5548">
        <ele>-33.11127</ele>
        <time>2013-02-19T14:37:54Z</time>
      </trkpt>
      <trkpt lat="46.32348" lon="-0.55491">
        <ele>-33.39481</ele>
        <time>2013-02-19T14:37:59Z</time>
      </trkpt>
      <trkpt lat="46.32339" lon="-0.55507">
        <ele>-32.846836</ele>
        <time>2013-02-19T14:38:04Z</time>
      </trkpt>
      <trkpt lat="46.32329" lon="-0.55522">
        <ele>-31.803646</ele>
        <time>2013-02-19T14:38:09Z</time>
      </trkpt>
      <trkpt lat="46.32319" lon="-0.55538">
        <ele>-29.98751</ele>
        <time>2013-02-19T14:38:14Z</time>
      </trkpt>
      <trkpt lat="46.32318" lon="-0.55553">
        <ele>-27.705427</ele>
        <time>2013-02-19T14:38:19Z</time>
      </trkpt>
      <trkpt lat="46.3232" lon="-0.55561">
        <ele>-27.705427</ele>
        <time>2013-02-19T14:38:24Z</time>
      </trkpt>
      <trkpt lat="46.32318" lon="-0.55574">
        <ele>-24.767681</ele>
        <time>2013-02-19T14:38:29Z</time>
      </trkpt>
      <trkpt lat="46.32317" lon="-0.55581">
        <ele>-24.767681</ele>
        <time>2013-02-19T14:38:34Z</time>
      </trkpt>
      <trkpt lat="46.32319" lon="-0.55587">
        <ele>-22.571218</ele>
        <time>2013-02-19T14:38:39Z</time>
      </trkpt>
      <trkpt lat="46.3232" lon="-0.55595">
        <ele>-22.571218</ele>
        <time>2013-02-19T14:38:44Z</time>
      </trkpt>
      <trkpt lat="46.32321" lon="-0.55606">
        <ele>-20.116959</ele>
        <time>2013-02-19T14:38:49Z</time>
      </trkpt>
      <trkpt lat="46.32323" lon="-0.55615">
        <ele>-20.116959</ele>
        <time>2013-02-19T14:38:54Z</time>
      </trkpt>
      <trkpt lat="46.32322" lon="-0.55624">
        <ele>-17.445507</ele>
        <time>2013-02-19T14:38:59Z</time>
      </trkpt>
      <trkpt lat="46.32325" lon="-0.55633">
        <ele>-17.445507</ele>
        <time>2013-02-19T14:39:04Z</time>
      </trkpt>
      <trkpt lat="46.32327" lon="-0.55645">
        <ele>-14.623914</ele>
        <time>2013-02-19T14:39:09Z</time>
      </trkpt>
      <trkpt lat="46.3233" lon="-0.5565">
        <ele>-14.623914</ele>
        <time>2013-02-19T14:39:14Z</time>
      </trkpt>
      <trkpt lat="46.32331" lon="-0.55653">
        <ele>-14.623914</ele>
        <time>2013-02-19T14:39:19Z</time>
      </trkpt>
      <trkpt lat="46.32331" lon="-0.55657">
        <ele>-12.060558</ele>
        <time>2013-02-19T14:39:24Z</time>
      </trkpt>
      <trkpt lat="46.32339" lon="-0.55665">
        <ele>-9.542197</ele>
        <time>2013-02-19T14:39:29Z</time>
      </trkpt>
      <trkpt lat="46.32344" lon="-0.55672">
        <ele>-9.542197</ele>
        <time>2013-02-19T14:39:34Z</time>
      </trkpt>
      <trkpt lat="46.32348" lon="-0.55674">
        <ele>-6.741355</ele>
        <time>2013-02-19T14:39:39Z</time>
      </trkpt>
      <trkpt lat="46.32355" lon="-0.55677">
        <ele>-6.741355</ele>
        <time>2013-02-19T14:39:44Z</time>
      </trkpt>
      <trkpt lat="46.32358" lon="-0.5569">
        <ele>-3.7011857</ele>
        <time>2013-02-19T14:39:49Z</time>
      </trkpt>
      <trkpt lat="46.32364" lon="-0.55699">
        <ele>-3.7011857</ele>
        <time>2013-02-19T14:39:54Z</time>
      </trkpt>
      <trkpt lat="46.32374" lon="-0.55699">
        <ele>-0.1307829</ele>
        <time>2013-02-19T14:39:59Z</time>
      </trkpt>
      <trkpt lat="46.3238" lon="-0.55701">
        <ele>-0.1307829</ele>
        <time>2013-02-19T14:40:04Z</time>
      </trkpt>
      <trkpt lat="46.32385" lon="-0.55703">
        <ele>3.603937</ele>
        <time>2013-02-19T14:40:09Z</time>
      </trkpt>
      <trkpt lat="46.32388" lon="-0.55706">
        <ele>3.603937</ele>
        <time>2013-02-19T14:40:14Z</time>
      </trkpt>
      <trkpt lat="46.32394" lon="-0.55707">
        <ele>6.889807</ele>
        <time>2013-02-19T14:40:19Z</time>
      </trkpt>
      <trkpt lat="46.32397" lon="-0.55709">
        <ele>6.889807</ele>
        <time>2013-02-19T14:40:24Z</time>
      </trkpt>
      <trkpt lat="46.32399" lon="-0.55711">
        <ele>6.889807</ele>
        <time>2013-02-19T14:40:29Z</time>
      </trkpt>
      <trkpt lat="46.32395" lon="-0.55711">
        <ele>6.889807</ele>
        <time>2013-02-19T14:40:34Z</time>
      </trkpt>
      <trkpt lat="46.32392" lon="-0.55713">
        <ele>9.895089</ele>
        <time>2013-02-19T14:40:39Z</time>
      </trkpt>
      <trkpt lat="46.32394" lon="-0.5571">
        <ele>9.895089</ele>
        <time>2013-02-19T14:40:44Z</time>
      </trkpt>
      <trkpt lat="46.32394" lon="-0.55709">
        <ele>9.895089</ele>
        <time>2013-02-19T14:40:49Z</time>
      </trkpt>
      <trkpt lat="46.32394" lon="-0.55708">
        <ele>9.895089</ele>
        <time>2013-02-19T14:40:54Z</time>
      </trkpt>
      <trkpt lat="46.32393" lon="-0.55707">
        <ele>9.895089</ele>
        <time>2013-02-19T14:41:04Z</time>
      </trkpt>
      <trkpt lat="46.32394" lon="-0.55707">
        <ele>9.895089</ele>
        <time>2013-02-19T14:41:09Z</time>
      </trkpt>
      <trkpt lat="46.32394" lon="-0.55709">
        <ele>9.895089</ele>
        <time>2013-02-19T14:41:14Z</time>
      </trkpt>
      <trkpt lat="46.32398" lon="-0.55717">
        <ele>11.811099</ele>
        <time>2013-02-19T14:41:19Z</time>
      </trkpt>
      <trkpt lat="46.32399" lon="-0.55716">
        <ele>11.811099</ele>
        <time>2013-02-19T14:41:24Z</time>
      </trkpt>
      <trkpt lat="46.32397" lon="-0.5572">
        <ele>11.811099</ele>
        <time>2013-02-19T14:41:29Z</time>
      </trkpt>
      <trkpt lat="46.32397" lon="-0.55725">
        <ele>11.811099</ele>
        <time>2013-02-19T14:41:34Z</time>
      </trkpt>
      <trkpt lat="46.32395" lon="-0.55732">
        <ele>11.87738</ele>
        <time>2013-02-19T14:41:39Z</time>
      </trkpt>
      <trkpt lat="46.32395" lon="-0.55734">
        <ele>11.87738</ele>
        <time>2013-02-19T14:41:44Z</time>
      </trkpt>
      <trkpt lat="46.32394" lon="-0.55735">
        <ele>11.87738</ele>
        <time>2013-02-19T14:41:49Z</time>
      </trkpt>
      <trkpt lat="46.32395" lon="-0.55734">
        <ele>11.87738</ele>
        <time>2013-02-19T14:41:54Z</time>
      </trkpt>
      <trkpt lat="46.32397" lon="-0.55734">
        <ele>11.87738</ele>
        <time>2013-02-19T14:41:59Z</time>
      </trkpt>
      <trkpt lat="46.32393" lon="-0.55732">
        <ele>12.536329</ele>
        <time>2013-02-19T14:42:04Z</time>
      </trkpt>
      <trkpt lat="46.32391" lon="-0.55731">
        <ele>12.536329</ele>
        <time>2013-02-19T14:42:09Z</time>
      </trkpt>
      <trkpt lat="46.3239" lon="-0.55732">
        <ele>12.536329</ele>
        <time>2013-02-19T14:42:14Z</time>
      </trkpt>
      <trkpt lat="46.32386" lon="-0.55729">
        <ele>12.536329</ele>
        <time>2013-02-19T14:42:19Z</time>
      </trkpt>
      <trkpt lat="46.32384" lon="-0.55735">
        <ele>13.282499</ele>
        <time>2013-02-19T14:42:24Z</time>
      </trkpt>
      <trkpt lat="46.32379" lon="-0.55736">
        <ele>13.282499</ele>
        <time>2013-02-19T14:42:29Z</time>
      </trkpt>
      <trkpt lat="46.32375" lon="-0.55738">
        <ele>13.282499</ele>
        <time>2013-02-19T14:42:34Z</time>
      </trkpt>
      <trkpt lat="46.32376" lon="-0.55738">
        <ele>14.137469</ele>
        <time>2013-02-19T14:42:39Z</time>
      </trkpt>
      <trkpt lat="46.32377" lon="-0.5574">
        <ele>14.137469</ele>
        <time>2013-02-19T14:42:44Z</time>
      </trkpt>
      <trkpt lat="46.32376" lon="-0.5574">
        <ele>14.137469</ele>
        <time>2013-02-19T14:42:49Z</time>
      </trkpt>
      <trkpt lat="46.32376" lon="-0.55741">
        <ele>14.137469</ele>
        <time>2013-02-19T14:42:54Z</time>
      </trkpt>
      <trkpt lat="46.32371" lon="-0.55742">
        <ele>14.137469</ele>
        <time>2013-02-19T14:42:59Z</time>
      </trkpt>
      <trkpt lat="46.32372" lon="-0.55746">
        <ele>14.631101</ele>
        <time>2013-02-19T14:43:04Z</time>
      </trkpt>
      <trkpt lat="46.32373" lon="-0.55752">
        <ele>14.631101</ele>
        <time>2013-02-19T14:43:09Z</time>
      </trkpt>
      <trkpt lat="46.32375" lon="-0.55756">
        <ele>14.631101</ele>
        <time>2013-02-19T14:43:14Z</time>
      </trkpt>
      <trkpt lat="46.32376" lon="-0.55762">
        <ele>14.400998</ele>
        <time>2013-02-19T14:43:19Z</time>
      </trkpt>
      <trkpt lat="46.32378" lon="-0.5577">
        <ele>14.400998</ele>
        <time>2013-02-19T14:43:24Z</time>
      </trkpt>
      <trkpt lat="46.3238" lon="-0.55777">
        <ele>14.093502</ele>
        <time>2013-02-19T14:43:29Z</time>
      </trkpt>
      <trkpt lat="46.32378" lon="-0.55782">
        <ele>14.093502</ele>
        <time>2013-02-19T14:43:34Z</time>
      </trkpt>
      <trkpt lat="46.32374" lon="-0.55782">
        <ele>14.093502</ele>
        <time>2013-02-19T14:43:39Z</time>
      </trkpt>
      <trkpt lat="46.32369" lon="-0.55783">
        <ele>14.365446</ele>
        <time>2013-02-19T14:43:44Z</time>
      </trkpt>
      <trkpt lat="46.32363" lon="-0.55782">
        <ele>14.365446</ele>
        <time>2013-02-19T14:43:49Z</time>
      </trkpt>
      <trkpt lat="46.32361" lon="-0.5578">
        <ele>14.365446</ele>
        <time>2013-02-19T14:43:54Z</time>
      </trkpt>
      <trkpt lat="46.32361" lon="-0.55781">
        <ele>14.526891</ele>
        <time>2013-02-19T14:43:59Z</time>
      </trkpt>
      <trkpt lat="46.32361" lon="-0.55784">
        <ele>14.526891</ele>
        <time>2013-02-19T14:44:04Z</time>
      </trkpt>
      <trkpt lat="46.32361" lon="-0.55782">
        <ele>14.526891</ele>
        <time>2013-02-19T14:44:09Z</time>
      </trkpt>
      <trkpt lat="46.32361" lon="-0.55784">
        <ele>14.526891</ele>
        <time>2013-02-19T14:44:14Z</time>
      </trkpt>
      <trkpt lat="46.3236" lon="-0.55785">
        <ele>14.526891</ele>
        <time>2013-02-19T14:44:24Z</time>
      </trkpt>
      <trkpt lat="46.32355" lon="-0.55782">
        <ele>14.890107</ele>
        <time>2013-02-19T14:44:29Z</time>
      </trkpt>
      <trkpt lat="46.32353" lon="-0.55784">
        <ele>14.890107</ele>
        <time>2013-02-19T14:44:34Z</time>
      </trkpt>
      <trkpt lat="46.32355" lon="-0.55784">
        <ele>14.890107</ele>
        <time>2013-02-19T14:44:39Z</time>
      </trkpt>
      <trkpt lat="46.3235" lon="-0.5578">
        <ele>14.890107</ele>
        <time>2013-02-19T14:44:44Z</time>
      </trkpt>
      <trkpt lat="46.32347" lon="-0.55779">
        <ele>15.556593</ele>
        <time>2013-02-19T14:44:49Z</time>
      </trkpt>
      <trkpt lat="46.32344" lon="-0.5578">
        <ele>15.556593</ele>
        <time>2013-02-19T14:44:54Z</time>
      </trkpt>
      <trkpt lat="46.32342" lon="-0.55778">
        <ele>15.556593</ele>
        <time>2013-02-19T14:44:59Z</time>
      </trkpt>
      <trkpt lat="46.3234" lon="-0.55777">
        <ele>15.556593</ele>
        <time>2013-02-19T14:45:04Z</time>
      </trkpt>
      <trkpt lat="46.32338" lon="-0.55777">
        <ele>15.754942</ele>
        <time>2013-02-19T14:45:09Z</time>
      </trkpt>
      <trkpt lat="46.32337" lon="-0.55772">
        <ele>15.754942</ele>
        <time>2013-02-19T14:45:14Z</time>
      </trkpt>
      <trkpt lat="46.32335" lon="-0.55767">
        <ele>15.754942</ele>
        <time>2013-02-19T14:45:19Z</time>
      </trkpt>
      <trkpt lat="46.32334" lon="-0.55759">
        <ele>16.90463</ele>
        <time>2013-02-19T14:45:24Z</time>
      </trkpt>
      <trkpt lat="46.32332" lon="-0.55754">
        <ele>16.90463</ele>
        <time>2013-02-19T14:45:29Z</time>
      </trkpt>
      <trkpt lat="46.32332" lon="-0.55752">
        <ele>16.90463</ele>
        <time>2013-02-19T14:45:34Z</time>
      </trkpt>
      <trkpt lat="46.32333" lon="-0.55752">
        <ele>16.90463</ele>
        <time>2013-02-19T14:45:39Z</time>
      </trkpt>
      <trkpt lat="46.32327" lon="-0.55743">
        <ele>18.372751</ele>
        <time>2013-02-19T14:45:44Z</time>
      </trkpt>
      <trkpt lat="46.32325" lon="-0.55739">
        <ele>18.372751</ele>
        <time>2013-02-19T14:45:49Z</time>
      </trkpt>
      <trkpt lat="46.32324" lon="-0.55734">
        <ele>18.372751</ele>
        <time>2013-02-19T14:45:54Z</time>
      </trkpt>
      <trkpt lat="46.32319" lon="-0.55726">
        <ele>18.505617</ele>
        <time>2013-02-19T14:45:59Z</time>
      </trkpt>
      <trkpt lat="46.32316" lon="-0.55718">
        <ele>18.505617</ele>
        <time>2013-02-19T14:46:04Z</time>
      </trkpt>
      <trkpt lat="46.32314" lon="-0.55708">
        <ele>18.527342</ele>
        <time>2013-02-19T14:46:14Z</time>
      </trkpt>
      <trkpt lat="46.32314" lon="-0.55696">
        <ele>18.527342</ele>
        <time>2013-02-19T14:46:19Z</time>
      </trkpt>
      <trkpt lat="46.32312" lon="-0.55691">
        <ele>19.096897</ele>
        <time>2013-02-19T14:46:24Z</time>
      </trkpt>
      <trkpt lat="46.3231" lon="-0.55684">
        <ele>19.096897</ele>
        <time>2013-02-19T14:46:29Z</time>
      </trkpt>
      <trkpt lat="46.32307" lon="-0.55675">
        <ele>19.598402</ele>
        <time>2013-02-19T14:46:34Z</time>
      </trkpt>
      <trkpt lat="46.32306" lon="-0.55667">
        <ele>19.598402</ele>
        <time>2013-02-19T14:46:39Z</time>
      </trkpt>
      <trkpt lat="46.32304" lon="-0.55662">
        <ele>19.821714</ele>
        <time>2013-02-19T14:46:44Z</time>
      </trkpt>
      <trkpt lat="46.32299" lon="-0.55655">
        <ele>19.821714</ele>
        <time>2013-02-19T14:46:49Z</time>
      </trkpt>
      <trkpt lat="46.32298" lon="-0.55652">
        <ele>19.688211</ele>
        <time>2013-02-19T14:46:54Z</time>
      </trkpt>
      <trkpt lat="46.32296" lon="-0.5564">
        <ele>19.688211</ele>
        <time>2013-02-19T14:46:59Z</time>
      </trkpt>
      <trkpt lat="46.32294" lon="-0.55634">
        <ele>19.543991</ele>
        <time>2013-02-19T14:47:04Z</time>
      </trkpt>
      <trkpt lat="46.32295" lon="-0.55624">
        <ele>19.543991</ele>
        <time>2013-02-19T14:47:09Z</time>
      </trkpt>
      <trkpt lat="46.32295" lon="-0.5562">
        <ele>19.335066</ele>
        <time>2013-02-19T14:47:14Z</time>
      </trkpt>
      <trkpt lat="46.32292" lon="-0.55611">
        <ele>19.335066</ele>
        <time>2013-02-19T14:47:19Z</time>
      </trkpt>
      <trkpt lat="46.32291" lon="-0.55603">
        <ele>19.256586</ele>
        <time>2013-02-19T14:47:24Z</time>
      </trkpt>
      <trkpt lat="46.3229" lon="-0.556">
        <ele>19.256586</ele>
        <time>2013-02-19T14:47:29Z</time>
      </trkpt>
      <trkpt lat="46.32289" lon="-0.55594">
        <ele>19.256586</ele>
        <time>2013-02-19T14:47:34Z</time>
      </trkpt>
      <trkpt lat="46.3229" lon="-0.55583">
        <ele>19.388103</ele>
        <time>2013-02-19T14:47:39Z</time>
      </trkpt>
      <trkpt lat="46.32288" lon="-0.55575">
        <ele>19.388103</ele>
        <time>2013-02-19T14:47:44Z</time>
      </trkpt>
      <trkpt lat="46.32284" lon="-0.55569">
        <ele>19.09658</ele>
        <time>2013-02-19T14:47:49Z</time>
      </trkpt>
      <trkpt lat="46.32284" lon="-0.55562">
        <ele>19.09658</ele>
        <time>2013-02-19T14:47:54Z</time>
      </trkpt>
      <trkpt lat="46.32282" lon="-0.55551">
        <ele>18.920704</ele>
        <time>2013-02-19T14:47:59Z</time>
      </trkpt>
      <trkpt lat="46.32283" lon="-0.5554">
        <ele>18.920704</ele>
        <time>2013-02-19T14:48:04Z</time>
      </trkpt>
      <trkpt lat="46.32281" lon="-0.55534">
        <ele>19.0566</ele>
        <time>2013-02-19T14:48:09Z</time>
      </trkpt>
      <trkpt lat="46.32277" lon="-0.55525">
        <ele>19.0566</ele>
        <time>2013-02-19T14:48:14Z</time>
      </trkpt>
      <trkpt lat="46.3228" lon="-0.55518">
        <ele>18.950115</ele>
        <time>2013-02-19T14:48:19Z</time>
      </trkpt>
      <trkpt lat="46.3228" lon="-0.55512">
        <ele>18.950115</ele>
        <time>2013-02-19T14:48:24Z</time>
      </trkpt>
      <trkpt lat="46.32281" lon="-0.55505">
        <ele>18.950115</ele>
        <time>2013-02-19T14:48:29Z</time>
      </trkpt>
      <trkpt lat="46.32282" lon="-0.55499">
        <ele>18.693695</ele>
        <time>2013-02-19T14:48:34Z</time>
      </trkpt>
      <trkpt lat="46.3228" lon="-0.5549">
        <ele>18.693695</ele>
        <time>2013-02-19T14:48:39Z</time>
      </trkpt>
      <trkpt lat="46.32279" lon="-0.55481">
        <ele>18.11398</ele>
        <time>2013-02-19T14:48:44Z</time>
      </trkpt>
      <trkpt lat="46.32284" lon="-0.55479">
        <ele>18.11398</ele>
        <time>2013-02-19T14:48:49Z</time>
      </trkpt>
      <trkpt lat="46.32289" lon="-0.5547">
        <ele>17.382645</ele>
        <time>2013-02-19T14:48:54Z</time>
      </trkpt>
      <trkpt lat="46.32292" lon="-0.55465">
        <ele>17.382645</ele>
        <time>2013-02-19T14:48:59Z</time>
      </trkpt>
      <trkpt lat="46.32291" lon="-0.55458">
        <ele>16.659124</ele>
        <time>2013-02-19T14:49:04Z</time>
      </trkpt>
      <trkpt lat="46.32285" lon="-0.55451">
        <ele>16.659124</ele>
        <time>2013-02-19T14:49:09Z</time>
      </trkpt>
      <trkpt lat="46.32285" lon="-0.55444">
        <ele>15.774</ele>
        <time>2013-02-19T14:49:14Z</time>
      </trkpt>
      <trkpt lat="46.32282" lon="-0.55436">
        <ele>15.774</ele>
        <time>2013-02-19T14:49:19Z</time>
      </trkpt>
      <trkpt lat="46.32288" lon="-0.55431">
        <ele>14.440985</ele>
        <time>2013-02-19T14:49:24Z</time>
      </trkpt>
      <trkpt lat="46.32285" lon="-0.55425">
        <ele>14.440985</ele>
        <time>2013-02-19T14:49:29Z</time>
      </trkpt>
      <trkpt lat="46.32288" lon="-0.55416">
        <ele>13.649755</ele>
        <time>2013-02-19T14:49:34Z</time>
      </trkpt>
      <trkpt lat="46.32289" lon="-0.55409">
        <ele>13.649755</ele>
        <time>2013-02-19T14:49:39Z</time>
      </trkpt>
      <trkpt lat="46.32287" lon="-0.55399">
        <ele>13.465423</ele>
        <time>2013-02-19T14:49:44Z</time>
      </trkpt>
      <trkpt lat="46.3229" lon="-0.5539">
        <ele>13.465423</ele>
        <time>2013-02-19T14:49:49Z</time>
      </trkpt>
      <trkpt lat="46.32293" lon="-0.55381">
        <ele>13.081854</ele>
        <time>2013-02-19T14:49:54Z</time>
      </trkpt>
      <trkpt lat="46.32293" lon="-0.55372">
        <ele>13.081854</ele>
        <time>2013-02-19T14:49:59Z</time>
      </trkpt>
      <trkpt lat="46.32294" lon="-0.55364">
        <ele>13.337815</ele>
        <time>2013-02-19T14:50:04Z</time>
      </trkpt>
      <trkpt lat="46.3229" lon="-0.55354">
        <ele>13.337815</ele>
        <time>2013-02-19T14:50:09Z</time>
      </trkpt>
      <trkpt lat="46.32292" lon="-0.55348">
        <ele>13.207179</ele>
        <time>2013-02-19T14:50:14Z</time>
      </trkpt>
      <trkpt lat="46.32292" lon="-0.55341">
        <ele>13.207179</ele>
        <time>2013-02-19T14:50:19Z</time>
      </trkpt>
      <trkpt lat="46.32289" lon="-0.55332">
        <ele>13.094831</ele>
        <time>2013-02-19T14:50:24Z</time>
      </trkpt>
      <trkpt lat="46.32287" lon="-0.55324">
        <ele>13.094831</ele>
        <time>2013-02-19T14:50:29Z</time>
      </trkpt>
      <trkpt lat="46.32287" lon="-0.55314">
        <ele>12.82815</ele>
        <time>2013-02-19T14:50:34Z</time>
      </trkpt>
      <trkpt lat="46.32285" lon="-0.55304">
        <ele>12.82815</ele>
        <time>2013-02-19T14:50:39Z</time>
      </trkpt>
      <trkpt lat="46.32286" lon="-0.55296">
        <ele>12.823979</ele>
        <time>2013-02-19T14:50:44Z</time>
      </trkpt>
      <trkpt lat="46.32284" lon="-0.55288">
        <ele>12.823979</ele>
        <time>2013-02-19T14:50:49Z</time>
      </trkpt>
      <trkpt lat="46.32284" lon="-0.5528">
        <ele>12.675108</ele>
        <time>2013-02-19T14:50:54Z</time>
      </trkpt>
      <trkpt lat="46.32282" lon="-0.5527">
        <ele>12.675108</ele>
        <time>2013-02-19T14:50:59Z</time>
      </trkpt>
      <trkpt lat="46.32282" lon="-0.55265">
        <ele>12.8980465</ele>
        <time>2013-02-19T14:51:04Z</time>
      </trkpt>
      <trkpt lat="46.3228" lon="-0.55258">
        <ele>12.8980465</ele>
        <time>2013-02-19T14:51:09Z</time>
      </trkpt>
      <trkpt lat="46.32278" lon="-0.5525">
        <ele>13.07675</ele>
        <time>2013-02-19T14:51:14Z</time>
      </trkpt>
      <trkpt lat="46.32275" lon="-0.5524">
        <ele>13.07675</ele>
        <time>2013-02-19T14:51:19Z</time>
      </trkpt>
      <trkpt lat="46.32272" lon="-0.55234">
        <ele>12.9843025</ele>
        <time>2013-02-19T14:51:24Z</time>
      </trkpt>
      <trkpt lat="46.32273" lon="-0.55232">
        <ele>12.9843025</ele>
        <time>2013-02-19T14:51:29Z</time>
      </trkpt>
      <trkpt lat="46.3227" lon="-0.55223">
        <ele>12.9843025</ele>
        <time>2013-02-19T14:51:34Z</time>
      </trkpt>
      <trkpt lat="46.32272" lon="-0.55214">
        <ele>12.281442</ele>
        <time>2013-02-19T14:51:39Z</time>
      </trkpt>
      <trkpt lat="46.32271" lon="-0.55208">
        <ele>12.281442</ele>
        <time>2013-02-19T14:51:44Z</time>
      </trkpt>
      <trkpt lat="46.32267" lon="-0.55201">
        <ele>11.894821</ele>
        <time>2013-02-19T14:51:49Z</time>
      </trkpt>
      <trkpt lat="46.32263" lon="-0.55204">
        <ele>11.894821</ele>
        <time>2013-02-19T14:51:54Z</time>
      </trkpt>
      <trkpt lat="46.32264" lon="-0.55205">
        <ele>11.894821</ele>
        <time>2013-02-19T14:51:59Z</time>
      </trkpt>
      <trkpt lat="46.32264" lon="-0.55206">
        <ele>11.894821</ele>
        <time>2013-02-19T14:52:09Z</time>
      </trkpt>
      <trkpt lat="46.32264" lon="-0.55205">
        <ele>11.894821</ele>
        <time>2013-02-19T14:52:14Z</time>
      </trkpt>
      <trkpt lat="46.3226" lon="-0.55191">
        <ele>11.442707</ele>
        <time>2013-02-19T14:52:19Z</time>
      </trkpt>
      <trkpt lat="46.32267" lon="-0.5519">
        <ele>11.442707</ele>
        <time>2013-02-19T14:52:24Z</time>
      </trkpt>
      <trkpt lat="46.32265" lon="-0.5518">
        <ele>11.090318</ele>
        <time>2013-02-19T14:52:29Z</time>
      </trkpt>
      <trkpt lat="46.32262" lon="-0.55166">
        <ele>10.817448</ele>
        <time>2013-02-19T14:52:34Z</time>
      </trkpt>
      <trkpt lat="46.32266" lon="-0.55162">
        <ele>10.817448</ele>
        <time>2013-02-19T14:52:39Z</time>
      </trkpt>
      <trkpt lat="46.32268" lon="-0.55152">
        <ele>10.763604</ele>
        <time>2013-02-19T14:52:44Z</time>
      </trkpt>
      <trkpt lat="46.3227" lon="-0.55147">
        <ele>10.763604</ele>
        <time>2013-02-19T14:52:49Z</time>
      </trkpt>
      <trkpt lat="46.32272" lon="-0.55142">
        <ele>10.763604</ele>
        <time>2013-02-19T14:52:54Z</time>
      </trkpt>
      <trkpt lat="46.32277" lon="-0.55135">
        <ele>11.1005945</ele>
        <time>2013-02-19T14:52:59Z</time>
      </trkpt>
      <trkpt lat="46.32279" lon="-0.55131">
        <ele>11.1005945</ele>
        <time>2013-02-19T14:53:04Z</time>
      </trkpt>
      <trkpt lat="46.32282" lon="-0.55124">
        <ele>11.1005945</ele>
        <time>2013-02-19T14:53:09Z</time>
      </trkpt>
      <trkpt lat="46.32285" lon="-0.55117">
        <ele>12.000856</ele>
        <time>2013-02-19T14:53:14Z</time>
      </trkpt>
      <trkpt lat="46.32289" lon="-0.55109">
        <ele>12.000856</ele>
        <time>2013-02-19T14:53:19Z</time>
      </trkpt>
      <trkpt lat="46.32287" lon="-0.55101">
        <ele>12.930788</ele>
        <time>2013-02-19T14:53:24Z</time>
      </trkpt>
      <trkpt lat="46.32288" lon="-0.55095">
        <ele>12.930788</ele>
        <time>2013-02-19T14:53:29Z</time>
      </trkpt>
      <trkpt lat="46.32287" lon="-0.55088">
        <ele>14.044355</ele>
        <time>2013-02-19T14:53:34Z</time>
      </trkpt>
      <trkpt lat="46.3229" lon="-0.55083">
        <ele>14.044355</ele>
        <time>2013-02-19T14:53:39Z</time>
      </trkpt>
      <trkpt lat="46.3229" lon="-0.55072">
        <ele>14.83516</ele>
        <time>2013-02-19T14:53:44Z</time>
      </trkpt>
      <trkpt lat="46.32288" lon="-0.55064">
        <ele>14.83516</ele>
        <time>2013-02-19T14:53:49Z</time>
      </trkpt>
      <trkpt lat="46.32292" lon="-0.55059">
        <ele>15.69955</ele>
        <time>2013-02-19T14:53:54Z</time>
      </trkpt>
      <trkpt lat="46.32294" lon="-0.5505">
        <ele>15.69955</ele>
        <time>2013-02-19T14:53:59Z</time>
      </trkpt>
      <trkpt lat="46.32296" lon="-0.55041">
        <ele>16.65866</ele>
        <time>2013-02-19T14:54:04Z</time>
      </trkpt>
      <trkpt lat="46.32297" lon="-0.55035">
        <ele>16.65866</ele>
        <time>2013-02-19T14:54:09Z</time>
      </trkpt>
      <trkpt lat="46.32295" lon="-0.55028">
        <ele>16.823904</ele>
        <time>2013-02-19T14:54:14Z</time>
      </trkpt>
      <trkpt lat="46.32293" lon="-0.55019">
        <ele>16.823904</ele>
        <time>2013-02-19T14:54:19Z</time>
      </trkpt>
      <trkpt lat="46.32302" lon="-0.55011">
        <ele>17.896133</ele>
        <time>2013-02-19T14:54:24Z</time>
      </trkpt>
      <trkpt lat="46.32299" lon="-0.55004">
        <ele>17.896133</ele>
        <time>2013-02-19T14:54:29Z</time>
      </trkpt>
      <trkpt lat="46.32304" lon="-0.55001">
        <ele>18.307089</ele>
        <time>2013-02-19T14:54:34Z</time>
      </trkpt>
      <trkpt lat="46.32306" lon="-0.54997">
        <ele>18.307089</ele>
        <time>2013-02-19T14:54:39Z</time>
      </trkpt>
      <trkpt lat="46.3231" lon="-0.54994">
        <ele>18.307089</ele>
        <time>2013-02-19T14:54:44Z</time>
      </trkpt>
      <trkpt lat="46.32314" lon="-0.54995">
        <ele>19.098705</ele>
        <time>2013-02-19T14:54:49Z</time>
      </trkpt>
      <trkpt lat="46.32316" lon="-0.54984">
        <ele>19.098705</ele>
        <time>2013-02-19T14:54:54Z</time>
      </trkpt>
      <trkpt lat="46.32322" lon="-0.54978">
        <ele>19.909494</ele>
        <time>2013-02-19T14:54:59Z</time>
      </trkpt>
      <trkpt lat="46.32327" lon="-0.54973">
        <ele>19.909494</ele>
        <time>2013-02-19T14:55:04Z</time>
      </trkpt>
      <trkpt lat="46.32333" lon="-0.54968">
        <ele>20.31802</ele>
        <time>2013-02-19T14:55:09Z</time>
      </trkpt>
      <trkpt lat="46.32337" lon="-0.54953">
        <ele>20.713152</ele>
        <time>2013-02-19T14:55:14Z</time>
      </trkpt>
      <trkpt lat="46.32339" lon="-0.54943">
        <ele>20.713152</ele>
        <time>2013-02-19T14:55:19Z</time>
      </trkpt>
      <trkpt lat="46.32341" lon="-0.54937">
        <ele>20.777931</ele>
        <time>2013-02-19T14:55:24Z</time>
      </trkpt>
      <trkpt lat="46.32346" lon="-0.54928">
        <ele>20.777931</ele>
        <time>2013-02-19T14:55:29Z</time>
      </trkpt>
      <trkpt lat="46.32347" lon="-0.5492">
        <ele>20.536673</ele>
        <time>2013-02-19T14:55:34Z</time>
      </trkpt>
      <trkpt lat="46.32345" lon="-0.54911">
        <ele>20.536673</ele>
        <time>2013-02-19T14:55:39Z</time>
      </trkpt>
      <trkpt lat="46.32344" lon="-0.54898">
        <ele>20.488354</ele>
        <time>2013-02-19T14:55:44Z</time>
      </trkpt>
      <trkpt lat="46.32343" lon="-0.54889">
        <ele>20.488354</ele>
        <time>2013-02-19T14:55:49Z</time>
      </trkpt>
      <trkpt lat="46.32342" lon="-0.54883">
        <ele>20.806553</ele>
        <time>2013-02-19T14:55:54Z</time>
      </trkpt>
      <trkpt lat="46.3234" lon="-0.54874">
        <ele>20.806553</ele>
        <time>2013-02-19T14:55:59Z</time>
      </trkpt>
      <trkpt lat="46.32336" lon="-0.54862">
        <ele>21.175516</ele>
        <time>2013-02-19T14:56:04Z</time>
      </trkpt>
      <trkpt lat="46.32333" lon="-0.54853">
        <ele>21.175516</ele>
        <time>2013-02-19T14:56:09Z</time>
      </trkpt>
      <trkpt lat="46.32327" lon="-0.5485">
        <ele>20.582003</ele>
        <time>2013-02-19T14:56:14Z</time>
      </trkpt>
      <trkpt lat="46.32321" lon="-0.54844">
        <ele>20.582003</ele>
        <time>2013-02-19T14:56:19Z</time>
      </trkpt>
      <trkpt lat="46.32317" lon="-0.54837">
        <ele>19.747194</ele>
        <time>2013-02-19T14:56:24Z</time>
      </trkpt>
      <trkpt lat="46.32314" lon="-0.54829">
        <ele>19.747194</ele>
        <time>2013-02-19T14:56:29Z</time>
      </trkpt>
      <trkpt lat="46.32312" lon="-0.54819">
        <ele>18.648243</ele>
        <time>2013-02-19T14:56:34Z</time>
      </trkpt>
      <trkpt lat="46.32312" lon="-0.54808">
        <ele>18.648243</ele>
        <time>2013-02-19T14:56:39Z</time>
      </trkpt>
      <trkpt lat="46.32315" lon="-0.54803">
        <ele>17.942047</ele>
        <time>2013-02-19T14:56:44Z</time>
      </trkpt>
      <trkpt lat="46.32312" lon="-0.54799">
        <ele>17.942047</ele>
        <time>2013-02-19T14:56:49Z</time>
      </trkpt>
      <trkpt lat="46.32314" lon="-0.54792">
        <ele>17.227358</ele>
        <time>2013-02-19T14:56:54Z</time>
      </trkpt>
      <trkpt lat="46.32313" lon="-0.54784">
        <ele>17.227358</ele>
        <time>2013-02-19T14:56:59Z</time>
      </trkpt>
      <trkpt lat="46.32315" lon="-0.54776">
        <ele>16.62239</ele>
        <time>2013-02-19T14:57:04Z</time>
      </trkpt>
      <trkpt lat="46.32311" lon="-0.54773">
        <ele>16.62239</ele>
        <time>2013-02-19T14:57:09Z</time>
      </trkpt>
      <trkpt lat="46.32321" lon="-0.54764">
        <ele>16.582214</ele>
        <time>2013-02-19T14:57:14Z</time>
      </trkpt>
      <trkpt lat="46.32324" lon="-0.54755">
        <ele>16.582214</ele>
        <time>2013-02-19T14:57:19Z</time>
      </trkpt>
      <trkpt lat="46.32329" lon="-0.54748">
        <ele>17.498043</ele>
        <time>2013-02-19T14:57:24Z</time>
      </trkpt>
      <trkpt lat="46.32334" lon="-0.54742">
        <ele>17.498043</ele>
        <time>2013-02-19T14:57:29Z</time>
      </trkpt>
      <trkpt lat="46.32338" lon="-0.54737">
        <ele>18.821749</ele>
        <time>2013-02-19T14:57:34Z</time>
      </trkpt>
      <trkpt lat="46.32339" lon="-0.54733">
        <ele>18.821749</ele>
        <time>2013-02-19T14:57:39Z</time>
      </trkpt>
      <trkpt lat="46.32339" lon="-0.54729">
        <ele>18.821749</ele>
        <time>2013-02-19T14:57:44Z</time>
      </trkpt>
      <trkpt lat="46.32342" lon="-0.54726">
        <ele>19.208466</ele>
        <time>2013-02-19T14:57:49Z</time>
      </trkpt>
      <trkpt lat="46.32345" lon="-0.54721">
        <ele>19.208466</ele>
        <time>2013-02-19T14:57:54Z</time>
      </trkpt>
      <trkpt lat="46.32342" lon="-0.54717">
        <ele>19.208466</ele>
        <time>2013-02-19T14:57:59Z</time>
      </trkpt>
      <trkpt lat="46.32343" lon="-0.54709">
        <ele>19.187307</ele>
        <time>2013-02-19T14:58:04Z</time>
      </trkpt>
      <trkpt lat="46.32347" lon="-0.54702">
        <ele>19.187307</ele>
        <time>2013-02-19T14:58:09Z</time>
      </trkpt>
      <trkpt lat="46.32353" lon="-0.54699">
        <ele>19.105547</ele>
        <time>2013-02-19T14:58:14Z</time>
      </trkpt>
      <trkpt lat="46.32356" lon="-0.54697">
        <ele>19.105547</ele>
        <time>2013-02-19T14:58:19Z</time>
      </trkpt>
      <trkpt lat="46.32359" lon="-0.5469">
        <ele>18.982481</ele>
        <time>2013-02-19T14:58:24Z</time>
      </trkpt>
      <trkpt lat="46.32359" lon="-0.54684">
        <ele>18.982481</ele>
        <time>2013-02-19T14:58:29Z</time>
      </trkpt>
      <trkpt lat="46.3236" lon="-0.54684">
        <ele>18.982481</ele>
        <time>2013-02-19T14:58:34Z</time>
      </trkpt>
      <trkpt lat="46.3236" lon="-0.54685">
        <ele>18.982481</ele>
        <time>2013-02-19T14:58:39Z</time>
      </trkpt>
      <trkpt lat="46.32359" lon="-0.54685">
        <ele>18.982481</ele>
        <time>2013-02-19T14:58:54Z</time>
      </trkpt>
      <trkpt lat="46.3236" lon="-0.54685">
        <ele>18.982481</ele>
        <time>2013-02-19T14:58:59Z</time>
      </trkpt>
      <trkpt lat="46.3236" lon="-0.54684">
        <ele>18.982481</ele>
        <time>2013-02-19T14:59:24Z</time>
      </trkpt>
      <trkpt lat="46.32361" lon="-0.54683">
        <ele>19.599892</ele>
        <time>2013-02-19T14:59:29Z</time>
      </trkpt>
      <trkpt lat="46.32362" lon="-0.54679">
        <ele>19.599892</ele>
        <time>2013-02-19T14:59:34Z</time>
      </trkpt>
      <trkpt lat="46.32365" lon="-0.54683">
        <ele>19.599892</ele>
        <time>2013-02-19T14:59:39Z</time>
      </trkpt>
      <trkpt lat="46.32364" lon="-0.54685">
        <ele>19.599892</ele>
        <time>2013-02-19T14:59:44Z</time>
      </trkpt>
      <trkpt lat="46.32363" lon="-0.54682">
        <ele>20.599216</ele>
        <time>2013-02-19T14:59:59Z</time>
      </trkpt>
      <trkpt lat="46.32356" lon="-0.54675">
        <ele>20.599216</ele>
        <time>2013-02-19T15:00:04Z</time>
      </trkpt>
      <trkpt lat="46.32353" lon="-0.54669">
        <ele>21.12837</ele>
        <time>2013-02-19T15:00:09Z</time>
      </trkpt>
      <trkpt lat="46.32349" lon="-0.54659">
        <ele>21.12837</ele>
        <time>2013-02-19T15:00:14Z</time>
      </trkpt>
      <trkpt lat="46.32346" lon="-0.54651">
        <ele>21.45119</ele>
        <time>2013-02-19T15:00:19Z</time>
      </trkpt>
      <trkpt lat="46.32347" lon="-0.54643">
        <ele>21.45119</ele>
        <time>2013-02-19T15:00:24Z</time>
      </trkpt>
      <trkpt lat="46.32347" lon="-0.54638">
        <ele>22.259474</ele>
        <time>2013-02-19T15:00:29Z</time>
      </trkpt>
      <trkpt lat="46.32351" lon="-0.54629">
        <ele>22.259474</ele>
        <time>2013-02-19T15:00:34Z</time>
      </trkpt>
      <trkpt lat="46.32352" lon="-0.54621">
        <ele>22.881433</ele>
        <time>2013-02-19T15:00:39Z</time>
      </trkpt>
      <trkpt lat="46.32351" lon="-0.5461">
        <ele>22.881433</ele>
        <time>2013-02-19T15:00:44Z</time>
      </trkpt>
      <trkpt lat="46.32353" lon="-0.54604">
        <ele>22.781637</ele>
        <time>2013-02-19T15:00:49Z</time>
      </trkpt>
      <trkpt lat="46.32351" lon="-0.54592">
        <ele>22.781637</ele>
        <time>2013-02-19T15:00:54Z</time>
      </trkpt>
      <trkpt lat="46.32349" lon="-0.54583">
        <ele>22.157766</ele>
        <time>2013-02-19T15:00:59Z</time>
      </trkpt>
      <trkpt lat="46.32347" lon="-0.54576">
        <ele>22.157766</ele>
        <time>2013-02-19T15:01:04Z</time>
      </trkpt>
      <trkpt lat="46.32343" lon="-0.54574">
        <ele>22.116768</ele>
        <time>2013-02-19T15:01:09Z</time>
      </trkpt>
      <trkpt lat="46.32334" lon="-0.54571">
        <ele>22.116768</ele>
        <time>2013-02-19T15:01:14Z</time>
      </trkpt>
      <trkpt lat="46.32328" lon="-0.5457">
        <ele>22.212725</ele>
        <time>2013-02-19T15:01:19Z</time>
      </trkpt>
      <trkpt lat="46.3232" lon="-0.54567">
        <ele>22.212725</ele>
        <time>2013-02-19T15:01:24Z</time>
      </trkpt>
      <trkpt lat="46.32313" lon="-0.54563">
        <ele>22.608545</ele>
        <time>2013-02-19T15:01:29Z</time>
      </trkpt>
      <trkpt lat="46.3231" lon="-0.54564">
        <ele>22.608545</ele>
        <time>2013-02-19T15:01:34Z</time>
      </trkpt>
      <trkpt lat="46.32305" lon="-0.54565">
        <ele>22.608545</ele>
        <time>2013-02-19T15:01:39Z</time>
      </trkpt>
      <trkpt lat="46.323" lon="-0.54563">
        <ele>23.46875</ele>
        <time>2013-02-19T15:01:44Z</time>
      </trkpt>
      <trkpt lat="46.32297" lon="-0.54564">
        <ele>23.46875</ele>
        <time>2013-02-19T15:01:49Z</time>
      </trkpt>
      <trkpt lat="46.32292" lon="-0.54564">
        <ele>23.46875</ele>
        <time>2013-02-19T15:01:54Z</time>
      </trkpt>
      <trkpt lat="46.32285" lon="-0.54562">
        <ele>25.030949</ele>
        <time>2013-02-19T15:01:59Z</time>
      </trkpt>
      <trkpt lat="46.3228" lon="-0.54561">
        <ele>25.030949</ele>
        <time>2013-02-19T15:02:04Z</time>
      </trkpt>
      <trkpt lat="46.32274" lon="-0.54559">
        <ele>26.273993</ele>
        <time>2013-02-19T15:02:09Z</time>
      </trkpt>
      <trkpt lat="46.3227" lon="-0.5456">
        <ele>26.273993</ele>
        <time>2013-02-19T15:02:14Z</time>
      </trkpt>
      <trkpt lat="46.32263" lon="-0.54561">
        <ele>26.944397</ele>
        <time>2013-02-19T15:02:19Z</time>
      </trkpt>
      <trkpt lat="46.32259" lon="-0.5456">
        <ele>26.944397</ele>
        <time>2013-02-19T15:02:24Z</time>
      </trkpt>
      <trkpt lat="46.32252" lon="-0.54557">
        <ele>27.457436</ele>
        <time>2013-02-19T15:02:29Z</time>
      </trkpt>
      <trkpt lat="46.32248" lon="-0.54555">
        <ele>27.457436</ele>
        <time>2013-02-19T15:02:34Z</time>
      </trkpt>
      <trkpt lat="46.32244" lon="-0.54554">
        <ele>27.457436</ele>
        <time>2013-02-19T15:02:39Z</time>
      </trkpt>
      <trkpt lat="46.3224" lon="-0.54554">
        <ele>28.05424</ele>
        <time>2013-02-19T15:02:44Z</time>
      </trkpt>
      <trkpt lat="46.32235" lon="-0.54552">
        <ele>28.05424</ele>
        <time>2013-02-19T15:02:49Z</time>
      </trkpt>
      <trkpt lat="46.32231" lon="-0.5455">
        <ele>28.900383</ele>
        <time>2013-02-19T15:02:54Z</time>
      </trkpt>
      <trkpt lat="46.32229" lon="-0.54549">
        <ele>28.900383</ele>
        <time>2013-02-19T15:02:59Z</time>
      </trkpt>
      <trkpt lat="46.32228" lon="-0.54544">
        <ele>28.900383</ele>
        <time>2013-02-19T15:03:04Z</time>
      </trkpt>
      <trkpt lat="46.32228" lon="-0.54544">
        <ele>28.900383</ele>
        <time>2013-02-19T15:03:09Z</time>
      </trkpt>
      <trkpt lat="46.32228" lon="-0.54545">
        <ele>28.900383</ele>
        <time>2013-02-19T15:03:14Z</time>
      </trkpt>
      <trkpt lat="46.32228" lon="-0.54544">
        <ele>28.900383</ele>
        <time>2013-02-19T15:03:44Z</time>
      </trkpt>
      <trkpt lat="46.32226" lon="-0.5454">
        <ele>29.038958</ele>
        <time>2013-02-19T15:03:49Z</time>
      </trkpt>
      <trkpt lat="46.32228" lon="-0.54538">
        <ele>29.038958</ele>
        <time>2013-02-19T15:03:54Z</time>
      </trkpt>
      <trkpt lat="46.32233" lon="-0.54534">
        <ele>29.038958</ele>
        <time>2013-02-19T15:03:59Z</time>
      </trkpt>
      <trkpt lat="46.32237" lon="-0.54529">
        <ele>28.176226</ele>
        <time>2013-02-19T15:04:04Z</time>
      </trkpt>
      <trkpt lat="46.3224" lon="-0.54522">
        <ele>28.176226</ele>
        <time>2013-02-19T15:04:09Z</time>
      </trkpt>
      <trkpt lat="46.32242" lon="-0.54514">
        <ele>26.763422</ele>
        <time>2013-02-19T15:04:14Z</time>
      </trkpt>
      <trkpt lat="46.32244" lon="-0.54506">
        <ele>26.763422</ele>
        <time>2013-02-19T15:04:19Z</time>
      </trkpt>
      <trkpt lat="46.32246" lon="-0.54499">
        <ele>25.263432</ele>
        <time>2013-02-19T15:04:24Z</time>
      </trkpt>
      <trkpt lat="46.32245" lon="-0.54492">
        <ele>25.263432</ele>
        <time>2013-02-19T15:04:29Z</time>
      </trkpt>
      <trkpt lat="46.32245" lon="-0.54484">
        <ele>23.75952</ele>
        <time>2013-02-19T15:04:34Z</time>
      </trkpt>
      <trkpt lat="46.32245" lon="-0.54476">
        <ele>23.75952</ele>
        <time>2013-02-19T15:04:39Z</time>
      </trkpt>
      <trkpt lat="46.32247" lon="-0.54469">
        <ele>22.57383</ele>
        <time>2013-02-19T15:04:44Z</time>
      </trkpt>
      <trkpt lat="46.32248" lon="-0.5446">
        <ele>22.57383</ele>
        <time>2013-02-19T15:04:49Z</time>
      </trkpt>
      <trkpt lat="46.32251" lon="-0.54451">
        <ele>21.499544</ele>
        <time>2013-02-19T15:04:54Z</time>
      </trkpt>
      <trkpt lat="46.32252" lon="-0.54441">
        <ele>21.499544</ele>
        <time>2013-02-19T15:04:59Z</time>
      </trkpt>
      <trkpt lat="46.32253" lon="-0.54435">
        <ele>20.243814</ele>
        <time>2013-02-19T15:05:04Z</time>
      </trkpt>
      <trkpt lat="46.32257" lon="-0.54431">
        <ele>20.243814</ele>
        <time>2013-02-19T15:05:09Z</time>
      </trkpt>
      <trkpt lat="46.32261" lon="-0.54425">
        <ele>19.674255</ele>
        <time>2013-02-19T15:05:14Z</time>
      </trkpt>
      <trkpt lat="46.32263" lon="-0.5442">
        <ele>19.674255</ele>
        <time>2013-02-19T15:05:19Z</time>
      </trkpt>
      <trkpt lat="46.32265" lon="-0.54416">
        <ele>19.674255</ele>
        <time>2013-02-19T15:05:24Z</time>
      </trkpt>
      <trkpt lat="46.32267" lon="-0.54413">
        <ele>18.863443</ele>
        <time>2013-02-19T15:05:29Z</time>
      </trkpt>
      <trkpt lat="46.32272" lon="-0.54411">
        <ele>18.863443</ele>
        <time>2013-02-19T15:05:34Z</time>
      </trkpt>
      <trkpt lat="46.32276" lon="-0.54412">
        <ele>17.745317</ele>
        <time>2013-02-19T15:05:39Z</time>
      </trkpt>
      <trkpt lat="46.32277" lon="-0.54405">
        <ele>17.745317</ele>
        <time>2013-02-19T15:05:44Z</time>
      </trkpt>
      <trkpt lat="46.32283" lon="-0.54399">
        <ele>16.432407</ele>
        <time>2013-02-19T15:05:49Z</time>
      </trkpt>
      <trkpt lat="46.32285" lon="-0.54395">
        <ele>16.432407</ele>
        <time>2013-02-19T15:05:54Z</time>
      </trkpt>
      <trkpt lat="46.32284" lon="-0.54393">
        <ele>16.432407</ele>
        <time>2013-02-19T15:05:59Z</time>
      </trkpt>
      <trkpt lat="46.32282" lon="-0.54395">
        <ele>16.432407</ele>
        <time>2013-02-19T15:06:04Z</time>
      </trkpt>
      <trkpt lat="46.32282" lon="-0.54395">
        <ele>16.432407</ele>
        <time>2013-02-19T15:06:09Z</time>
      </trkpt>
      <trkpt lat="46.32278" lon="-0.54401">
        <ele>14.409786</ele>
        <time>2013-02-19T15:06:14Z</time>
      </trkpt>
      <trkpt lat="46.32277" lon="-0.54406">
        <ele>14.409786</ele>
        <time>2013-02-19T15:06:19Z</time>
      </trkpt>
      <trkpt lat="46.32278" lon="-0.54419">
        <ele>12.729845</ele>
        <time>2013-02-19T15:06:24Z</time>
      </trkpt>
      <trkpt lat="46.32281" lon="-0.54425">
        <ele>12.729845</ele>
        <time>2013-02-19T15:06:29Z</time>
      </trkpt>
      <trkpt lat="46.32288" lon="-0.54426">
        <ele>11.08404</ele>
        <time>2013-02-19T15:06:34Z</time>
      </trkpt>
      <trkpt lat="46.3229" lon="-0.54426">
        <ele>11.08404</ele>
        <time>2013-02-19T15:06:39Z</time>
      </trkpt>
      <trkpt lat="46.32296" lon="-0.54435">
        <ele>9.229538</ele>
        <time>2013-02-19T15:06:44Z</time>
      </trkpt>
      <trkpt lat="46.323" lon="-0.54434">
        <ele>9.229538</ele>
        <time>2013-02-19T15:06:49Z</time>
      </trkpt>
      <trkpt lat="46.323" lon="-0.5443">
        <ele>9.229538</ele>
        <time>2013-02-19T15:06:54Z</time>
      </trkpt>
      <trkpt lat="46.32309" lon="-0.54441">
        <ele>8.065903</ele>
        <time>2013-02-19T15:06:59Z</time>
      </trkpt>
      <trkpt lat="46.32317" lon="-0.54452">
        <ele>7.7040224</ele>
        <time>2013-02-19T15:07:04Z</time>
      </trkpt>
      <trkpt lat="46.32324" lon="-0.54465">
        <ele>8.186644</ele>
        <time>2013-02-19T15:07:09Z</time>
      </trkpt>
      <trkpt lat="46.32325" lon="-0.54448">
        <ele>8.643008</ele>
        <time>2013-02-19T15:07:14Z</time>
      </trkpt>
      <trkpt lat="46.32325" lon="-0.5445">
        <ele>8.643008</ele>
        <time>2013-02-19T15:07:19Z</time>
      </trkpt>
      <trkpt lat="46.32327" lon="-0.54457">
        <ele>8.643008</ele>
        <time>2013-02-19T15:07:24Z</time>
      </trkpt>
      <trkpt lat="46.32332" lon="-0.54456">
        <ele>10.139756</ele>
        <time>2013-02-19T15:07:29Z</time>
      </trkpt>
      <trkpt lat="46.32335" lon="-0.54462">
        <ele>10.139756</ele>
        <time>2013-02-19T15:07:34Z</time>
      </trkpt>
      <trkpt lat="46.32338" lon="-0.54465">
        <ele>10.139756</ele>
        <time>2013-02-19T15:07:39Z</time>
      </trkpt>
      <trkpt lat="46.32339" lon="-0.54459">
        <ele>11.140237</ele>
        <time>2013-02-19T15:07:44Z</time>
      </trkpt>
      <trkpt lat="46.32341" lon="-0.54458">
        <ele>11.140237</ele>
        <time>2013-02-19T15:07:49Z</time>
      </trkpt>
      <trkpt lat="46.32348" lon="-0.5445">
        <ele>11.418135</ele>
        <time>2013-02-19T15:07:54Z</time>
      </trkpt>
      <trkpt lat="46.32351" lon="-0.54449">
        <ele>11.418135</ele>
        <time>2013-02-19T15:07:59Z</time>
      </trkpt>
      <trkpt lat="46.32353" lon="-0.54449">
        <ele>11.418135</ele>
        <time>2013-02-19T15:08:04Z</time>
      </trkpt>
      <trkpt lat="46.32361" lon="-0.54438">
        <ele>10.506339</ele>
        <time>2013-02-19T15:08:09Z</time>
      </trkpt>
      <trkpt lat="46.32365" lon="-0.54431">
        <ele>10.506339</ele>
        <time>2013-02-19T15:08:14Z</time>
      </trkpt>
      <trkpt lat="46.32368" lon="-0.5442">
        <ele>10.0361395</ele>
        <time>2013-02-19T15:08:19Z</time>
      </trkpt>
      <trkpt lat="46.3237" lon="-0.54417">
        <ele>10.0361395</ele>
        <time>2013-02-19T15:08:24Z</time>
      </trkpt>
      <trkpt lat="46.32374" lon="-0.54421">
        <ele>10.0361395</ele>
        <time>2013-02-19T15:08:29Z</time>
      </trkpt>
      <trkpt lat="46.32377" lon="-0.54421">
        <ele>10.249538</ele>
        <time>2013-02-19T15:08:34Z</time>
      </trkpt>
      <trkpt lat="46.32379" lon="-0.5442">
        <ele>10.249538</ele>
        <time>2013-02-19T15:08:39Z</time>
      </trkpt>
      <trkpt lat="46.32383" lon="-0.54415">
        <ele>10.249538</ele>
        <time>2013-02-19T15:08:44Z</time>
      </trkpt>
      <trkpt lat="46.32384" lon="-0.54412">
        <ele>11.267935</ele>
        <time>2013-02-19T15:08:49Z</time>
      </trkpt>
      <trkpt lat="46.32386" lon="-0.54406">
        <ele>11.267935</ele>
        <time>2013-02-19T15:08:54Z</time>
      </trkpt>
      <trkpt lat="46.32392" lon="-0.54394">
        <ele>12.019814</ele>
        <time>2013-02-19T15:08:59Z</time>
      </trkpt>
      <trkpt lat="46.32395" lon="-0.54388">
        <ele>12.019814</ele>
        <time>2013-02-19T15:09:04Z</time>
      </trkpt>
      <trkpt lat="46.324" lon="-0.54383">
        <ele>13.530662</ele>
        <time>2013-02-19T15:09:09Z</time>
      </trkpt>
      <trkpt lat="46.32402" lon="-0.5438">
        <ele>13.530662</ele>
        <time>2013-02-19T15:09:14Z</time>
      </trkpt>
      <trkpt lat="46.32403" lon="-0.54375">
        <ele>13.530662</ele>
        <time>2013-02-19T15:09:19Z</time>
      </trkpt>
      <trkpt lat="46.32404" lon="-0.54372">
        <ele>13.530662</ele>
        <time>2013-02-19T15:09:24Z</time>
      </trkpt>
      <trkpt lat="46.32405" lon="-0.54368">
        <ele>15.480323</ele>
        <time>2013-02-19T15:09:29Z</time>
      </trkpt>
      <trkpt lat="46.32403" lon="-0.54362">
        <ele>15.480323</ele>
        <time>2013-02-19T15:09:34Z</time>
      </trkpt>
      <trkpt lat="46.32403" lon="-0.54341">
        <ele>17.369184</ele>
        <time>2013-02-19T15:09:39Z</time>
      </trkpt>
      <trkpt lat="46.32405" lon="-0.54329">
        <ele>17.369184</ele>
        <time>2013-02-19T15:09:44Z</time>
      </trkpt>
      <trkpt lat="46.32405" lon="-0.54317">
        <ele>18.965109</ele>
        <time>2013-02-19T15:09:49Z</time>
      </trkpt>
      <trkpt lat="46.32402" lon="-0.54309">
        <ele>18.965109</ele>
        <time>2013-02-19T15:09:54Z</time>
      </trkpt>
      <trkpt lat="46.32403" lon="-0.54303">
        <ele>19.73683</ele>
        <time>2013-02-19T15:09:59Z</time>
      </trkpt>
      <trkpt lat="46.32407" lon="-0.54298">
        <ele>19.73683</ele>
        <time>2013-02-19T15:10:04Z</time>
      </trkpt>
      <trkpt lat="46.32408" lon="-0.54294">
        <ele>19.73683</ele>
        <time>2013-02-19T15:10:09Z</time>
      </trkpt>
      <trkpt lat="46.32412" lon="-0.54286">
        <ele>20.275301</ele>
        <time>2013-02-19T15:10:14Z</time>
      </trkpt>
      <trkpt lat="46.32409" lon="-0.54286">
        <ele>20.275301</ele>
        <time>2013-02-19T15:10:19Z</time>
      </trkpt>
      <trkpt lat="46.3241" lon="-0.54286">
        <ele>20.275301</ele>
        <time>2013-02-19T15:10:24Z</time>
      </trkpt>
      <trkpt lat="46.32409" lon="-0.54286">
        <ele>20.275301</ele>
        <time>2013-02-19T15:10:29Z</time>
      </trkpt>
      <trkpt lat="46.3241" lon="-0.54286">
        <ele>20.275301</ele>
        <time>2013-02-19T15:10:39Z</time>
      </trkpt>
      <trkpt lat="46.32409" lon="-0.54286">
        <ele>20.275301</ele>
        <time>2013-02-19T15:10:44Z</time>
      </trkpt>
      <trkpt lat="46.3241" lon="-0.54286">
        <ele>20.275301</ele>
        <time>2013-02-19T15:10:49Z</time>
      </trkpt>
      <trkpt lat="46.32409" lon="-0.54286">
        <ele>20.275301</ele>
        <time>2013-02-19T15:11:19Z</time>
      </trkpt>
      <trkpt lat="46.32409" lon="-0.54286">
        <ele>20.275301</ele>
        <time>2013-02-19T15:11:34Z</time>
      </trkpt>
      <trkpt lat="46.32411" lon="-0.5428">
        <ele>21.38818</ele>
        <time>2013-02-19T15:12:59Z</time>
      </trkpt>
      <trkpt lat="46.32411" lon="-0.54284">
        <ele>21.38818</ele>
        <time>2013-02-19T15:13:04Z</time>
      </trkpt>
      <trkpt lat="46.3241" lon="-0.54287">
        <ele>21.38818</ele>
        <time>2013-02-19T15:13:09Z</time>
      </trkpt>
      <trkpt lat="46.32409" lon="-0.54286">
        <ele>21.38818</ele>
        <time>2013-02-19T15:13:14Z</time>
      </trkpt>
      <trkpt lat="46.3241" lon="-0.54284">
        <ele>21.38818</ele>
        <time>2013-02-19T15:13:19Z</time>
      </trkpt>
      <trkpt lat="46.32412" lon="-0.54278">
        <ele>22.741411</ele>
        <time>2013-02-19T15:13:24Z</time>
      </trkpt>
      <trkpt lat="46.32411" lon="-0.54272">
        <ele>22.741411</ele>
        <time>2013-02-19T15:13:29Z</time>
      </trkpt>
      <trkpt lat="46.32413" lon="-0.54271">
        <ele>22.741411</ele>
        <time>2013-02-19T15:13:34Z</time>
      </trkpt>
      <trkpt lat="46.32415" lon="-0.54269">
        <ele>23.361963</ele>
        <time>2013-02-19T15:13:39Z</time>
      </trkpt>
      <trkpt lat="46.32417" lon="-0.54255">
        <ele>22.912441</ele>
        <time>2013-02-19T15:13:44Z</time>
      </trkpt>
      <trkpt lat="46.32413" lon="-0.54248">
        <ele>22.912441</ele>
        <time>2013-02-19T15:13:49Z</time>
      </trkpt>
      <trkpt lat="46.3241" lon="-0.54245">
        <ele>22.092089</ele>
        <time>2013-02-19T15:13:54Z</time>
      </trkpt>
      <trkpt lat="46.32408" lon="-0.54241">
        <ele>22.092089</ele>
        <time>2013-02-19T15:13:59Z</time>
      </trkpt>
      <trkpt lat="46.32407" lon="-0.54239">
        <ele>22.092089</ele>
        <time>2013-02-19T15:14:04Z</time>
      </trkpt>
      <trkpt lat="46.324" lon="-0.54228">
        <ele>21.29048</ele>
        <time>2013-02-19T15:14:09Z</time>
      </trkpt>
      <trkpt lat="46.32399" lon="-0.54226">
        <ele>21.29048</ele>
        <time>2013-02-19T15:14:14Z</time>
      </trkpt>
      <trkpt lat="46.32398" lon="-0.54218">
        <ele>21.29048</ele>
        <time>2013-02-19T15:14:19Z</time>
      </trkpt>
      <trkpt lat="46.32394" lon="-0.5421">
        <ele>19.441877</ele>
        <time>2013-02-19T15:14:24Z</time>
      </trkpt>
      <trkpt lat="46.32391" lon="-0.54203">
        <ele>19.441877</ele>
        <time>2013-02-19T15:14:29Z</time>
      </trkpt>
      <trkpt lat="46.32389" lon="-0.542">
        <ele>19.441877</ele>
        <time>2013-02-19T15:14:34Z</time>
      </trkpt>
      <trkpt lat="46.32389" lon="-0.54197">
        <ele>17.665836</ele>
        <time>2013-02-19T15:14:39Z</time>
      </trkpt>
      <trkpt lat="46.32385" lon="-0.54189">
        <ele>17.665836</ele>
        <time>2013-02-19T15:14:44Z</time>
      </trkpt>
      <trkpt lat="46.32381" lon="-0.54181">
        <ele>16.048355</ele>
        <time>2013-02-19T15:14:49Z</time>
      </trkpt>
      <trkpt lat="46.3238" lon="-0.54175">
        <ele>16.048355</ele>
        <time>2013-02-19T15:14:54Z</time>
      </trkpt>
      <trkpt lat="46.32378" lon="-0.54169">
        <ele>14.279584</ele>
        <time>2013-02-19T15:14:59Z</time>
      </trkpt>
      <trkpt lat="46.32379" lon="-0.54169">
        <ele>14.279584</ele>
        <time>2013-02-19T15:15:04Z</time>
      </trkpt>
      <trkpt lat="46.32378" lon="-0.54167">
        <ele>14.279584</ele>
        <time>2013-02-19T15:15:09Z</time>
      </trkpt>
      <trkpt lat="46.32375" lon="-0.54152">
        <ele>13.355444</ele>
        <time>2013-02-19T15:15:14Z</time>
      </trkpt>
      <trkpt lat="46.32372" lon="-0.54147">
        <ele>13.355444</ele>
        <time>2013-02-19T15:15:19Z</time>
      </trkpt>
      <trkpt lat="46.3237" lon="-0.54144">
        <ele>13.355444</ele>
        <time>2013-02-19T15:15:24Z</time>
      </trkpt>
      <trkpt lat="46.32369" lon="-0.54137">
        <ele>12.020237</ele>
        <time>2013-02-19T15:15:29Z</time>
      </trkpt>
      <trkpt lat="46.32373" lon="-0.54131">
        <ele>12.020237</ele>
        <time>2013-02-19T15:15:34Z</time>
      </trkpt>
      <trkpt lat="46.32376" lon="-0.54128">
        <ele>10.999489</ele>
        <time>2013-02-19T15:15:39Z</time>
      </trkpt>
      <trkpt lat="46.3238" lon="-0.54124">
        <ele>10.999489</ele>
        <time>2013-02-19T15:15:44Z</time>
      </trkpt>
      <trkpt lat="46.32384" lon="-0.54121">
        <ele>9.970152</ele>
        <time>2013-02-19T15:15:49Z</time>
      </trkpt>
      <trkpt lat="46.32388" lon="-0.54119">
        <ele>9.970152</ele>
        <time>2013-02-19T15:15:54Z</time>
      </trkpt>
      <trkpt lat="46.32395" lon="-0.54118">
        <ele>9.353447</ele>
        <time>2013-02-19T15:15:59Z</time>
      </trkpt>
      <trkpt lat="46.324" lon="-0.54116">
        <ele>9.353447</ele>
        <time>2013-02-19T15:16:04Z</time>
      </trkpt>
      <trkpt lat="46.32405" lon="-0.54113">
        <ele>8.745845</ele>
        <time>2013-02-19T15:16:09Z</time>
      </trkpt>
      <trkpt lat="46.32407" lon="-0.54113">
        <ele>8.745845</ele>
        <time>2013-02-19T15:16:14Z</time>
      </trkpt>
      <trkpt lat="46.32412" lon="-0.54109">
        <ele>8.745845</ele>
        <time>2013-02-19T15:16:19Z</time>
      </trkpt>
      <trkpt lat="46.32417" lon="-0.54106">
        <ele>7.8022094</ele>
        <time>2013-02-19T15:16:24Z</time>
      </trkpt>
      <trkpt lat="46.32421" lon="-0.54103">
        <ele>7.8022094</ele>
        <time>2013-02-19T15:16:29Z</time>
      </trkpt>
      <trkpt lat="46.32422" lon="-0.541">
        <ele>7.8022094</ele>
        <time>2013-02-19T15:16:34Z</time>
      </trkpt>
      <trkpt lat="46.32423" lon="-0.541">
        <ele>7.8022094</ele>
        <time>2013-02-19T15:16:39Z</time>
      </trkpt>
      <trkpt lat="46.32424" lon="-0.541">
        <ele>7.8022094</ele>
        <time>2013-02-19T15:16:44Z</time>
      </trkpt>
      <trkpt lat="46.32424" lon="-0.54099">
        <ele>7.8022094</ele>
        <time>2013-02-19T15:16:49Z</time>
      </trkpt>
      <trkpt lat="46.32424" lon="-0.54098">
        <ele>6.4630523</ele>
        <time>2013-02-19T15:16:54Z</time>
      </trkpt>
      <trkpt lat="46.32424" lon="-0.54098">
        <ele>6.4630523</ele>
        <time>2013-02-19T15:16:59Z</time>
      </trkpt>
      <trkpt lat="46.32421" lon="-0.54097">
        <ele>6.4630523</ele>
        <time>2013-02-19T15:17:09Z</time>
      </trkpt>
      <trkpt lat="46.32415" lon="-0.54102">
        <ele>5.3948708</ele>
        <time>2013-02-19T15:17:14Z</time>
      </trkpt>
      <trkpt lat="46.3241" lon="-0.54104">
        <ele>5.3948708</ele>
        <time>2013-02-19T15:17:19Z</time>
      </trkpt>
      <trkpt lat="46.32408" lon="-0.54108">
        <ele>5.3948708</ele>
        <time>2013-02-19T15:17:24Z</time>
      </trkpt>
      <trkpt lat="46.32402" lon="-0.54109">
        <ele>4.8252854</ele>
        <time>2013-02-19T15:17:29Z</time>
      </trkpt>
      <trkpt lat="46.32399" lon="-0.54104">
        <ele>4.8252854</ele>
        <time>2013-02-19T15:17:34Z</time>
      </trkpt>
      <trkpt lat="46.32397" lon="-0.541">
        <ele>4.8252854</ele>
        <time>2013-02-19T15:17:39Z</time>
      </trkpt>
      <trkpt lat="46.32395" lon="-0.54095">
        <ele>4.516999</ele>
        <time>2013-02-19T15:17:44Z</time>
      </trkpt>
      <trkpt lat="46.32395" lon="-0.54092">
        <ele>4.516999</ele>
        <time>2013-02-19T15:17:49Z</time>
      </trkpt>
      <trkpt lat="46.32397" lon="-0.54093">
        <ele>4.516999</ele>
        <time>2013-02-19T15:17:54Z</time>
      </trkpt>
      <trkpt lat="46.32397" lon="-0.54094">
        <ele>4.516999</ele>
        <time>2013-02-19T15:18:14Z</time>
      </trkpt>
      <trkpt lat="46.32397" lon="-0.54091">
        <ele>4.516999</ele>
        <time>2013-02-19T15:18:19Z</time>
      </trkpt>
      <trkpt lat="46.32397" lon="-0.54088">
        <ele>4.451111</ele>
        <time>2013-02-19T15:18:24Z</time>
      </trkpt>
      <trkpt lat="46.32394" lon="-0.54083">
        <ele>4.451111</ele>
        <time>2013-02-19T15:18:29Z</time>
      </trkpt>
      <trkpt lat="46.32394" lon="-0.54081">
        <ele>4.451111</ele>
        <time>2013-02-19T15:18:34Z</time>
      </trkpt>
      <trkpt lat="46.32394" lon="-0.54081">
        <ele>4.451111</ele>
        <time>2013-02-19T15:18:39Z</time>
      </trkpt>
      <trkpt lat="46.32385" lon="-0.54059">
        <ele>4.710255</ele>
        <time>2013-02-19T15:18:44Z</time>
      </trkpt>
      <trkpt lat="46.32382" lon="-0.54052">
        <ele>4.710255</ele>
        <time>2013-02-19T15:18:49Z</time>
      </trkpt>
      <trkpt lat="46.32379" lon="-0.54043">
        <ele>4.7935915</ele>
        <time>2013-02-19T15:18:54Z</time>
      </trkpt>
      <trkpt lat="46.32378" lon="-0.54039">
        <ele>4.7935915</ele>
        <time>2013-02-19T15:18:59Z</time>
      </trkpt>
      <trkpt lat="46.32375" lon="-0.54025">
        <ele>5.246301</ele>
        <time>2013-02-19T15:19:04Z</time>
      </trkpt>
      <trkpt lat="46.32373" lon="-0.54021">
        <ele>5.246301</ele>
        <time>2013-02-19T15:19:09Z</time>
      </trkpt>
      <trkpt lat="46.32371" lon="-0.54016">
        <ele>5.246301</ele>
        <time>2013-02-19T15:19:14Z</time>
      </trkpt>
      <trkpt lat="46.32369" lon="-0.54012">
        <ele>6.0968795</ele>
        <time>2013-02-19T15:19:19Z</time>
      </trkpt>
      <trkpt lat="46.32369" lon="-0.54011">
        <ele>6.0968795</ele>
        <time>2013-02-19T15:19:24Z</time>
      </trkpt>
      <trkpt lat="46.32369" lon="-0.54011">
        <ele>6.0968795</ele>
        <time>2013-02-19T15:19:34Z</time>
      </trkpt>
      <trkpt lat="46.32365" lon="-0.54005">
        <ele>6.0968795</ele>
        <time>2013-02-19T15:19:39Z</time>
      </trkpt>
      <trkpt lat="46.32357" lon="-0.53998">
        <ele>6.1456437</ele>
        <time>2013-02-19T15:19:44Z</time>
      </trkpt>
      <trkpt lat="46.32354" lon="-0.53992">
        <ele>6.1456437</ele>
        <time>2013-02-19T15:19:49Z</time>
      </trkpt>
      <trkpt lat="46.32354" lon="-0.53992">
        <ele>6.1456437</ele>
        <time>2013-02-19T15:19:54Z</time>
      </trkpt>
      <trkpt lat="46.32354" lon="-0.53991">
        <ele>6.1456437</ele>
        <time>2013-02-19T15:19:59Z</time>
      </trkpt>
      <trkpt lat="46.32354" lon="-0.53992">
        <ele>6.1456437</ele>
        <time>2013-02-19T15:20:04Z</time>
      </trkpt>
      <trkpt lat="46.32356" lon="-0.53997">
        <ele>6.142302</ele>
        <time>2013-02-19T15:20:14Z</time>
      </trkpt>
      <trkpt lat="46.32358" lon="-0.53998">
        <ele>6.142302</ele>
        <time>2013-02-19T15:20:19Z</time>
      </trkpt>
      <trkpt lat="46.32361" lon="-0.54003">
        <ele>6.142302</ele>
        <time>2013-02-19T15:20:24Z</time>
      </trkpt>
      <trkpt lat="46.32363" lon="-0.5401">
        <ele>5.9746017</ele>
        <time>2013-02-19T15:20:29Z</time>
      </trkpt>
      <trkpt lat="46.32364" lon="-0.54019">
        <ele>5.9746017</ele>
        <time>2013-02-19T15:20:34Z</time>
      </trkpt>
      <trkpt lat="46.32368" lon="-0.54023">
        <ele>5.4092865</ele>
        <time>2013-02-19T15:20:39Z</time>
      </trkpt>
      <trkpt lat="46.32371" lon="-0.54031">
        <ele>5.4092865</ele>
        <time>2013-02-19T15:20:44Z</time>
      </trkpt>
      <trkpt lat="46.32374" lon="-0.54037">
        <ele>4.995133</ele>
        <time>2013-02-19T15:20:49Z</time>
      </trkpt>
      <trkpt lat="46.32378" lon="-0.54044">
        <ele>4.995133</ele>
        <time>2013-02-19T15:20:54Z</time>
      </trkpt>
      <trkpt lat="46.3238" lon="-0.54051">
        <ele>4.822251</ele>
        <time>2013-02-19T15:20:59Z</time>
      </trkpt>
      <trkpt lat="46.32379" lon="-0.54062">
        <ele>4.822251</ele>
        <time>2013-02-19T15:21:04Z</time>
      </trkpt>
      <trkpt lat="46.32383" lon="-0.54067">
        <ele>4.469057</ele>
        <time>2013-02-19T15:21:09Z</time>
      </trkpt>
      <trkpt lat="46.32384" lon="-0.54073">
        <ele>4.469057</ele>
        <time>2013-02-19T15:21:14Z</time>
      </trkpt>
      <trkpt lat="46.32386" lon="-0.54078">
        <ele>4.469057</ele>
        <time>2013-02-19T15:21:19Z</time>
      </trkpt>
      <trkpt lat="46.32388" lon="-0.54085">
        <ele>4.0642376</ele>
        <time>2013-02-19T15:21:24Z</time>
      </trkpt>
      <trkpt lat="46.32392" lon="-0.5409">
        <ele>4.0642376</ele>
        <time>2013-02-19T15:21:29Z</time>
      </trkpt>
      <trkpt lat="46.32393" lon="-0.54099">
        <ele>4.361252</ele>
        <time>2013-02-19T15:21:34Z</time>
      </trkpt>
      <trkpt lat="46.32398" lon="-0.54105">
        <ele>4.361252</ele>
        <time>2013-02-19T15:21:39Z</time>
      </trkpt>
      <trkpt lat="46.32399" lon="-0.54109">
        <ele>4.341316</ele>
        <time>2013-02-19T15:21:44Z</time>
      </trkpt>
      <trkpt lat="46.32396" lon="-0.54114">
        <ele>4.341316</ele>
        <time>2013-02-19T15:21:49Z</time>
      </trkpt>
      <trkpt lat="46.32393" lon="-0.54118">
        <ele>4.341316</ele>
        <time>2013-02-19T15:21:54Z</time>
      </trkpt>
      <trkpt lat="46.32388" lon="-0.54122">
        <ele>3.8972163</ele>
        <time>2013-02-19T15:21:59Z</time>
      </trkpt>
      <trkpt lat="46.32384" lon="-0.54124">
        <ele>3.8972163</ele>
        <time>2013-02-19T15:22:04Z</time>
      </trkpt>
      <trkpt lat="46.32378" lon="-0.54126">
        <ele>3.5504808</ele>
        <time>2013-02-19T15:22:09Z</time>
      </trkpt>
      <trkpt lat="46.32373" lon="-0.54128">
        <ele>3.5504808</ele>
        <time>2013-02-19T15:22:14Z</time>
      </trkpt>
      <trkpt lat="46.32368" lon="-0.54129">
        <ele>2.8329198</ele>
        <time>2013-02-19T15:22:19Z</time>
      </trkpt>
      <trkpt lat="46.32362" lon="-0.54134">
        <ele>2.8329198</ele>
        <time>2013-02-19T15:22:24Z</time>
      </trkpt>
      <trkpt lat="46.32358" lon="-0.54134">
        <ele>1.8305742</ele>
        <time>2013-02-19T15:22:29Z</time>
      </trkpt>
      <trkpt lat="46.32353" lon="-0.54134">
        <ele>1.8305742</ele>
        <time>2013-02-19T15:22:34Z</time>
      </trkpt>
      <trkpt lat="46.32348" lon="-0.54137">
        <ele>0.88335764</ele>
        <time>2013-02-19T15:22:39Z</time>
      </trkpt>
      <trkpt lat="46.32344" lon="-0.5414">
        <ele>0.88335764</ele>
        <time>2013-02-19T15:22:44Z</time>
      </trkpt>
      <trkpt lat="46.32341" lon="-0.54143">
        <ele>0.88335764</ele>
        <time>2013-02-19T15:22:49Z</time>
      </trkpt>
      <trkpt lat="46.32336" lon="-0.54145">
        <ele>0.07547286</ele>
        <time>2013-02-19T15:22:54Z</time>
      </trkpt>
      <trkpt lat="46.32331" lon="-0.54148">
        <ele>0.07547286</ele>
        <time>2013-02-19T15:22:59Z</time>
      </trkpt>
      <trkpt lat="46.32324" lon="-0.54151">
        <ele>-0.40017772</ele>
        <time>2013-02-19T15:23:04Z</time>
      </trkpt>
      <trkpt lat="46.32319" lon="-0.54155">
        <ele>-0.40017772</ele>
        <time>2013-02-19T15:23:09Z</time>
      </trkpt>
      <trkpt lat="46.3231" lon="-0.54153">
        <ele>-0.6396202</ele>
        <time>2013-02-19T15:23:14Z</time>
      </trkpt>
      <trkpt lat="46.32305" lon="-0.54155">
        <ele>-0.6396202</ele>
        <time>2013-02-19T15:23:19Z</time>
      </trkpt>
      <trkpt lat="46.32302" lon="-0.54156">
        <ele>-0.6396202</ele>
        <time>2013-02-19T15:23:24Z</time>
      </trkpt>
      <trkpt lat="46.32298" lon="-0.54157">
        <ele>-0.99190515</ele>
        <time>2013-02-19T15:23:29Z</time>
      </trkpt>
      <trkpt lat="46.32292" lon="-0.54157">
        <ele>-0.99190515</ele>
        <time>2013-02-19T15:23:34Z</time>
      </trkpt>
      <trkpt lat="46.32287" lon="-0.54158">
        <ele>-1.189285</ele>
        <time>2013-02-19T15:23:39Z</time>
      </trkpt>
      <trkpt lat="46.32282" lon="-0.54157">
        <ele>-1.189285</ele>
        <time>2013-02-19T15:23:44Z</time>
      </trkpt>
      <trkpt lat="46.32277" lon="-0.54155">
        <ele>-1.3588183</ele>
        <time>2013-02-19T15:23:49Z</time>
      </trkpt>
      <trkpt lat="46.32272" lon="-0.54154">
        <ele>-1.3588183</ele>
        <time>2013-02-19T15:23:54Z</time>
      </trkpt>
      <trkpt lat="46.32266" lon="-0.54155">
        <ele>-1.5462637</ele>
        <time>2013-02-19T15:23:59Z</time>
      </trkpt>
      <trkpt lat="46.32261" lon="-0.54152">
        <ele>-1.5462637</ele>
        <time>2013-02-19T15:24:04Z</time>
      </trkpt>
      <trkpt lat="46.32255" lon="-0.54148">
        <ele>-1.534578</ele>
        <time>2013-02-19T15:24:09Z</time>
      </trkpt>
      <trkpt lat="46.3225" lon="-0.54146">
        <ele>-1.534578</ele>
        <time>2013-02-19T15:24:14Z</time>
      </trkpt>
      <trkpt lat="46.32248" lon="-0.54146">
        <ele>-1.534578</ele>
        <time>2013-02-19T15:24:19Z</time>
      </trkpt>
      <trkpt lat="46.32241" lon="-0.54144">
        <ele>-1.1520482</ele>
        <time>2013-02-19T15:24:24Z</time>
      </trkpt>
      <trkpt lat="46.32237" lon="-0.54146">
        <ele>-1.1520482</ele>
        <time>2013-02-19T15:24:29Z</time>
      </trkpt>
      <trkpt lat="46.3223" lon="-0.54143">
        <ele>-0.44237345</ele>
        <time>2013-02-19T15:24:34Z</time>
      </trkpt>
      <trkpt lat="46.32228" lon="-0.54148">
        <ele>-0.44237345</ele>
        <time>2013-02-19T15:24:39Z</time>
      </trkpt>
      <trkpt lat="46.3222" lon="-0.54147">
        <ele>0.26482198</ele>
        <time>2013-02-19T15:24:44Z</time>
      </trkpt>
      <trkpt lat="46.32215" lon="-0.54146">
        <ele>0.26482198</ele>
        <time>2013-02-19T15:24:49Z</time>
      </trkpt>
      <trkpt lat="46.32209" lon="-0.54145">
        <ele>0.63532305</ele>
        <time>2013-02-19T15:24:54Z</time>
      </trkpt>
      <trkpt lat="46.32205" lon="-0.54145">
        <ele>0.63532305</ele>
        <time>2013-02-19T15:24:59Z</time>
      </trkpt>
      <trkpt lat="46.32202" lon="-0.54145">
        <ele>0.63532305</ele>
        <time>2013-02-19T15:25:04Z</time>
      </trkpt>
      <trkpt lat="46.32199" lon="-0.54146">
        <ele>0.69188297</ele>
        <time>2013-02-19T15:25:09Z</time>
      </trkpt>
      <trkpt lat="46.32191" lon="-0.54144">
        <ele>0.69188297</ele>
        <time>2013-02-19T15:25:14Z</time>
      </trkpt>
      <trkpt lat="46.32186" lon="-0.54146">
        <ele>0.73029715</ele>
        <time>2013-02-19T15:25:19Z</time>
      </trkpt>
      <trkpt lat="46.32179" lon="-0.54147">
        <ele>0.73029715</ele>
        <time>2013-02-19T15:25:24Z</time>
      </trkpt>
      <trkpt lat="46.32179" lon="-0.54148">
        <ele>0.73029715</ele>
        <time>2013-02-19T15:25:29Z</time>
      </trkpt>
      <trkpt lat="46.32172" lon="-0.54144">
        <ele>0.4914958</ele>
        <time>2013-02-19T15:25:34Z</time>
      </trkpt>
      <trkpt lat="46.32163" lon="-0.54144">
        <ele>0.4914958</ele>
        <time>2013-02-19T15:25:39Z</time>
      </trkpt>
      <trkpt lat="46.32157" lon="-0.54145">
        <ele>0.4856213</ele>
        <time>2013-02-19T15:25:44Z</time>
      </trkpt>
      <trkpt lat="46.32152" lon="-0.54146">
        <ele>0.4856213</ele>
        <time>2013-02-19T15:25:49Z</time>
      </trkpt>
      <trkpt lat="46.32145" lon="-0.54145">
        <ele>0.8532588</ele>
        <time>2013-02-19T15:25:54Z</time>
      </trkpt>
      <trkpt lat="46.3214" lon="-0.54145">
        <ele>0.8532588</ele>
        <time>2013-02-19T15:25:59Z</time>
      </trkpt>
      <trkpt lat="46.32135" lon="-0.54147">
        <ele>1.1327899</ele>
        <time>2013-02-19T15:26:04Z</time>
      </trkpt>
      <trkpt lat="46.3213" lon="-0.54148">
        <ele>1.1327899</ele>
        <time>2013-02-19T15:26:09Z</time>
      </trkpt>
      <trkpt lat="46.32126" lon="-0.54149">
        <ele>1.0697156</ele>
        <time>2013-02-19T15:26:14Z</time>
      </trkpt>
      <trkpt lat="46.32122" lon="-0.5415">
        <ele>1.0697156</ele>
        <time>2013-02-19T15:26:19Z</time>
      </trkpt>
      <trkpt lat="46.32116" lon="-0.54152">
        <ele>0.9912567</ele>
        <time>2013-02-19T15:26:24Z</time>
      </trkpt>
      <trkpt lat="46.32112" lon="-0.54155">
        <ele>0.9912567</ele>
        <time>2013-02-19T15:26:29Z</time>
      </trkpt>
      <trkpt lat="46.32107" lon="-0.54156">
        <ele>0.8548035</ele>
        <time>2013-02-19T15:26:34Z</time>
      </trkpt>
      <trkpt lat="46.32102" lon="-0.54158">
        <ele>0.8548035</ele>
        <time>2013-02-19T15:26:39Z</time>
      </trkpt>
      <trkpt lat="46.32097" lon="-0.54162">
        <ele>0.9813472</ele>
        <time>2013-02-19T15:26:44Z</time>
      </trkpt>
      <trkpt lat="46.32091" lon="-0.54166">
        <ele>0.9813472</ele>
        <time>2013-02-19T15:26:49Z</time>
      </trkpt>
      <trkpt lat="46.32088" lon="-0.54169">
        <ele>1.3217254</ele>
        <time>2013-02-19T15:26:54Z</time>
      </trkpt>
      <trkpt lat="46.32084" lon="-0.54172">
        <ele>1.3217254</ele>
        <time>2013-02-19T15:26:59Z</time>
      </trkpt>
      <trkpt lat="46.32079" lon="-0.54173">
        <ele>1.3217254</ele>
        <time>2013-02-19T15:27:04Z</time>
      </trkpt>
      <trkpt lat="46.32074" lon="-0.54176">
        <ele>1.3830729</ele>
        <time>2013-02-19T15:27:09Z</time>
      </trkpt>
      <trkpt lat="46.32068" lon="-0.54178">
        <ele>1.3830729</ele>
        <time>2013-02-19T15:27:14Z</time>
      </trkpt>
      <trkpt lat="46.32063" lon="-0.5418">
        <ele>1.3148109</ele>
        <time>2013-02-19T15:27:19Z</time>
      </trkpt>
      <trkpt lat="46.32057" lon="-0.54183">
        <ele>1.3148109</ele>
        <time>2013-02-19T15:27:24Z</time>
      </trkpt>
      <trkpt lat="46.32053" lon="-0.54185">
        <ele>1.3422458</ele>
        <time>2013-02-19T15:27:29Z</time>
      </trkpt>
      <trkpt lat="46.32049" lon="-0.54189">
        <ele>1.3422458</ele>
        <time>2013-02-19T15:27:34Z</time>
      </trkpt>
      <trkpt lat="46.32045" lon="-0.54192">
        <ele>1.3136178</ele>
        <time>2013-02-19T15:27:39Z</time>
      </trkpt>
      <trkpt lat="46.3204" lon="-0.54196">
        <ele>1.3136178</ele>
        <time>2013-02-19T15:27:44Z</time>
      </trkpt>
      <trkpt lat="46.32039" lon="-0.54198">
        <ele>1.3136178</ele>
        <time>2013-02-19T15:27:49Z</time>
      </trkpt>
      <trkpt lat="46.32035" lon="-0.54204">
        <ele>1.3334922</ele>
        <time>2013-02-19T15:27:54Z</time>
      </trkpt>
      <trkpt lat="46.32031" lon="-0.54209">
        <ele>1.3334922</ele>
        <time>2013-02-19T15:27:59Z</time>
      </trkpt>
      <trkpt lat="46.32027" lon="-0.54213">
        <ele>1.3257124</ele>
        <time>2013-02-19T15:28:04Z</time>
      </trkpt>
      <trkpt lat="46.32023" lon="-0.54217">
        <ele>1.3257124</ele>
        <time>2013-02-19T15:28:09Z</time>
      </trkpt>
      <trkpt lat="46.32018" lon="-0.54221">
        <ele>1.4648125</ele>
        <time>2013-02-19T15:28:14Z</time>
      </trkpt>
      <trkpt lat="46.32011" lon="-0.54224">
        <ele>1.4648125</ele>
        <time>2013-02-19T15:28:19Z</time>
      </trkpt>
      <trkpt lat="46.32008" lon="-0.54229">
        <ele>1.5374323</ele>
        <time>2013-02-19T15:28:24Z</time>
      </trkpt>
      <trkpt lat="46.32001" lon="-0.54237">
        <ele>2.1963568</ele>
        <time>2013-02-19T15:28:29Z</time>
      </trkpt>
      <trkpt lat="46.31993" lon="-0.54247">
        <ele>3.237781</ele>
        <time>2013-02-19T15:28:34Z</time>
      </trkpt>
      <trkpt lat="46.31989" lon="-0.5425">
        <ele>3.237781</ele>
        <time>2013-02-19T15:28:39Z</time>
      </trkpt>
      <trkpt lat="46.31984" lon="-0.54253">
        <ele>4.198023</ele>
        <time>2013-02-19T15:28:44Z</time>
      </trkpt>
      <trkpt lat="46.31979" lon="-0.54258">
        <ele>4.198023</ele>
        <time>2013-02-19T15:28:49Z</time>
      </trkpt>
      <trkpt lat="46.31973" lon="-0.54262">
        <ele>5.238584</ele>
        <time>2013-02-19T15:28:54Z</time>
      </trkpt>
      <trkpt lat="46.3197" lon="-0.54265">
        <ele>5.238584</ele>
        <time>2013-02-19T15:28:59Z</time>
      </trkpt>
      <trkpt lat="46.31967" lon="-0.54271">
        <ele>5.759545</ele>
        <time>2013-02-19T15:29:04Z</time>
      </trkpt>
      <trkpt lat="46.31963" lon="-0.54275">
        <ele>5.759545</ele>
        <time>2013-02-19T15:29:09Z</time>
      </trkpt>
      <trkpt lat="46.31957" lon="-0.54281">
        <ele>6.1576943</ele>
        <time>2013-02-19T15:29:14Z</time>
      </trkpt>
      <trkpt lat="46.31952" lon="-0.54286">
        <ele>6.1576943</ele>
        <time>2013-02-19T15:29:19Z</time>
      </trkpt>
      <trkpt lat="46.31948" lon="-0.54291">
        <ele>6.4984384</ele>
        <time>2013-02-19T15:29:24Z</time>
      </trkpt>
      <trkpt lat="46.31942" lon="-0.54296">
        <ele>6.4984384</ele>
        <time>2013-02-19T15:29:29Z</time>
      </trkpt>
      <trkpt lat="46.31937" lon="-0.54301">
        <ele>7.044345</ele>
        <time>2013-02-19T15:29:34Z</time>
      </trkpt>
      <trkpt lat="46.31932" lon="-0.54305">
        <ele>7.044345</ele>
        <time>2013-02-19T15:29:39Z</time>
      </trkpt>
      <trkpt lat="46.31927" lon="-0.5431">
        <ele>7.8220057</ele>
        <time>2013-02-19T15:29:44Z</time>
      </trkpt>
      <trkpt lat="46.31922" lon="-0.54315">
        <ele>7.8220057</ele>
        <time>2013-02-19T15:29:49Z</time>
      </trkpt>
      <trkpt lat="46.31919" lon="-0.54316">
        <ele>7.8220057</ele>
        <time>2013-02-19T15:29:54Z</time>
      </trkpt>
      <trkpt lat="46.31915" lon="-0.54318">
        <ele>8.322252</ele>
        <time>2013-02-19T15:29:59Z</time>
      </trkpt>
      <trkpt lat="46.31914" lon="-0.5432">
        <ele>8.322252</ele>
        <time>2013-02-19T15:30:04Z</time>
      </trkpt>
      <trkpt lat="46.31914" lon="-0.5432">
        <ele>8.322252</ele>
        <time>2013-02-19T15:30:09Z</time>
      </trkpt>
      <trkpt lat="46.31913" lon="-0.5432">
        <ele>8.322252</ele>
        <time>2013-02-19T15:30:19Z</time>
      </trkpt>
      <trkpt lat="46.31914" lon="-0.54318">
        <ele>8.322252</ele>
        <time>2013-02-19T15:30:24Z</time>
      </trkpt>
      <trkpt lat="46.31913" lon="-0.54318">
        <ele>8.322252</ele>
        <time>2013-02-19T15:30:29Z</time>
      </trkpt>
      <trkpt lat="46.31914" lon="-0.54317">
        <ele>8.322252</ele>
        <time>2013-02-19T15:30:34Z</time>
      </trkpt>
      <trkpt lat="46.31912" lon="-0.54319">
        <ele>8.72265</ele>
        <time>2013-02-19T15:30:49Z</time>
      </trkpt>
      <trkpt lat="46.31909" lon="-0.54316">
        <ele>8.72265</ele>
        <time>2013-02-19T15:30:54Z</time>
      </trkpt>
      <trkpt lat="46.31907" lon="-0.54308">
        <ele>9.404222</ele>
        <time>2013-02-19T15:30:59Z</time>
      </trkpt>
      <trkpt lat="46.31906" lon="-0.543">
        <ele>9.404222</ele>
        <time>2013-02-19T15:31:04Z</time>
      </trkpt>
      <trkpt lat="46.31904" lon="-0.54292">
        <ele>10.171646</ele>
        <time>2013-02-19T15:31:09Z</time>
      </trkpt>
      <trkpt lat="46.31904" lon="-0.5429">
        <ele>10.171646</ele>
        <time>2013-02-19T15:31:14Z</time>
      </trkpt>
      <trkpt lat="46.31902" lon="-0.54286">
        <ele>10.171646</ele>
        <time>2013-02-19T15:31:19Z</time>
      </trkpt>
      <trkpt lat="46.31901" lon="-0.54276">
        <ele>10.526719</ele>
        <time>2013-02-19T15:31:24Z</time>
      </trkpt>
      <trkpt lat="46.31899" lon="-0.54265">
        <ele>10.526719</ele>
        <time>2013-02-19T15:31:29Z</time>
      </trkpt>
      <trkpt lat="46.31897" lon="-0.54257">
        <ele>10.945767</ele>
        <time>2013-02-19T15:31:34Z</time>
      </trkpt>
      <trkpt lat="46.31897" lon="-0.54254">
        <ele>10.945767</ele>
        <time>2013-02-19T15:31:39Z</time>
      </trkpt>
      <trkpt lat="46.31896" lon="-0.54254">
        <ele>10.945767</ele>
        <time>2013-02-19T15:31:44Z</time>
      </trkpt>
      <trkpt lat="46.31893" lon="-0.54241">
        <ele>11.005335</ele>
        <time>2013-02-19T15:31:49Z</time>
      </trkpt>
      <trkpt lat="46.31892" lon="-0.54232">
        <ele>11.005335</ele>
        <time>2013-02-19T15:31:54Z</time>
      </trkpt>
      <trkpt lat="46.31889" lon="-0.54223">
        <ele>11.294089</ele>
        <time>2013-02-19T15:31:59Z</time>
      </trkpt>
      <trkpt lat="46.31886" lon="-0.54217">
        <ele>11.294089</ele>
        <time>2013-02-19T15:32:04Z</time>
      </trkpt>
      <trkpt lat="46.31885" lon="-0.54211">
        <ele>11.290436</ele>
        <time>2013-02-19T15:32:09Z</time>
      </trkpt>
      <trkpt lat="46.31883" lon="-0.54203">
        <ele>11.290436</ele>
        <time>2013-02-19T15:32:14Z</time>
      </trkpt>
      <trkpt lat="46.3188" lon="-0.54196">
        <ele>11.24693</ele>
        <time>2013-02-19T15:32:19Z</time>
      </trkpt>
      <trkpt lat="46.31878" lon="-0.5419">
        <ele>11.24693</ele>
        <time>2013-02-19T15:32:24Z</time>
      </trkpt>
      <trkpt lat="46.31878" lon="-0.54185">
        <ele>11.24693</ele>
        <time>2013-02-19T15:32:29Z</time>
      </trkpt>
      <trkpt lat="46.31875" lon="-0.54176">
        <ele>11.167146</ele>
        <time>2013-02-19T15:32:34Z</time>
      </trkpt>
      <trkpt lat="46.31873" lon="-0.54163">
        <ele>11.213057</ele>
        <time>2013-02-19T15:32:39Z</time>
      </trkpt>
      <trkpt lat="46.31872" lon="-0.54151">
        <ele>11.213057</ele>
        <time>2013-02-19T15:32:44Z</time>
      </trkpt>
      <trkpt lat="46.3187" lon="-0.54146">
        <ele>12.009984</ele>
        <time>2013-02-19T15:32:49Z</time>
      </trkpt>
      <trkpt lat="46.31868" lon="-0.54138">
        <ele>12.009984</ele>
        <time>2013-02-19T15:32:54Z</time>
      </trkpt>
      <trkpt lat="46.31864" lon="-0.54135">
        <ele>12.535603</ele>
        <time>2013-02-19T15:32:59Z</time>
      </trkpt>
      <trkpt lat="46.31864" lon="-0.54131">
        <ele>12.535603</ele>
        <time>2013-02-19T15:33:04Z</time>
      </trkpt>
      <trkpt lat="46.31864" lon="-0.5413">
        <ele>12.535603</ele>
        <time>2013-02-19T15:33:09Z</time>
      </trkpt>
      <trkpt lat="46.31863" lon="-0.54122">
        <ele>12.92431</ele>
        <time>2013-02-19T15:33:14Z</time>
      </trkpt>
      <trkpt lat="46.31858" lon="-0.54112">
        <ele>12.92431</ele>
        <time>2013-02-19T15:33:19Z</time>
      </trkpt>
      <trkpt lat="46.31856" lon="-0.54109">
        <ele>12.940764</ele>
        <time>2013-02-19T15:33:24Z</time>
      </trkpt>
      <trkpt lat="46.31855" lon="-0.54109">
        <ele>12.940764</ele>
        <time>2013-02-19T15:33:29Z</time>
      </trkpt>
      <trkpt lat="46.31854" lon="-0.54109">
        <ele>12.940764</ele>
        <time>2013-02-19T15:33:34Z</time>
      </trkpt>
      <trkpt lat="46.31854" lon="-0.54109">
        <ele>12.940764</ele>
        <time>2013-02-19T15:33:39Z</time>
      </trkpt>
      <trkpt lat="46.31853" lon="-0.5411">
        <ele>12.940764</ele>
        <time>2013-02-19T15:33:44Z</time>
      </trkpt>
      <trkpt lat="46.31851" lon="-0.5411">
        <ele>12.940764</ele>
        <time>2013-02-19T15:33:49Z</time>
      </trkpt>
      <trkpt lat="46.31843" lon="-0.54112">
        <ele>12.4832735</ele>
        <time>2013-02-19T15:33:54Z</time>
      </trkpt>
      <trkpt lat="46.31838" lon="-0.54114">
        <ele>12.4832735</ele>
        <time>2013-02-19T15:33:59Z</time>
      </trkpt>
      <trkpt lat="46.31834" lon="-0.54115">
        <ele>11.992176</ele>
        <time>2013-02-19T15:34:04Z</time>
      </trkpt>
      <trkpt lat="46.31832" lon="-0.54116">
        <ele>11.992176</ele>
        <time>2013-02-19T15:34:09Z</time>
      </trkpt>
      <trkpt lat="46.31826" lon="-0.54122">
        <ele>11.990865</ele>
        <time>2013-02-19T15:34:14Z</time>
      </trkpt>
      <trkpt lat="46.31821" lon="-0.54125">
        <ele>11.990865</ele>
        <time>2013-02-19T15:34:19Z</time>
      </trkpt>
      <trkpt lat="46.31816" lon="-0.54128">
        <ele>11.997377</ele>
        <time>2013-02-19T15:34:24Z</time>
      </trkpt>
      <trkpt lat="46.31811" lon="-0.54128">
        <ele>11.997377</ele>
        <time>2013-02-19T15:34:29Z</time>
      </trkpt>
      <trkpt lat="46.31806" lon="-0.5413">
        <ele>11.70925</ele>
        <time>2013-02-19T15:34:34Z</time>
      </trkpt>
      <trkpt lat="46.318" lon="-0.54131">
        <ele>11.70925</ele>
        <time>2013-02-19T15:34:39Z</time>
      </trkpt>
      <trkpt lat="46.31797" lon="-0.54137">
        <ele>11.221757</ele>
        <time>2013-02-19T15:34:44Z</time>
      </trkpt>
      <trkpt lat="46.31793" lon="-0.54146">
        <ele>11.221757</ele>
        <time>2013-02-19T15:34:49Z</time>
      </trkpt>
      <trkpt lat="46.31792" lon="-0.54148">
        <ele>11.221757</ele>
        <time>2013-02-19T15:34:54Z</time>
      </trkpt>
      <trkpt lat="46.31787" lon="-0.54153">
        <ele>10.580495</ele>
        <time>2013-02-19T15:34:59Z</time>
      </trkpt>
      <trkpt lat="46.31782" lon="-0.54157">
        <ele>10.580495</ele>
        <time>2013-02-19T15:35:04Z</time>
      </trkpt>
      <trkpt lat="46.31777" lon="-0.54162">
        <ele>10.14518</ele>
        <time>2013-02-19T15:35:09Z</time>
      </trkpt>
      <trkpt lat="46.31775" lon="-0.54167">
        <ele>10.14518</ele>
        <time>2013-02-19T15:35:14Z</time>
      </trkpt>
      <trkpt lat="46.31771" lon="-0.54169">
        <ele>10.14518</ele>
        <time>2013-02-19T15:35:19Z</time>
      </trkpt>
      <trkpt lat="46.31767" lon="-0.5417">
        <ele>9.383842</ele>
        <time>2013-02-19T15:35:24Z</time>
      </trkpt>
      <trkpt lat="46.31764" lon="-0.54174">
        <ele>9.383842</ele>
        <time>2013-02-19T15:35:29Z</time>
      </trkpt>
      <trkpt lat="46.3176" lon="-0.54178">
        <ele>9.383842</ele>
        <time>2013-02-19T15:35:34Z</time>
      </trkpt>
      <trkpt lat="46.31757" lon="-0.54183">
        <ele>8.899732</ele>
        <time>2013-02-19T15:35:39Z</time>
      </trkpt>
      <trkpt lat="46.31754" lon="-0.54186">
        <ele>8.899732</ele>
        <time>2013-02-19T15:35:44Z</time>
      </trkpt>
      <trkpt lat="46.31751" lon="-0.5419">
        <ele>8.899732</ele>
        <time>2013-02-19T15:35:49Z</time>
      </trkpt>
      <trkpt lat="46.31746" lon="-0.54192">
        <ele>7.88192</ele>
        <time>2013-02-19T15:35:54Z</time>
      </trkpt>
      <trkpt lat="46.31745" lon="-0.54201">
        <ele>7.88192</ele>
        <time>2013-02-19T15:35:59Z</time>
      </trkpt>
      <trkpt lat="46.3174" lon="-0.54206">
        <ele>7.036039</ele>
        <time>2013-02-19T15:36:04Z</time>
      </trkpt>
      <trkpt lat="46.31735" lon="-0.5421">
        <ele>7.036039</ele>
        <time>2013-02-19T15:36:09Z</time>
      </trkpt>
      <trkpt lat="46.31731" lon="-0.54211">
        <ele>6.20834</ele>
        <time>2013-02-19T15:36:14Z</time>
      </trkpt>
      <trkpt lat="46.31723" lon="-0.54214">
        <ele>6.20834</ele>
        <time>2013-02-19T15:36:19Z</time>
      </trkpt>
      <trkpt lat="46.31718" lon="-0.54217">
        <ele>5.6165524</ele>
        <time>2013-02-19T15:36:24Z</time>
      </trkpt>
      <trkpt lat="46.31713" lon="-0.5422">
        <ele>5.6165524</ele>
        <time>2013-02-19T15:36:29Z</time>
      </trkpt>
      <trkpt lat="46.31709" lon="-0.54224">
        <ele>5.317588</ele>
        <time>2013-02-19T15:36:34Z</time>
      </trkpt>
      <trkpt lat="46.31707" lon="-0.54229">
        <ele>5.317588</ele>
        <time>2013-02-19T15:36:39Z</time>
      </trkpt>
      <trkpt lat="46.31706" lon="-0.54229">
        <ele>5.317588</ele>
        <time>2013-02-19T15:36:44Z</time>
      </trkpt>
      <trkpt lat="46.31702" lon="-0.54232">
        <ele>5.317588</ele>
        <time>2013-02-19T15:36:49Z</time>
      </trkpt>
      <trkpt lat="46.31698" lon="-0.54233">
        <ele>4.844505</ele>
        <time>2013-02-19T15:36:54Z</time>
      </trkpt>
      <trkpt lat="46.31692" lon="-0.54235">
        <ele>4.844505</ele>
        <time>2013-02-19T15:36:59Z</time>
      </trkpt>
      <trkpt lat="46.31688" lon="-0.54236">
        <ele>4.7162313</ele>
        <time>2013-02-19T15:37:04Z</time>
      </trkpt>
      <trkpt lat="46.31684" lon="-0.54239">
        <ele>4.7162313</ele>
        <time>2013-02-19T15:37:09Z</time>
      </trkpt>
      <trkpt lat="46.31677" lon="-0.54239">
        <ele>4.562299</ele>
        <time>2013-02-19T15:37:14Z</time>
      </trkpt>
      <trkpt lat="46.31672" lon="-0.54236">
        <ele>4.562299</ele>
        <time>2013-02-19T15:37:19Z</time>
      </trkpt>
      <trkpt lat="46.31666" lon="-0.54235">
        <ele>4.399751</ele>
        <time>2013-02-19T15:37:24Z</time>
      </trkpt>
      <trkpt lat="46.31661" lon="-0.54235">
        <ele>4.399751</ele>
        <time>2013-02-19T15:37:29Z</time>
      </trkpt>
      <trkpt lat="46.31655" lon="-0.54234">
        <ele>4.258764</ele>
        <time>2013-02-19T15:37:34Z</time>
      </trkpt>
      <trkpt lat="46.3165" lon="-0.54234">
        <ele>4.258764</ele>
        <time>2013-02-19T15:37:39Z</time>
      </trkpt>
      <trkpt lat="46.31646" lon="-0.54234">
        <ele>4.2248306</ele>
        <time>2013-02-19T15:37:44Z</time>
      </trkpt>
      <trkpt lat="46.31641" lon="-0.54233">
        <ele>4.2248306</ele>
        <time>2013-02-19T15:37:49Z</time>
      </trkpt>
      <trkpt lat="46.31637" lon="-0.54232">
        <ele>4.2248306</ele>
        <time>2013-02-19T15:37:54Z</time>
      </trkpt>
      <trkpt lat="46.31632" lon="-0.54229">
        <ele>4.4200525</ele>
        <time>2013-02-19T15:37:59Z</time>
      </trkpt>
      <trkpt lat="46.31626" lon="-0.54227">
        <ele>4.4200525</ele>
        <time>2013-02-19T15:38:04Z</time>
      </trkpt>
      <trkpt lat="46.3162" lon="-0.54223">
        <ele>4.8415847</ele>
        <time>2013-02-19T15:38:09Z</time>
      </trkpt>
      <trkpt lat="46.31614" lon="-0.54222">
        <ele>4.8415847</ele>
        <time>2013-02-19T15:38:14Z</time>
      </trkpt>
      <trkpt lat="46.31608" lon="-0.54222">
        <ele>5.0681963</ele>
        <time>2013-02-19T15:38:19Z</time>
      </trkpt>
      <trkpt lat="46.31604" lon="-0.54221">
        <ele>5.0681963</ele>
        <time>2013-02-19T15:38:24Z</time>
      </trkpt>
      <trkpt lat="46.31598" lon="-0.5422">
        <ele>5.2000895</ele>
        <time>2013-02-19T15:38:29Z</time>
      </trkpt>
      <trkpt lat="46.31595" lon="-0.5422">
        <ele>5.2000895</ele>
        <time>2013-02-19T15:38:34Z</time>
      </trkpt>
      <trkpt lat="46.31589" lon="-0.54218">
        <ele>5.6617975</ele>
        <time>2013-02-19T15:38:39Z</time>
      </trkpt>
      <trkpt lat="46.31583" lon="-0.54217">
        <ele>5.6617975</ele>
        <time>2013-02-19T15:38:44Z</time>
      </trkpt>
      <trkpt lat="46.3158" lon="-0.5422">
        <ele>6.1107507</ele>
        <time>2013-02-19T15:38:49Z</time>
      </trkpt>
      <trkpt lat="46.31579" lon="-0.54219">
        <ele>6.1107507</ele>
        <time>2013-02-19T15:38:54Z</time>
      </trkpt>
      <trkpt lat="46.31574" lon="-0.54217">
        <ele>6.1107507</ele>
        <time>2013-02-19T15:38:59Z</time>
      </trkpt>
      <trkpt lat="46.3157" lon="-0.54215">
        <ele>6.6330724</ele>
        <time>2013-02-19T15:39:04Z</time>
      </trkpt>
      <trkpt lat="46.31564" lon="-0.54216">
        <ele>6.6330724</ele>
        <time>2013-02-19T15:39:09Z</time>
      </trkpt>
      <trkpt lat="46.3156" lon="-0.54218">
        <ele>7.164227</ele>
        <time>2013-02-19T15:39:14Z</time>
      </trkpt>
      <trkpt lat="46.31554" lon="-0.54213">
        <ele>7.164227</ele>
        <time>2013-02-19T15:39:19Z</time>
      </trkpt>
      <trkpt lat="46.31546" lon="-0.54214">
        <ele>7.457041</ele>
        <time>2013-02-19T15:39:24Z</time>
      </trkpt>
      <trkpt lat="46.3154" lon="-0.54214">
        <ele>7.457041</ele>
        <time>2013-02-19T15:39:29Z</time>
      </trkpt>
      <trkpt lat="46.31537" lon="-0.54212">
        <ele>7.729907</ele>
        <time>2013-02-19T15:39:34Z</time>
      </trkpt>
      <trkpt lat="46.31532" lon="-0.54211">
        <ele>7.729907</ele>
        <time>2013-02-19T15:39:39Z</time>
      </trkpt>
      <trkpt lat="46.31526" lon="-0.5421">
        <ele>8.055529</ele>
        <time>2013-02-19T15:39:44Z</time>
      </trkpt>
      <trkpt lat="46.31521" lon="-0.5421">
        <ele>8.055529</ele>
        <time>2013-02-19T15:39:49Z</time>
      </trkpt>
      <trkpt lat="46.31518" lon="-0.54218">
        <ele>8.198489</ele>
        <time>2013-02-19T15:39:54Z</time>
      </trkpt>
      <trkpt lat="46.31514" lon="-0.54224">
        <ele>8.198489</ele>
        <time>2013-02-19T15:39:59Z</time>
      </trkpt>
      <trkpt lat="46.31512" lon="-0.54232">
        <ele>7.8835363</ele>
        <time>2013-02-19T15:40:04Z</time>
      </trkpt>
      <trkpt lat="46.31513" lon="-0.54237">
        <ele>7.8835363</ele>
        <time>2013-02-19T15:40:09Z</time>
      </trkpt>
      <trkpt lat="46.31512" lon="-0.54244">
        <ele>7.8835363</ele>
        <time>2013-02-19T15:40:14Z</time>
      </trkpt>
      <trkpt lat="46.31513" lon="-0.54251">
        <ele>7.289259</ele>
        <time>2013-02-19T15:40:19Z</time>
      </trkpt>
      <trkpt lat="46.31514" lon="-0.54258">
        <ele>7.289259</ele>
        <time>2013-02-19T15:40:24Z</time>
      </trkpt>
      <trkpt lat="46.31514" lon="-0.5426">
        <ele>7.289259</ele>
        <time>2013-02-19T15:40:29Z</time>
      </trkpt>
      <trkpt lat="46.31515" lon="-0.54259">
        <ele>7.289259</ele>
        <time>2013-02-19T15:40:34Z</time>
      </trkpt>
      <trkpt lat="46.31515" lon="-0.5426">
        <ele>7.289259</ele>
        <time>2013-02-19T15:40:39Z</time>
      </trkpt>
      <trkpt lat="46.31514" lon="-0.54259">
        <ele>7.115122</ele>
        <time>2013-02-19T15:41:09Z</time>
      </trkpt>
      <trkpt lat="46.31514" lon="-0.54259">
        <ele>7.115122</ele>
        <time>2013-02-19T15:41:14Z</time>
      </trkpt>
      <trkpt lat="46.31514" lon="-0.54259">
        <ele>7.115122</ele>
        <time>2013-02-19T15:41:19Z</time>
      </trkpt>
      <trkpt lat="46.31515" lon="-0.5426">
        <ele>7.115122</ele>
        <time>2013-02-19T15:41:29Z</time>
      </trkpt>
      <trkpt lat="46.31515" lon="-0.54261">
        <ele>7.115122</ele>
        <time>2013-02-19T15:41:34Z</time>
      </trkpt>
      <trkpt lat="46.31513" lon="-0.54261">
        <ele>7.115122</ele>
        <time>2013-02-19T15:42:14Z</time>
      </trkpt>
      <trkpt lat="46.31511" lon="-0.54259">
        <ele>7.115122</ele>
        <time>2013-02-19T15:42:19Z</time>
      </trkpt>
      <trkpt lat="46.3151" lon="-0.54259">
        <ele>7.115122</ele>
        <time>2013-02-19T15:42:24Z</time>
      </trkpt>
      <trkpt lat="46.31505" lon="-0.54259">
        <ele>7.1865973</ele>
        <time>2013-02-19T15:42:34Z</time>
      </trkpt>
      <trkpt lat="46.31504" lon="-0.54258">
        <ele>7.1865973</ele>
        <time>2013-02-19T15:42:39Z</time>
      </trkpt>
      <trkpt lat="46.31497" lon="-0.54258">
        <ele>7.1865973</ele>
        <time>2013-02-19T15:42:44Z</time>
      </trkpt>
      <trkpt lat="46.31489" lon="-0.54259">
        <ele>7.197174</ele>
        <time>2013-02-19T15:42:49Z</time>
      </trkpt>
      <trkpt lat="46.3148" lon="-0.54261">
        <ele>7.197174</ele>
        <time>2013-02-19T15:42:54Z</time>
      </trkpt>
      <trkpt lat="46.31473" lon="-0.54262">
        <ele>7.4250607</ele>
        <time>2013-02-19T15:42:59Z</time>
      </trkpt>
      <trkpt lat="46.31467" lon="-0.54263">
        <ele>7.4250607</ele>
        <time>2013-02-19T15:43:04Z</time>
      </trkpt>
      <trkpt lat="46.3146" lon="-0.54263">
        <ele>7.4789166</ele>
        <time>2013-02-19T15:43:09Z</time>
      </trkpt>
      <trkpt lat="46.31455" lon="-0.54265">
        <ele>7.4789166</ele>
        <time>2013-02-19T15:43:14Z</time>
      </trkpt>
      <trkpt lat="46.31451" lon="-0.5427">
        <ele>7.573082</ele>
        <time>2013-02-19T15:43:19Z</time>
      </trkpt>
      <trkpt lat="46.31448" lon="-0.54278">
        <ele>7.573082</ele>
        <time>2013-02-19T15:43:24Z</time>
      </trkpt>
      <trkpt lat="46.31445" lon="-0.54287">
        <ele>7.661049</ele>
        <time>2013-02-19T15:43:29Z</time>
      </trkpt>
      <trkpt lat="46.31445" lon="-0.54292">
        <ele>7.661049</ele>
        <time>2013-02-19T15:43:34Z</time>
      </trkpt>
      <trkpt lat="46.31445" lon="-0.54299">
        <ele>7.661049</ele>
        <time>2013-02-19T15:43:39Z</time>
      </trkpt>
      <trkpt lat="46.31444" lon="-0.54304">
        <ele>6.7342</ele>
        <time>2013-02-19T15:43:44Z</time>
      </trkpt>
      <trkpt lat="46.31442" lon="-0.54302">
        <ele>6.7342</ele>
        <time>2013-02-19T15:43:49Z</time>
      </trkpt>
      <trkpt lat="46.31441" lon="-0.54297">
        <ele>6.7342</ele>
        <time>2013-02-19T15:43:54Z</time>
      </trkpt>
      <trkpt lat="46.31439" lon="-0.54288">
        <ele>5.8639984</ele>
        <time>2013-02-19T15:43:59Z</time>
      </trkpt>
      <trkpt lat="46.31436" lon="-0.54274">
        <ele>5.005433</ele>
        <time>2013-02-19T15:44:04Z</time>
      </trkpt>
      <trkpt lat="46.31435" lon="-0.54266">
        <ele>5.005433</ele>
        <time>2013-02-19T15:44:09Z</time>
      </trkpt>
      <trkpt lat="46.31433" lon="-0.54258">
        <ele>4.8084908</ele>
        <time>2013-02-19T15:44:14Z</time>
      </trkpt>
      <trkpt lat="46.31429" lon="-0.54251">
        <ele>4.8084908</ele>
        <time>2013-02-19T15:44:19Z</time>
      </trkpt>
      <trkpt lat="46.31427" lon="-0.54244">
        <ele>4.5621266</ele>
        <time>2013-02-19T15:44:24Z</time>
      </trkpt>
      <trkpt lat="46.3142" lon="-0.54239">
        <ele>4.5621266</ele>
        <time>2013-02-19T15:44:29Z</time>
      </trkpt>
      <trkpt lat="46.31414" lon="-0.54234">
        <ele>4.515551</ele>
        <time>2013-02-19T15:44:34Z</time>
      </trkpt>
      <trkpt lat="46.31411" lon="-0.54239">
        <ele>4.515551</ele>
        <time>2013-02-19T15:44:39Z</time>
      </trkpt>
      <trkpt lat="46.31405" lon="-0.54237">
        <ele>3.8903093</ele>
        <time>2013-02-19T15:44:44Z</time>
      </trkpt>
      <trkpt lat="46.31399" lon="-0.54226">
        <ele>3.6096034</ele>
        <time>2013-02-19T15:44:49Z</time>
      </trkpt>
      <trkpt lat="46.31394" lon="-0.54221">
        <ele>3.6096034</ele>
        <time>2013-02-19T15:44:54Z</time>
      </trkpt>
      <trkpt lat="46.3139" lon="-0.54217">
        <ele>3.5622861</ele>
        <time>2013-02-19T15:44:59Z</time>
      </trkpt>
      <trkpt lat="46.31386" lon="-0.54212">
        <ele>3.5622861</ele>
        <time>2013-02-19T15:45:04Z</time>
      </trkpt>
      <trkpt lat="46.31384" lon="-0.54208">
        <ele>3.5622861</ele>
        <time>2013-02-19T15:45:09Z</time>
      </trkpt>
      <trkpt lat="46.31382" lon="-0.54205">
        <ele>3.3564785</ele>
        <time>2013-02-19T15:45:14Z</time>
      </trkpt>
      <trkpt lat="46.3138" lon="-0.54199">
        <ele>3.3564785</ele>
        <time>2013-02-19T15:45:19Z</time>
      </trkpt>
      <trkpt lat="46.31377" lon="-0.54196">
        <ele>3.3564785</ele>
        <time>2013-02-19T15:45:24Z</time>
      </trkpt>
      <trkpt lat="46.31375" lon="-0.54191">
        <ele>3.0906684</ele>
        <time>2013-02-19T15:45:29Z</time>
      </trkpt>
    </trkseg>
  </trk>
</gpx>